Provisional Data: Ninemile Run near Walton, PA


Please select a monitoring station.
Please select start date.
Please select start date.

Toggle Unit: C/F Toggle Unit: C/F
Sample Time Temperature (C) Temperature (F) Specific Conductivity (mS/cm) pH   Turbidity (NTU+) DO (mg/L)
5/4/2021 12:00:00 AM 9.44 48.992 0.044 6.8 4.91 10.6
5/4/2021 12:15:00 AM 9.42 48.956 0.044 6.72 4.88 10.6
5/4/2021 12:30:00 AM 9.4 48.92 0.044 6.77 4.79 10.6
5/4/2021 12:45:00 AM 9.39 48.902 0.044 6.77 4.64 10.61
5/4/2021 1:00:00 AM 9.38 48.884 0.044 6.75 5.31 10.62
5/4/2021 1:15:00 AM 9.36 48.848 0.044 6.79 4.99 10.62
5/4/2021 1:30:00 AM 9.35 48.83 0.044 6.76 5.3 10.62
5/4/2021 1:45:00 AM 9.34 48.812 0.044 6.79 4.83 10.62
5/4/2021 2:00:00 AM 9.33 48.794 0.044 6.77 5.14 10.63
5/4/2021 2:15:00 AM 9.33 48.794 0.045 6.78 4.65 10.62
5/4/2021 2:30:00 AM 9.32 48.776 0.045 6.73 4.91 10.63
5/4/2021 2:45:00 AM 9.31 48.758 0.045 6.76 4.8 10.63
5/4/2021 3:00:00 AM 9.3 48.74 0.045 6.75 5.09 10.63
5/4/2021 3:15:00 AM 9.29 48.722 0.045 6.76 4.72 10.63
5/4/2021 3:30:00 AM 9.28 48.704 0.045 6.75 4.57 10.63
5/4/2021 3:45:00 AM 9.28 48.704 0.045 6.77 5.22 10.64
5/4/2021 4:00:00 AM 9.27 48.686 0.045 6.74 4.7 10.64
5/4/2021 4:15:00 AM 9.27 48.686 0.045 6.7 4.68 10.64
5/4/2021 4:30:00 AM 9.26 48.668 0.044 6.75 4.96 10.64
5/4/2021 4:45:00 AM 9.26 48.668 0.045 6.73 5.12 10.64
5/4/2021 5:00:00 AM 9.25 48.65 0.045 6.73 4.88 10.64
5/4/2021 5:15:00 AM 9.25 48.65 0.045 6.68 4.86 10.65
5/4/2021 5:30:00 AM 9.25 48.65 0.045 6.74 4.78 10.65
5/4/2021 5:45:00 AM 9.24 48.632 0.044 6.73 4.76 10.64
5/4/2021 6:00:00 AM 9.24 48.632 0.044 6.73 4.99 10.64
5/4/2021 6:15:00 AM 9.23 48.614 0.045 6.68 4.76 10.65
5/4/2021 6:30:00 AM 9.23 48.614 0.044 6.72 5.05 10.65
5/4/2021 6:45:00 AM 9.23 48.614 0.044 6.72 4.77 10.66
5/4/2021 7:00:00 AM 9.23 48.614 0.045 6.75 4.83 10.68
5/4/2021 7:15:00 AM 9.24 48.632 0.045 6.69 4.87 10.7
5/4/2021 7:30:00 AM 9.25 48.65 0.044 6.7 4.79 10.71
5/4/2021 7:45:00 AM 9.26 48.668 0.045 6.76 4.46 10.72
5/4/2021 8:00:00 AM 9.28 48.704 0.044 6.79 4.63 10.76
5/4/2021 8:15:00 AM 9.33 48.794 0.044 6.78 4.31 10.81
5/4/2021 8:30:00 AM 9.35 48.83 0.044 6.82 4.48 10.79
5/4/2021 8:45:00 AM 9.39 48.902 0.044 6.81 4.51 10.84
5/4/2021 9:00:00 AM 9.44 48.992 0.044 6.83 4.63 10.86
5/4/2021 9:15:00 AM 9.48 49.064 0.044 6.87 4.39 10.87
5/4/2021 9:30:00 AM 9.52 49.136 0.044 6.91 4.6 10.87
5/4/2021 9:45:00 AM 9.57 49.226 0.044 6.83 4.61 10.89
5/4/2021 10:00:00 AM 9.69 49.442 0.044 6.95 4.95 10.93
5/4/2021 10:15:00 AM 9.96 49.928 0.044 7 4.81 10.94
5/4/2021 10:30:00 AM 10.21 50.378 0.044 7 4.14 10.93
5/4/2021 10:45:00 AM 10.38 50.684 0.044 6.95 4.49 10.91
5/4/2021 11:00:00 AM 10.44 50.792 0.044 7 4.38 10.86
5/4/2021 11:15:00 AM 10.47 50.846 0.044 7.02 4.56 10.84
5/4/2021 11:30:00 AM 10.63 51.134 0.044 7.04 4.59 10.84
5/4/2021 11:45:00 AM 10.73 51.314 0.044 7.01 4.49 10.79
5/4/2021 12:00:00 PM 10.82 51.476 0.044 7.01 4.5 10.78
5/4/2021 12:15:00 PM 11.05 51.89 0.043 6.99 4.35 10.77
5/4/2021 12:30:00 PM 11.3 52.34 0.044 7.03 4.83 10.73
5/4/2021 12:45:00 PM 11.5 52.7 0.043 7.07 5.07 10.69
5/4/2021 1:00:00 PM 11.72 53.096 0.043 7.09 4.59 10.65
5/4/2021 1:15:00 PM 11.83 53.294 0.043 7.06 4.46 10.57
5/4/2021 1:30:00 PM 11.87 53.366 0.043 7.06 4.29 10.5
5/4/2021 1:45:00 PM 11.93 53.474 0.043 7.04 4.52 10.47
5/4/2021 2:00:00 PM 12.04 53.672 0.044 7.05 4.56 10.42
5/4/2021 2:15:00 PM 12.14 53.852 0.044 7 4.62 10.41
5/4/2021 2:30:00 PM 12.26 54.068 0.044 7.05 4.55 10.41
5/4/2021 2:45:00 PM 12.42 54.356 0.043 7.05 4.6 10.4
5/4/2021 3:00:00 PM 12.47 54.446 0.043 7.04 4.56 10.3
5/4/2021 3:15:00 PM 12.48 54.464 0.043 7.02 4.52 10.26
5/4/2021 3:30:00 PM 12.49 54.482 0.043 7.05 4.86 10.23
5/4/2021 3:45:00 PM 12.49 54.482 0.043 6.98 4.99 10.18
5/4/2021 4:00:00 PM 12.56 54.608 0.043 7.03 4.73 10.24
5/4/2021 4:15:00 PM 12.63 54.734 0.044 7 4.74 10.23
5/4/2021 4:30:00 PM 12.6 54.68 0.044 7.04 4.54 10.21
5/4/2021 4:45:00 PM 12.54 54.572 0.044 7.01 4.7 10.18
5/4/2021 5:00:00 PM 12.46 54.428 0.044 7.03 4.54 10.17
5/4/2021 5:15:00 PM 12.39 54.302 0.044 6.97 4.77 10.14
5/4/2021 5:30:00 PM 12.33 54.194 0.044 6.93 4.47 10.17
5/4/2021 5:45:00 PM 12.28 54.104 0.044 6.98 4.48 10.2
5/4/2021 6:00:00 PM 12.19 53.942 0.044 6.98 4.49 10.17
5/4/2021 6:15:00 PM 12.13 53.834 0.044 6.99 4.68 10.19
5/4/2021 6:30:00 PM 12.08 53.744 0.044 6.94 4.65 10.17
5/4/2021 6:45:00 PM 12.01 53.618 0.044 6.95 4.44 10.14
5/4/2021 7:00:00 PM 11.95 53.51 0.044 6.94 4.63 10.13
5/4/2021 7:15:00 PM 11.87 53.366 0.044 6.91 5.02 10.11
5/4/2021 7:30:00 PM 11.8 53.24 0.044 6.95 4.97 10.1
5/4/2021 7:45:00 PM 11.72 53.096 0.044 6.89 4.87 10.11
5/4/2021 8:00:00 PM 11.63 52.934 0.044 6.87 4.74 10.1
5/4/2021 8:15:00 PM 11.54 52.772 0.044 6.88 4.69 10.1
5/4/2021 8:30:00 PM 11.44 52.592 0.045 6.88 4.95 10.1
5/4/2021 8:45:00 PM 11.36 52.448 0.045 6.84 5.19 10.11
5/4/2021 9:00:00 PM 11.28 52.304 0.045 6.81 4.75 10.13
5/4/2021 9:15:00 PM 11.21 52.178 0.045 6.8 4.9 10.14
5/4/2021 9:30:00 PM 11.14 52.052 0.045 6.8 4.94 10.16
5/4/2021 9:45:00 PM 11.06 51.908 0.045 6.78 5.27 10.17
5/4/2021 10:00:00 PM 10.99 51.782 0.045 6.81 4.75 10.18
5/4/2021 10:15:00 PM 10.93 51.674 0.046 6.79 5.16 10.2
5/4/2021 10:30:00 PM 10.87 51.566 0.046 6.8 4.78 10.21
5/4/2021 10:45:00 PM 10.83 51.494 0.046 6.8 4.97 10.22
5/4/2021 11:00:00 PM 10.79 51.422 0.046 6.83 4.85 10.24
5/4/2021 11:15:00 PM 10.74 51.332 0.046 6.83 4.7 10.25
5/4/2021 11:30:00 PM 10.69 51.242 0.046 6.84 4.93 10.27
5/4/2021 11:45:00 PM 10.65 51.17 0.046 6.83 4.83 10.28
5/5/2021 12:00:00 AM 10.61 51.098 0.046 6.84 4.92 10.29
5/5/2021 12:15:00 AM 10.56 51.008 0.046 6.82 5.37 10.3
5/5/2021 12:30:00 AM 10.52 50.936 0.046 6.8 4.82 10.31
5/5/2021 12:45:00 AM 10.48 50.864 0.046 6.81 5.32 10.33
5/5/2021 1:00:00 AM 10.43 50.774 0.046 6.79 5.15 10.33
5/5/2021 1:15:00 AM 10.39 50.702 0.046 6.76 4.92 10.34
5/5/2021 1:30:00 AM 10.35 50.63 0.046 6.79 4.91 10.36
5/5/2021 1:45:00 AM 10.3 50.54 0.046 6.79 5.05 10.37
5/5/2021 2:00:00 AM 10.26 50.468 0.046 6.81 4.88 10.37
5/5/2021 2:15:00 AM 10.22 50.396 0.046 6.79 5.49 10.38
5/5/2021 2:30:00 AM 10.18 50.324 0.046 6.8 5.18 10.39
5/5/2021 2:45:00 AM 10.14 50.252 0.046 6.76 4.94 10.4
5/5/2021 3:00:00 AM 10.1 50.18 0.046 6.83 4.7 10.41
5/5/2021 3:15:00 AM 10.06 50.108 0.046 6.79 4.59 10.42
5/5/2021 3:30:00 AM 10.03 50.054 0.046 6.81 5.15 10.43
5/5/2021 3:45:00 AM 10 50 0.046 6.8 4.8 10.44
5/5/2021 4:00:00 AM 9.97 49.946 0.046 6.79 4.81 10.45
5/5/2021 4:15:00 AM 9.94 49.892 0.046 6.73 4.88 10.45
5/5/2021 4:30:00 AM 9.91 49.838 0.046 6.79 4.65 10.46
5/5/2021 4:45:00 AM 9.88 49.784 0.046 6.79 4.61 10.47
5/5/2021 5:00:00 AM 9.86 49.748 0.046 6.73 4.95 10.48
5/5/2021 5:15:00 AM 9.84 49.712 0.046 6.79 4.79 10.48
5/5/2021 5:30:00 AM 9.82 49.676 0.046 6.75 4.81 10.49
5/5/2021 5:45:00 AM 9.8 49.64 0.046 6.76 4.79 10.5
5/5/2021 6:00:00 AM 9.79 49.622 0.046 6.83 4.98 10.5
5/5/2021 6:15:00 AM 9.78 49.604 0.046 6.81 4.94 10.51
5/5/2021 6:30:00 AM 9.77 49.586 0.046 6.81 4.82 10.52
5/5/2021 6:45:00 AM 9.76 49.568 0.046 6.84 4.68 10.54
5/5/2021 7:00:00 AM 9.75 49.55 0.046 6.85 5.04 10.57
5/5/2021 7:15:00 AM 9.75 49.55 0.046 6.86 4.52 10.6
5/5/2021 7:30:00 AM 9.75 49.55 0.046 6.8 4.52 10.62
5/5/2021 7:45:00 AM 9.75 49.55 0.047 6.89 4.67 10.64
5/5/2021 8:00:00 AM 9.75 49.55 0.046 6.89 4.8 10.65
5/5/2021 8:15:00 AM 9.75 49.55 0.046 6.86 4.66 10.68
5/5/2021 8:30:00 AM 9.75 49.55 0.046 6.86 4.65 10.69
5/5/2021 8:45:00 AM 9.76 49.568 0.046 6.88 4.67 10.7
5/5/2021 9:00:00 AM 9.75 49.55 0.046 6.88 4.42 10.69
5/5/2021 9:15:00 AM 9.74 49.532 0.046 6.94 4.24 10.68
5/5/2021 9:30:00 AM 9.74 49.532 0.046 6.91 4.45 10.7
5/5/2021 9:45:00 AM 9.76 49.568 0.046 6.9 4.2 10.74
5/5/2021 10:00:00 AM 9.78 49.604 0.046 6.96 4.22 10.78
5/5/2021 10:15:00 AM 9.82 49.676 0.046 6.94 4.59 10.8
5/5/2021 10:30:00 AM 9.82 49.676 0.046 6.88 4.42 10.76
5/5/2021 10:45:00 AM 9.82 49.676 0.046 6.99 4.06 10.79
5/5/2021 11:00:00 AM 9.82 49.676 0.046 6.94 4.15 10.78
5/5/2021 11:15:00 AM 9.81 49.658 0.046 6.92 4.12 10.77
5/5/2021 11:30:00 AM 9.81 49.658 0.046 6.94 4.05 10.77
5/5/2021 11:45:00 AM 9.82 49.676 0.046 6.97 4.09 10.82
5/5/2021 12:00:00 PM 9.84 49.712 0.046 6.94 4.33 10.85
5/5/2021 12:15:00 PM 9.87 49.766 0.046 7 4.39 10.86
5/5/2021 12:30:00 PM 9.89 49.802 0.046 6.98 4.35 10.88
5/5/2021 12:45:00 PM 9.95 49.91 0.046 7 4.25 10.91
5/5/2021 1:00:00 PM 9.94 49.892 0.046 7.01 4.4 10.88
5/5/2021 1:15:00 PM 9.93 49.874 0.046 7 4.48 10.89
5/5/2021 1:30:00 PM 9.92 49.856 0.046 7 4.72 10.89
5/5/2021 1:45:00 PM 9.95 49.91 0.046 7.01 4.13 10.92
5/5/2021 2:00:00 PM 9.99 49.982 0.046 7.06 4.17 10.92
5/5/2021 2:15:00 PM 10.03 50.054 0.046 7.06 4.19 10.93
5/5/2021 2:30:00 PM 10.08 50.144 0.046 7 4.31 10.93
5/5/2021 2:45:00 PM 10.09 50.162 0.046 7.07 4.16 10.9
5/5/2021 3:00:00 PM 10.06 50.108 0.046 7.02 4.17 10.83
5/5/2021 3:15:00 PM 10.02 50.036 0.046 6.96 4.72 10.82
5/5/2021 3:30:00 PM 9.96 49.928 0.046 7.03 4.41 10.81
5/5/2021 3:45:00 PM 9.95 49.91 0.046 7.04 4.28 10.84
5/5/2021 4:00:00 PM 9.99 49.982 0.046 6.99 4.5 10.88
5/5/2021 4:15:00 PM 9.98 49.964 0.046 7.01 4.14 10.87
5/5/2021 4:30:00 PM 9.96 49.928 0.046 7.01 4.31 10.88
5/5/2021 4:45:00 PM 9.94 49.892 0.046 7.02 4.31 10.89
5/5/2021 5:00:00 PM 9.93 49.874 0.046 7.05 4.4 10.88
5/5/2021 5:15:00 PM 9.91 49.838 0.046 7.01 4.33 10.88
5/5/2021 5:30:00 PM 9.87 49.766 0.046 7.04 4.23 10.85
5/5/2021 5:45:00 PM 9.83 49.694 0.046 7.03 4.22 10.83
5/5/2021 6:00:00 PM 9.79 49.622 0.046 6.97 4.13 10.81
5/5/2021 6:15:00 PM 9.75 49.55 0.046 7 4.61 10.81
5/5/2021 6:30:00 PM 9.69 49.442 0.046 6.91 4.36 10.79
5/5/2021 6:45:00 PM 9.65 49.37 0.046 6.99 4.27 10.82
5/5/2021 7:00:00 PM 9.61 49.298 0.046 6.96 4.78 10.81
5/5/2021 7:15:00 PM 9.56 49.208 0.046 6.97 4.24 10.8
5/5/2021 7:30:00 PM 9.5 49.1 0.047 6.97 4.36 10.78
5/5/2021 7:45:00 PM 9.44 48.992 0.047 6.95 4.51 10.76
5/5/2021 8:00:00 PM 9.38 48.884 0.047 6.92 4.49 10.76
5/5/2021 8:15:00 PM 9.32 48.776 0.047 6.95 4.52 10.75
5/5/2021 8:30:00 PM 9.26 48.668 0.047 6.93 4.32 10.75
5/5/2021 8:45:00 PM 9.21 48.578 0.047 6.91 4.89 10.75
5/5/2021 9:00:00 PM 9.15 48.47 0.047 6.91 4.53 10.77
5/5/2021 9:15:00 PM 9.08 48.344 0.047 6.93 4.48 10.78
5/5/2021 9:30:00 PM 9.02 48.236 0.047 6.89 4.68 10.79
5/5/2021 9:45:00 PM 8.97 48.146 0.047 6.85 4.46 10.8
5/5/2021 10:00:00 PM 8.91 48.038 0.047 6.91 4.64 10.82
5/5/2021 10:15:00 PM 8.86 47.948 0.047 6.93 4.48 10.83
5/5/2021 10:30:00 PM 8.8 47.84 0.047 6.89 4.61 10.85
5/5/2021 10:45:00 PM 8.75 47.75 0.047 6.89 4.82 10.86
5/5/2021 11:00:00 PM 8.69 47.642 0.047 6.92 4.73 10.88
5/5/2021 11:15:00 PM 8.64 47.552 0.047 6.91 4.78 10.9
5/5/2021 11:30:00 PM 8.6 47.48 0.047 6.88 4.57 10.91
5/5/2021 11:45:00 PM 8.55 47.39 0.047 6.9 4.55 10.92
5/6/2021 12:00:00 AM 8.5 47.3 0.047 6.93 4.42 10.94
5/6/2021 12:15:00 AM 8.46 47.228 0.047 6.92 4.63 10.95
5/6/2021 12:30:00 AM 8.42 47.156 0.047 6.88 4.67 10.96
5/6/2021 12:45:00 AM 8.37 47.066 0.047 6.9 4.35 10.98
5/6/2021 1:00:00 AM 8.33 46.994 0.047 6.9 4.7 10.99
5/6/2021 1:15:00 AM 8.29 46.922 0.047 6.92 4.51 11
5/6/2021 1:30:00 AM 8.24 46.832 0.047 6.9 4.32 11.01
5/6/2021 1:45:00 AM 8.2 46.76 0.047 6.91 4.63 11.02
5/6/2021 2:00:00 AM 8.16 46.688 0.047 6.87 5.03 11.02
5/6/2021 2:15:00 AM 8.12 46.616 0.047 6.89 4.48 11.04
5/6/2021 2:30:00 AM 8.09 46.562 0.047 6.87 4.59 11.05
5/6/2021 2:45:00 AM 8.06 46.508 0.047 6.91 4.39 11.06
5/6/2021 3:00:00 AM 8.04 46.472 0.047 6.89 4.41 11.07
5/6/2021 3:15:00 AM 8.02 46.436 0.047 6.91 4.56 11.08
5/6/2021 3:30:00 AM 7.99 46.382 0.047 6.88 4.35 11.08
5/6/2021 3:45:00 AM 7.97 46.346 0.047 6.88 4.73 11.09
5/6/2021 4:00:00 AM 7.94 46.292 0.047 6.89 4.56 11.1
5/6/2021 4:15:00 AM 7.92 46.256 0.047 6.92 4.26 11.11
5/6/2021 4:30:00 AM 7.88 46.184 0.047 6.91 4.33 11.12
5/6/2021 4:45:00 AM 7.84 46.112 0.047 6.9 4.26 11.13
5/6/2021 5:00:00 AM 7.81 46.058 0.047 6.89 4.6 11.14
5/6/2021 5:15:00 AM 7.77 45.986 0.047 6.9 4.41 11.15
5/6/2021 5:30:00 AM 7.75 45.95 0.047 6.88 4.64 11.16
5/6/2021 5:45:00 AM 7.73 45.914 0.047 6.88 4.53 11.17
5/6/2021 6:00:00 AM 7.7 45.86 0.047 6.91 4.6 11.18
5/6/2021 6:15:00 AM 7.68 45.824 0.047 6.9 4.4 11.2
5/6/2021 6:30:00 AM 7.67 45.806 0.047 6.88 4.27 11.21
5/6/2021 6:45:00 AM 7.65 45.77 0.047 6.89 4.17 11.25
5/6/2021 7:00:00 AM 7.62 45.716 0.047 6.9 4.32 11.27
5/6/2021 7:15:00 AM 7.6 45.68 0.047 6.9 3.75 11.3
5/6/2021 7:30:00 AM 7.59 45.662 0.047 6.95 4.01 11.33
5/6/2021 7:45:00 AM 7.6 45.68 0.047 6.94 3.79 11.37
5/6/2021 8:00:00 AM 7.64 45.752 0.047 6.97 4.08 11.41
5/6/2021 8:15:00 AM 7.68 45.824 0.047 6.93 3.81 11.44
5/6/2021 8:30:00 AM 7.71 45.878 0.047 6.97 3.98 11.45
5/6/2021 8:45:00 AM 7.73 45.914 0.047 6.98 4.06 11.47
5/6/2021 9:00:00 AM 7.75 45.95 0.047 7.01 4.03 11.5
5/6/2021 9:15:00 AM 7.85 46.13 0.047 6.98 4.41 11.52
5/6/2021 9:30:00 AM 7.9 46.22 0.047 7.03 4.47 11.51
5/6/2021 9:45:00 AM 7.88 46.184 0.047 6.98 4.06 11.49
5/6/2021 10:00:00 AM 8 46.4 0.047 7.05 3.87 11.51
5/6/2021 10:15:00 AM 8.28 46.904 0.047 7.03 4.21 11.51
5/6/2021 10:30:00 AM 8.4 47.12 0.047 7.04 4.34 11.46
5/6/2021 10:45:00 AM 8.55 47.39 0.047 7.05 4.34 11.45
5/6/2021 11:00:00 AM 8.81 47.858 0.047 7.09 3.96 11.44
5/6/2021 11:15:00 AM 9.05 48.29 0.047 7.06 4.06 11.39
5/6/2021 11:30:00 AM 9.15 48.47 0.046 7.08 4.09 11.33
5/6/2021 11:45:00 AM 9.34 48.812 0.047 7.06 4.04 11.31
5/6/2021 12:00:00 PM 9.52 49.136 0.046 7.1 4.15 11.27
5/6/2021 12:15:00 PM 9.61 49.298 0.046 7.05 3.98 11.24
5/6/2021 12:30:00 PM 9.59 49.262 0.046 7.1 4.22 11.2
5/6/2021 12:45:00 PM 9.59 49.262 0.046 7.08 4.23 11.19
5/6/2021 1:00:00 PM 9.83 49.694 0.046 7.1 4.31 11.16
5/6/2021 1:15:00 PM 9.92 49.856 0.046 7.09 4.23 11.13
5/6/2021 1:30:00 PM 10.08 50.144 0.046 7.07 3.9 11.09
5/6/2021 1:45:00 PM 10.23 50.414 0.046 7.05 4.15 11.06
5/6/2021 2:00:00 PM 10.39 50.702 0.046 7.12 4.47 11.04
5/6/2021 2:15:00 PM 10.43 50.774 0.046 7.13 4.54 11
5/6/2021 2:30:00 PM 10.51 50.918 0.046 7.05 4.07 10.98
5/6/2021 2:45:00 PM 10.55 50.99 0.046 7.1 4.18 10.95
5/6/2021 3:00:00 PM 10.62 51.116 0.046 7.11 4.13 10.93
5/6/2021 3:15:00 PM 10.66 51.188 0.046 7.12 4.12 10.91
5/6/2021 3:30:00 PM 10.64 51.152 0.046 7.11 4.21 10.87
5/6/2021 3:45:00 PM 10.63 51.134 0.046 7.13 4.4 10.86
5/6/2021 4:00:00 PM 10.63 51.134 0.046 7.12 4.13 10.85
5/6/2021 4:15:00 PM 10.66 51.188 0.046 7.09 4.48 10.85
5/6/2021 4:30:00 PM 10.69 51.242 0.047 7.11 4.05 10.83
5/6/2021 4:45:00 PM 10.72 51.296 0.046 7.11 4.17 10.82
5/6/2021 5:00:00 PM 10.73 51.314 0.047 7.08 4.09 10.8
5/6/2021 5:15:00 PM 10.75 51.35 0.047 7.11 4.07 10.78
5/6/2021 5:30:00 PM 10.75 51.35 0.047 7.06 4.1 10.77
5/6/2021 5:45:00 PM 10.73 51.314 0.047 7.07 4.32 10.75
5/6/2021 6:00:00 PM 10.69 51.242 0.046 7.11 4.25 10.74
5/6/2021 6:15:00 PM 10.66 51.188 0.047 7.1 4.04 10.73
5/6/2021 6:30:00 PM 10.59 51.062 0.047 7.07 4.3 10.72
5/6/2021 6:45:00 PM 10.51 50.918 0.047 7.05 3.95 10.71
5/6/2021 7:00:00 PM 10.41 50.738 0.046 7.03 4.08 10.71
5/6/2021 7:15:00 PM 10.3 50.54 0.047 7.04 4.33 10.68
5/6/2021 7:30:00 PM 10.19 50.342 0.047 6.99 4.61 10.66
5/6/2021 7:45:00 PM 10.08 50.144 0.047 7.02 4.43 10.64
5/6/2021 8:00:00 PM 9.96 49.928 0.047 6.98 4.05 10.64
5/6/2021 8:15:00 PM 9.83 49.694 0.047 6.96 4.38 10.64
5/6/2021 8:30:00 PM 9.71 49.478 0.047 6.94 4.37 10.64
5/6/2021 8:45:00 PM 9.59 49.262 0.047 6.92 4.18 10.65
5/6/2021 9:00:00 PM 9.47 49.046 0.047 6.95 4.54 10.66
5/6/2021 9:15:00 PM 9.35 48.83 0.047 6.95 4.39 10.68
5/6/2021 9:30:00 PM 9.23 48.614 0.047 6.91 4.36 10.71
5/6/2021 9:45:00 PM 9.12 48.416 0.047 6.91 4.28 10.74
5/6/2021 10:00:00 PM 9 48.2 0.047 6.94 4.42 10.77
5/6/2021 10:15:00 PM 8.88 47.984 0.047 6.89 4.31 10.8
5/6/2021 10:30:00 PM 8.76 47.768 0.047 6.91 4.27 10.83
5/6/2021 10:45:00 PM 8.63 47.534 0.047 6.93 4.61 10.86
5/6/2021 11:00:00 PM 8.51 47.318 0.047 6.93 4.81 10.9
5/6/2021 11:15:00 PM 8.4 47.12 0.047 6.89 4.21 10.93
5/6/2021 11:30:00 PM 8.29 46.922 0.047 6.87 4.36 10.96
5/6/2021 11:45:00 PM 8.18 46.724 0.047 6.91 4.34 10.99
5/7/2021 12:00:00 AM 8.07 46.526 0.047 6.92 4.75 11.02
5/7/2021 12:15:00 AM 7.97 46.346 0.047 6.92 4.21 11.05
5/7/2021 12:30:00 AM 7.87 46.166 0.047 6.91 4.42 11.08
5/7/2021 12:45:00 AM 7.78 46.004 0.048 6.92 4.59 11.11
5/7/2021 1:00:00 AM 7.69 45.842 0.047 6.91 4.1 11.14
5/7/2021 1:15:00 AM 7.6 45.68 0.048 6.88 4.61 11.15
5/7/2021 1:30:00 AM 7.51 45.518 0.048 6.88 4.17 11.18
5/7/2021 1:45:00 AM 7.43 45.374 0.048 6.88 4.35 11.21
5/7/2021 2:00:00 AM 7.35 45.23 0.047 6.87 4.35 11.23
5/7/2021 2:15:00 AM 7.28 45.104 0.047 6.88 4.45 11.26
5/7/2021 2:30:00 AM 7.21 44.978 0.048 6.91 4.18 11.27
5/7/2021 2:45:00 AM 7.15 44.87 0.048 6.92 4.23 11.29
5/7/2021 3:00:00 AM 7.09 44.762 0.048 6.88 4.32 11.31
5/7/2021 3:15:00 AM 7.03 44.654 0.048 6.92 4.27 11.33
5/7/2021 3:30:00 AM 6.97 44.546 0.048 6.89 4.02 11.35
5/7/2021 3:45:00 AM 6.92 44.456 0.048 6.89 4.22 11.36
5/7/2021 4:00:00 AM 6.86 44.348 0.048 6.88 4.1 11.37
5/7/2021 4:15:00 AM 6.81 44.258 0.047 6.87 4.43 11.39
5/7/2021 4:30:00 AM 6.77 44.186 0.047 6.86 4.12 11.4
5/7/2021 4:45:00 AM 6.72 44.096 0.047 6.91 4.11 11.41
5/7/2021 5:00:00 AM 6.68 44.024 0.047 6.9 4 11.43
5/7/2021 5:15:00 AM 6.65 43.97 0.047 6.91 4.35 11.44
5/7/2021 5:30:00 AM 6.61 43.898 0.047 6.88 4.36 11.45
5/7/2021 5:45:00 AM 6.57 43.826 0.047 6.92 4.29 11.46
5/7/2021 6:00:00 AM 6.52 43.736 0.047 6.87 4.17 11.48
5/7/2021 6:15:00 AM 6.48 43.664 0.047 6.87 3.98 11.5
5/7/2021 6:30:00 AM 6.45 43.61 0.047 6.92 3.79 11.53
5/7/2021 6:45:00 AM 6.43 43.574 0.047 6.9 4.24 11.57
5/7/2021 7:00:00 AM 6.43 43.574 0.047 6.94 4.01 11.62
5/7/2021 7:15:00 AM 6.44 43.592 0.047 6.93 3.96 11.64
5/7/2021 7:30:00 AM 6.46 43.628 0.047 6.96 4.21 11.68
5/7/2021 7:45:00 AM 6.48 43.664 0.047 6.94 3.91 11.71
5/7/2021 8:00:00 AM 6.51 43.718 0.047 6.99 3.99 11.73
5/7/2021 8:15:00 AM 6.55 43.79 0.047 6.98 4.16 11.75
5/7/2021 8:30:00 AM 6.61 43.898 0.047 6.98 4.06 11.77
5/7/2021 8:45:00 AM 6.68 44.024 0.047 7.02 3.78 11.78
5/7/2021 9:00:00 AM 6.77 44.186 0.047 7.03 3.82 11.78
5/7/2021 9:15:00 AM 6.88 44.384 0.047 7 4.52 11.78
5/7/2021 9:30:00 AM 7.03 44.654 0.046 7.05 4.45 11.78
5/7/2021 9:45:00 AM 7.14 44.852 0.046 7.07 3.73 11.77
5/7/2021 10:00:00 AM 7.34 45.212 0.046 7.07 3.68 11.75
5/7/2021 10:15:00 AM 7.47 45.446 0.046 7.09 3.83 11.7
5/7/2021 10:30:00 AM 7.66 45.788 0.046 7.01 4.17 11.68
5/7/2021 10:45:00 AM 7.79 46.022 0.046 7.08 3.79 11.65
5/7/2021 11:00:00 AM 8.01 46.418 0.046 7.06 3.95 11.6
5/7/2021 11:15:00 AM 8.11 46.598 0.046 7.05 3.73 11.52
5/7/2021 11:30:00 AM 8.14 46.652 0.046 7.05 4.47 11.48
5/7/2021 11:45:00 AM 8.19 46.742 0.046 7.11 4.01 11.46
5/7/2021 12:00:00 PM 8.21 46.778 0.046 7.09 4.17 11.42
5/7/2021 12:15:00 PM 8.27 46.886 0.046 7.06 3.87 11.42
5/7/2021 12:30:00 PM 8.34 47.012 0.046 7.07 3.89 11.41
5/7/2021 12:45:00 PM 8.41 47.138 0.046 7.07 4.43 11.39
5/7/2021 1:00:00 PM 8.46 47.228 0.046 7.1 4.13 11.37
5/7/2021 1:15:00 PM 8.51 47.318 0.046 7.06 4.23 11.35
5/7/2021 1:30:00 PM 8.55 47.39 0.046 7.08 3.83 11.31
5/7/2021 1:45:00 PM 8.58 47.444 0.046 7.09 3.96 11.27
5/7/2021 2:00:00 PM 8.61 47.498 0.046 7.07 4.25 11.25
5/7/2021 2:15:00 PM 8.63 47.534 0.046 7.07 4.12 11.21
5/7/2021 2:30:00 PM 8.64 47.552 0.046 7.07 3.92 11.15
5/7/2021 2:45:00 PM 8.65 47.57 0.046 7.03 4.04 11.14
5/7/2021 3:00:00 PM 8.66 47.588 0.046 7.05 3.98 11.13
5/7/2021 3:15:00 PM 8.68 47.624 0.046 7.03 4.24 11.14
5/7/2021 3:30:00 PM 8.71 47.678 0.046 7.07 4.04 11.14
5/7/2021 3:45:00 PM 8.72 47.696 0.046 7.05 4.01 11.13
5/7/2021 4:00:00 PM 8.72 47.696 0.046 7.05 3.94 11.13
5/7/2021 4:15:00 PM 8.72 47.696 0.046 7.06 4.31 11.12
5/7/2021 4:30:00 PM 8.72 47.696 0.046 6.98 3.78 11.11
5/7/2021 4:45:00 PM 8.7 47.66 0.046 7.04 4.1 11.09
5/7/2021 5:00:00 PM 8.69 47.642 0.046 7.02 4.01 11.1
5/7/2021 5:15:00 PM 8.67 47.606 0.046 7.02 4.47 11.06
5/7/2021 5:30:00 PM 8.64 47.552 0.046 7.03 4.17 11.07
5/7/2021 5:45:00 PM 8.61 47.498 0.046 7.03 4.08 11.07
5/7/2021 6:00:00 PM 8.58 47.444 0.047 6.98 4.34 11.08
5/7/2021 6:15:00 PM 8.56 47.408 0.047 7.02 3.95 11.08
5/7/2021 6:30:00 PM 8.52 47.336 0.047 7 4.08 11.07
5/7/2021 6:45:00 PM 8.48 47.264 0.047 6.98 3.71 11.08
5/7/2021 7:00:00 PM 8.45 47.21 0.047 6.94 4.01 11.07
5/7/2021 7:15:00 PM 8.41 47.138 0.047 6.98 4.32 11.04
5/7/2021 7:30:00 PM 8.36 47.048 0.047 6.95 4.01 11.03
5/7/2021 7:45:00 PM 8.31 46.958 0.047 6.98 4.23 11.02
5/7/2021 8:00:00 PM 8.26 46.868 0.047 6.95 4.17 11.01
5/7/2021 8:15:00 PM 8.21 46.778 0.047 6.96 4.01 11.01
5/7/2021 8:30:00 PM 8.16 46.688 0.047 6.91 4.36 11.01
5/7/2021 8:45:00 PM 8.11 46.598 0.047 6.95 4.15 11.01
5/7/2021 9:00:00 PM 8.06 46.508 0.048 6.94 4.05 11.02
5/7/2021 9:15:00 PM 8.01 46.418 0.048 6.94 4 11.02
5/7/2021 9:30:00 PM 7.96 46.328 0.048 6.92 3.96 11.04
5/7/2021 9:45:00 PM 7.91 46.238 0.048 6.93 4.16 11.05
5/7/2021 10:00:00 PM 7.85 46.13 0.048 6.95 4.24 11.06
5/7/2021 10:15:00 PM 7.81 46.058 0.048 6.86 4.15 11.07
5/7/2021 10:30:00 PM 7.77 45.986 0.048 6.92 3.86 11.09
5/7/2021 10:45:00 PM 7.73 45.914 0.048 6.94 3.88 11.1
5/7/2021 11:00:00 PM 7.69 45.842 0.048 6.9 4.04 11.11
5/7/2021 11:15:00 PM 7.66 45.788 0.048 6.89 4.12 11.12
5/7/2021 11:30:00 PM 7.62 45.716 0.048 6.88 4.22 11.13
5/7/2021 11:45:00 PM 7.58 45.644 0.049 6.91 3.94 11.14
5/8/2021 12:00:00 AM 7.55 45.59 0.049 6.93 4.2 11.15
5/8/2021 12:15:00 AM 7.52 45.536 0.049 6.92 4.35 11.16
5/8/2021 12:30:00 AM 7.49 45.482 0.049 6.9 4.09 11.17
5/8/2021 12:45:00 AM 7.46 45.428 0.049 6.93 4.01 11.17
5/8/2021 1:00:00 AM 7.43 45.374 0.049 6.93 4.09 11.18
5/8/2021 1:15:00 AM 7.39 45.302 0.049 6.94 3.74 11.19
5/8/2021 1:30:00 AM 7.36 45.248 0.049 6.88 4.13 11.21
5/8/2021 1:45:00 AM 7.34 45.212 0.049 6.89 3.93 11.21
5/8/2021 2:00:00 AM 7.31 45.158 0.049 6.92 3.78 11.21
5/8/2021 2:15:00 AM 7.29 45.122 0.05 6.93 3.88 11.23
5/8/2021 2:30:00 AM 7.27 45.086 0.05 6.93 4.16 11.23
5/8/2021 2:45:00 AM 7.25 45.05 0.05 6.86 4.02 11.24
5/8/2021 3:00:00 AM 7.23 45.014 0.05 6.89 3.93 11.24
5/8/2021 3:15:00 AM 7.21 44.978 0.05 6.93 3.92 11.25
5/8/2021 3:30:00 AM 7.19 44.942 0.05 6.91 4.2 11.25
5/8/2021 3:45:00 AM 7.18 44.924 0.051 6.91 4.08 11.26
5/8/2021 4:00:00 AM 7.16 44.888 0.051 6.93 3.9 11.26
5/8/2021 4:15:00 AM 7.15 44.87 0.051 6.91 4.24 11.27
5/8/2021 4:30:00 AM 7.13 44.834 0.05 6.9 3.99 11.27
5/8/2021 4:45:00 AM 7.12 44.816 0.05 6.89 4.18 11.27
5/8/2021 5:00:00 AM 7.1 44.78 0.05 6.92 3.99 11.28
5/8/2021 5:15:00 AM 7.08 44.744 0.05 6.93 4.44 11.28
5/8/2021 5:30:00 AM 7.04 44.672 0.05 6.89 4.06 11.29
5/8/2021 5:45:00 AM 7.01 44.618 0.05 6.9 4.11 11.29
5/8/2021 6:00:00 AM 6.98 44.564 0.05 6.93 4.22 11.3
5/8/2021 6:15:00 AM 6.96 44.528 0.049 6.93 4.09 11.32
5/8/2021 6:30:00 AM 6.94 44.492 0.049 6.93 4.31 11.36
5/8/2021 6:45:00 AM 6.94 44.492 0.049 6.92 3.79 11.39
5/8/2021 7:00:00 AM 6.96 44.528 0.049 6.93 3.9 11.45
5/8/2021 7:15:00 AM 6.97 44.546 0.049 6.97 3.98 11.49
5/8/2021 7:30:00 AM 6.98 44.564 0.049 6.94 4.09 11.5
5/8/2021 7:45:00 AM 7.01 44.618 0.049 6.99 4.36 11.55
5/8/2021 8:00:00 AM 7.04 44.672 0.049 6.97 3.77 11.57
5/8/2021 8:15:00 AM 7.06 44.708 0.049 6.99 3.99 11.56
5/8/2021 8:30:00 AM 7.08 44.744 0.049 7 3.68 11.54
5/8/2021 8:45:00 AM 7.11 44.798 0.049 7.01 3.84 11.58
5/8/2021 9:00:00 AM 7.15 44.87 0.049 6.98 3.87 11.59
5/8/2021 9:15:00 AM 7.19 44.942 0.049 7.04 3.76 11.59
5/8/2021 9:30:00 AM 7.22 44.996 0.049 7.02 3.7 11.61
5/8/2021 9:45:00 AM 7.24 45.032 0.049 7 4.28 11.58
5/8/2021 10:00:00 AM 7.24 45.032 0.049 7.01 3.93 11.56
5/8/2021 10:15:00 AM 7.26 45.068 0.049 7.01 3.78 11.58
5/8/2021 10:30:00 AM 7.34 45.212 0.048 7.02 3.72 11.61
5/8/2021 10:45:00 AM 7.39 45.302 0.048 7.06 4.09 11.59
5/8/2021 11:00:00 AM 7.41 45.338 0.048 7.02 3.88 11.56
5/8/2021 11:15:00 AM 7.46 45.428 0.048 7.02 3.81 11.58
5/8/2021 11:30:00 AM 7.55 45.59 0.048 7.08 3.93 11.6
5/8/2021 11:45:00 AM 7.65 45.77 0.048 7.09 3.97 11.6
5/8/2021 12:00:00 PM 7.8 46.04 0.048 7.05 4.21 11.58
5/8/2021 12:15:00 PM 7.76 45.968 0.048 7.07 3.89 11.49
5/8/2021 12:30:00 PM 7.89 46.202 0.048 7.05 3.83 11.56
5/8/2021 12:45:00 PM 8.11 46.598 0.048 7.05 3.7 11.53
5/8/2021 1:00:00 PM 8.16 46.688 0.048 7.08 3.74 11.49
5/8/2021 1:15:00 PM 8.11 46.598 0.048 7.04 4.02 11.41
5/8/2021 1:30:00 PM 8.16 46.688 0.048 7.06 3.82 11.46
5/8/2021 1:45:00 PM 8.33 46.994 0.048 7.03 4.24 11.47
5/8/2021 2:00:00 PM 8.54 47.372 0.048 7.11 4.02 11.43
5/8/2021 2:15:00 PM 8.5 47.3 0.048 7.1 3.95 11.33
5/8/2021 2:30:00 PM 8.58 47.444 0.048 7.06 3.92 11.33
5/8/2021 2:45:00 PM 8.63 47.534 0.048 7.09 3.84 11.34
5/8/2021 3:00:00 PM 8.98 48.164 0.048 7.12 3.6 11.35
5/8/2021 3:15:00 PM 9.24 48.632 0.048 7.12 3.64 11.28
5/8/2021 3:30:00 PM 9.51 49.118 0.048 7.09 4.02 11.21
5/8/2021 3:45:00 PM 9.54 49.172 0.048 7.09 3.85 11.17
5/8/2021 4:00:00 PM 9.43 48.974 0.048 7.04 3.96 11.05
5/8/2021 4:15:00 PM 9.17 48.506 0.048 6.97 4.1 11.01
5/8/2021 4:30:00 PM 9.15 48.47 0.048 7.07 3.96 11.04
5/8/2021 4:45:00 PM 9.27 48.686 0.048 7.08 4.04 11.08
5/8/2021 5:00:00 PM 9.42 48.956 0.048 7.08 4.29 11.04
5/8/2021 5:15:00 PM 9.47 49.046 0.048 7.06 3.88 11.02
5/8/2021 5:30:00 PM 9.47 49.046 0.048 7.08 3.68 11.02
5/8/2021 5:45:00 PM 9.36 48.848 0.049 7.02 3.76 11.04
5/8/2021 6:00:00 PM 9.26 48.668 0.049 7.04 3.93 11.03
5/8/2021 6:15:00 PM 9.12 48.416 0.049 7.01 3.81 10.99
5/8/2021 6:30:00 PM 9.04 48.272 0.049 7.03 4.07 11
5/8/2021 6:45:00 PM 8.97 48.146 0.049 7.05 3.74 11.03
5/8/2021 7:00:00 PM 8.88 47.984 0.049 7.01 3.96 11.04
5/8/2021 7:15:00 PM 8.79 47.822 0.049 6.98 3.98 11.05
5/8/2021 7:30:00 PM 8.69 47.642 0.049 7.03 3.96 11.04
5/8/2021 7:45:00 PM 8.59 47.462 0.049 6.98 4.17 11.04
5/8/2021 8:00:00 PM 8.49 47.282 0.049 6.95 4.01 11.05
5/8/2021 8:15:00 PM 8.41 47.138 0.049 6.96 4.09 11.03
5/8/2021 8:30:00 PM 8.34 47.012 0.049 6.94 4.03 11.03
5/8/2021 8:45:00 PM 8.27 46.886 0.049 6.9 4.11 11.02
5/8/2021 9:00:00 PM 8.22 46.796 0.05 6.94 3.71 11.02
5/8/2021 9:15:00 PM 8.17 46.706 0.05 6.96 4.12 11.03
5/8/2021 9:30:00 PM 8.1 46.58 0.05 6.91 4.08 11.04
5/8/2021 9:45:00 PM 8.03 46.454 0.05 6.93 4.34 11.06
5/8/2021 10:00:00 PM 7.95 46.31 0.05 6.92 4.43 11.08
5/8/2021 10:15:00 PM 7.87 46.166 0.05 6.88 4.29 11.1
5/8/2021 10:30:00 PM 7.81 46.058 0.05 6.95 4.04 11.12
5/8/2021 10:45:00 PM 7.75 45.95 0.05 6.91 4.42 11.14
5/8/2021 11:00:00 PM 7.69 45.842 0.05 6.9 3.87 11.16
5/8/2021 11:15:00 PM 7.64 45.752 0.05 6.93 4.07 11.17
5/8/2021 11:30:00 PM 7.58 45.644 0.05 6.93 4.07 11.19
5/8/2021 11:45:00 PM 7.53 45.554 0.05 6.93 4.24 11.2
5/9/2021 12:00:00 AM 7.48 45.464 0.05 6.87 4.15 11.22
5/9/2021 12:15:00 AM 7.42 45.356 0.05 6.9 4.02 11.23
5/9/2021 12:30:00 AM 7.36 45.248 0.05 6.95 4.03 11.25
5/9/2021 12:45:00 AM 7.28 45.104 0.05 6.91 3.81 11.27
5/9/2021 1:00:00 AM 7.21 44.978 0.05 6.89 4.35 11.29
5/9/2021 1:15:00 AM 7.14 44.852 0.05 6.91 4.02 11.32
5/9/2021 1:30:00 AM 7.08 44.744 0.051 6.93 4.25 11.34
5/9/2021 1:45:00 AM 7.02 44.636 0.05 6.91 4 11.36
5/9/2021 2:00:00 AM 6.95 44.51 0.05 6.87 4.35 11.38
5/9/2021 2:15:00 AM 6.88 44.384 0.05 6.89 4.13 11.4
5/9/2021 2:30:00 AM 6.82 44.276 0.051 6.91 4.24 11.41
5/9/2021 2:45:00 AM 6.75 44.15 0.05 6.9 4.15 11.44
5/9/2021 3:00:00 AM 6.69 44.042 0.051 6.92 4.07 11.45
5/9/2021 3:15:00 AM 6.62 43.916 0.051 6.91 3.94 11.48
5/9/2021 3:30:00 AM 6.55 43.79 0.05 6.92 4.33 11.5
5/9/2021 3:45:00 AM 6.49 43.682 0.051 6.89 4.2 11.52
5/9/2021 4:00:00 AM 6.44 43.592 0.051 6.93 4.01 11.54
5/9/2021 4:15:00 AM 6.38 43.484 0.051 6.94 3.79 11.55
5/9/2021 4:30:00 AM 6.31 43.358 0.051 6.88 3.84 11.57
5/9/2021 4:45:00 AM 6.25 43.25 0.051 6.91 3.77 11.59
5/9/2021 5:00:00 AM 6.19 43.142 0.051 6.92 4.15 11.61
5/9/2021 5:15:00 AM 6.14 43.052 0.05 6.89 3.94 11.63
5/9/2021 5:30:00 AM 6.1 42.98 0.05 6.9 4.13 11.64
5/9/2021 5:45:00 AM 6.05 42.89 0.05 6.91 3.84 11.66
5/9/2021 6:00:00 AM 6.02 42.836 0.05 6.94 4.02 11.68
5/9/2021 6:15:00 AM 5.99 42.782 0.05 6.93 4.09 11.71
5/9/2021 6:30:00 AM 5.96 42.728 0.05 6.9 4.13 11.74
5/9/2021 6:45:00 AM 5.94 42.692 0.05 6.92 3.94 11.77
5/9/2021 7:00:00 AM 5.92 42.656 0.05 6.96 3.9 11.81
5/9/2021 7:15:00 AM 5.91 42.638 0.05 6.94 3.7 11.85
5/9/2021 7:30:00 AM 5.91 42.638 0.05 6.97 3.91 11.89
5/9/2021 7:45:00 AM 5.94 42.692 0.05 6.97 3.85 11.94
5/9/2021 8:00:00 AM 5.96 42.728 0.05 6.97 3.56 11.94
5/9/2021 8:15:00 AM 6.01 42.818 0.05 7 3.56 11.98
5/9/2021 8:30:00 AM 6.09 42.962 0.05 7.02 3.78 12
5/9/2021 8:45:00 AM 6.17 43.106 0.05 7 4.01 12.01
5/9/2021 9:00:00 AM 6.28 43.304 0.05 7.05 4.02 12.02
5/9/2021 9:15:00 AM 6.38 43.484 0.05 7.05 3.78 12.01
5/9/2021 9:30:00 AM 6.54 43.772 0.05 7.06 3.64 12
5/9/2021 9:45:00 AM 6.68 44.024 0.05 7.04 3.66 11.97
5/9/2021 10:00:00 AM 6.78 44.204 0.05 7.09 3.76 11.93
5/9/2021 10:15:00 AM 6.87 44.366 0.05 7.05 3.92 11.9
5/9/2021 10:30:00 AM 6.93 44.474 0.049 7.08 3.88 11.87
5/9/2021 10:45:00 AM 6.97 44.546 0.05 7.04 3.67 11.84
5/9/2021 11:00:00 AM 7.02 44.636 0.049 7.1 3.68 11.82
5/9/2021 11:15:00 AM 7.11 44.798 0.049 7.1 3.48 11.81
5/9/2021 11:30:00 AM 7.2 44.96 0.049 7.04 3.78 11.78
5/9/2021 11:45:00 AM 7.28 45.104 0.049 7.06 3.74 11.74
5/9/2021 12:00:00 PM 7.33 45.194 0.049 7.11 3.64 11.72
5/9/2021 12:15:00 PM 7.36 45.248 0.049 7.05 3.55 11.7
5/9/2021 12:30:00 PM 7.41 45.338 0.049 7.11 3.99 11.69
5/9/2021 12:45:00 PM 7.43 45.374 0.049 7.1 3.65 11.67
5/9/2021 1:00:00 PM 7.47 45.446 0.049 7.08 3.51 11.64
5/9/2021 1:15:00 PM 7.48 45.464 0.049 7.08 3.71 11.6
5/9/2021 1:30:00 PM 7.48 45.464 0.049 7.06 3.64 11.58
5/9/2021 1:45:00 PM 7.48 45.464 0.049 6.98 3.75 11.56
5/9/2021 2:00:00 PM 7.46 45.428 0.049 7.06 3.96 11.55
5/9/2021 2:15:00 PM 7.45 45.41 0.049 7.07 3.63 11.54
5/9/2021 2:30:00 PM 7.43 45.374 0.049 7.02 3.99 11.53
5/9/2021 2:45:00 PM 7.41 45.338 0.049 6.98 3.92 11.51
5/9/2021 3:00:00 PM 7.37 45.266 0.049 7.04 4.22 11.48
5/9/2021 3:15:00 PM 7.29 45.122 0.049 7 3.96 11.5
5/9/2021 3:30:00 PM 7.18 44.924 0.049 7 3.79 11.5
5/9/2021 3:45:00 PM 7.06 44.708 0.049 7.02 3.98 11.49
5/9/2021 4:00:00 PM 6.92 44.456 0.049 7 4.01 11.5
5/9/2021 4:15:00 PM 6.77 44.186 0.05 6.94 3.95 11.52
5/9/2021 4:30:00 PM 6.61 43.898 0.05 6.99 4.39 11.54
5/9/2021 4:45:00 PM 6.44 43.592 0.05 6.98 3.98 11.55
5/9/2021 5:00:00 PM 6.26 43.268 0.05 6.96 4.44 11.59
5/9/2021 5:15:00 PM 6.04 42.872 0.051 6.98 3.87 11.63
5/9/2021 5:30:00 PM 5.86 42.548 0.051 7.01 4.13 11.66
5/9/2021 5:45:00 PM 5.7 42.26 0.052 6.96 4.31 11.7
5/9/2021 6:00:00 PM 5.64 42.152 0.052 6.98 4.07 11.74
5/9/2021 6:15:00 PM 5.63 42.134 0.053 7 4.04 11.76
5/9/2021 6:30:00 PM 5.54 41.972 0.053 6.99 4.08 11.8
5/9/2021 6:45:00 PM 5.52 41.936 0.053 6.96 4.43 11.81
5/9/2021 7:00:00 PM 5.49 41.882 0.054 6.98 4.44 11.82
5/9/2021 7:15:00 PM 5.47 41.846 0.054 6.94 4.48 11.82
5/9/2021 7:30:00 PM 5.44 41.792 0.054 6.96 4.4 11.82
5/9/2021 7:45:00 PM 5.41 41.738 0.055 6.96 4.62 11.84
5/9/2021 8:00:00 PM 5.36 41.648 0.055 6.94 4.78 11.84
5/9/2021 8:15:00 PM 5.32 41.576 0.056 6.9 5.23 11.84
5/9/2021 8:30:00 PM 5.28 41.504 0.058 6.94 5.81 11.84
5/9/2021 8:45:00 PM 5.26 41.468 0.059 6.93 5.49 11.84
5/9/2021 9:00:00 PM 5.24 41.432 0.06 6.94 5.58 11.84
5/9/2021 9:15:00 PM 5.22 41.396 0.061 6.96 5.88 11.84
5/9/2021 9:30:00 PM 5.2 41.36 0.062 6.96 5.92 11.84
5/9/2021 9:45:00 PM 5.19 41.342 0.062 6.96 6.44 11.85
5/9/2021 10:00:00 PM 5.18 41.324 0.063 6.94 6.64 11.85
5/9/2021 10:15:00 PM 5.18 41.324 0.064 6.93 6.31 11.84
5/9/2021 10:30:00 PM 5.18 41.324 0.065 6.97 6.83 11.84
5/9/2021 10:45:00 PM 5.19 41.342 0.066 6.96 6.97 11.83
5/9/2021 11:00:00 PM 5.19 41.342 0.066 6.95 6.35 11.83
5/9/2021 11:15:00 PM 5.21 41.378 0.067 6.92 8.08 11.83
5/9/2021 11:30:00 PM 5.23 41.414 0.067 6.93 8.26 11.82
5/9/2021 11:45:00 PM 5.25 41.45 0.067 6.9 7.92 11.81
5/10/2021 12:00:00 AM 5.27 41.486 0.067 6.95 9.36 11.8
5/10/2021 12:15:00 AM 5.29 41.522 0.068 6.91 8.73 11.8
5/10/2021 12:30:00 AM 5.32 41.576 0.069 6.9 9.03 11.78
5/10/2021 12:45:00 AM 5.35 41.63 0.071 6.94 8.25 11.78
5/10/2021 1:00:00 AM 5.38 41.684 0.072 6.94 8.22 11.77
5/10/2021 1:15:00 AM 5.4 41.72 0.073 6.94 8.5 11.77
5/10/2021 1:30:00 AM 5.42 41.756 0.075 6.94 8.37 11.76
5/10/2021 1:45:00 AM 5.44 41.792 0.076 6.92 8.03 11.76
5/10/2021 2:00:00 AM 5.47 41.846 0.076 6.96 8.28 11.75
5/10/2021 2:15:00 AM 5.49 41.882 0.077 6.94 7.86 11.75
5/10/2021 2:30:00 AM 5.51 41.918 0.077 6.94 7.48 11.75
5/10/2021 2:45:00 AM 5.53 41.954 0.077 6.96 7.38 11.74
5/10/2021 3:00:00 AM 5.55 41.99 0.078 6.95 7.47 11.73
5/10/2021 3:15:00 AM 5.56 42.008 0.078 6.98 7.05 11.73
5/10/2021 3:30:00 AM 5.58 42.044 0.078 6.97 6.64 11.72
5/10/2021 3:45:00 AM 5.59 42.062 0.078 6.96 6.79 11.72
5/10/2021 4:00:00 AM 5.61 42.098 0.078 6.97 7.12 11.72
5/10/2021 4:15:00 AM 5.63 42.134 0.078 6.98 6.89 11.72
5/10/2021 4:30:00 AM 5.65 42.17 0.078 6.98 6.57 11.72
5/10/2021 4:45:00 AM 5.66 42.188 0.078 6.97 6.43 11.72
5/10/2021 5:00:00 AM 5.67 42.206 0.078 6.97 6.23 11.72
5/10/2021 5:15:00 AM 5.69 42.242 0.077 6.98 6.33 11.72
5/10/2021 5:30:00 AM 5.7 42.26 0.077 6.91 6.21 11.71
5/10/2021 5:45:00 AM 5.72 42.296 0.076 6.98 5.92 11.71
5/10/2021 6:00:00 AM 5.73 42.314 0.076 6.97 5.89 11.71
5/10/2021 6:15:00 AM 5.75 42.35 0.075 6.96 5.87 11.71
5/10/2021 6:30:00 AM 5.76 42.368 0.075 6.96 5.71 11.73
5/10/2021 6:45:00 AM 5.78 42.404 0.074 6.99 5.61 11.75
5/10/2021 7:00:00 AM 5.81 42.458 0.074 6.98 5.12 11.77
5/10/2021 7:15:00 AM 5.86 42.548 0.073 7.02 5.17 11.79
5/10/2021 7:30:00 AM 5.9 42.62 0.073 6.97 4.99 11.81
5/10/2021 7:45:00 AM 5.92 42.656 0.072 7.02 4.85 11.81
5/10/2021 8:00:00 AM 5.99 42.782 0.071 7.03 5.02 11.84
5/10/2021 8:15:00 AM 6.09 42.962 0.071 7.02 4.8 11.86
5/10/2021 8:30:00 AM 6.2 43.16 0.07 7.03 5.1 11.86
5/10/2021 8:45:00 AM 6.3 43.34 0.07 7.06 5.15 11.85
5/10/2021 9:00:00 AM 6.39 43.502 0.069 7.03 4.64 11.86
5/10/2021 9:15:00 AM 6.51 43.718 0.069 7.04 4.41 11.85
5/10/2021 9:30:00 AM 6.65 43.97 0.068 7.04 4.61 11.83
5/10/2021 9:45:00 AM 6.82 44.276 0.068 7.01 4.77 11.81
5/10/2021 10:00:00 AM 6.97 44.546 0.067 7.08 4.39 11.79
5/10/2021 10:15:00 AM 7.14 44.852 0.067 7.05 4.5 11.76
5/10/2021 10:30:00 AM 7.31 45.158 0.066 7.03 4.53 11.73
5/10/2021 10:45:00 AM 7.52 45.536 0.066 7.07 4.3 11.69
5/10/2021 11:00:00 AM 7.65 45.77 0.065 7.08 4.55 11.64
5/10/2021 11:15:00 AM 7.81 46.058 0.065 7.09 4.64 11.6
5/10/2021 11:30:00 AM 7.92 46.256 0.065 7.06 4.4 11.56
5/10/2021 11:45:00 AM 8.15 46.67 0.064 7.1 4.32 11.53
5/10/2021 12:00:00 PM 8.24 46.832 0.064 7.06 4.66 11.48
5/10/2021 12:15:00 PM 8.47 47.246 0.064 7.08 4.33 11.47
5/10/2021 12:30:00 PM 8.76 47.768 0.063 7.06 4.56 11.4
5/10/2021 12:45:00 PM 9.08 48.344 0.063 7.1 4.95 11.34
5/10/2021 1:00:00 PM 9.18 48.524 0.063 7.08 4.83 11.28
5/10/2021 1:15:00 PM 9.33 48.794 0.062 7.11 4.49 11.22
5/10/2021 1:30:00 PM 9.49 49.082 0.062 7.03 6.38 11.18
5/10/2021 1:45:00 PM 9.64 49.352 0.062 7.09 5.87 11.15
5/10/2021 2:00:00 PM 9.85 49.73 0.061 7.11 4.76 11.1
5/10/2021 2:15:00 PM 9.9 49.82 0.061 7.12 4.54 11.05
5/10/2021 2:30:00 PM 9.95 49.91 0.061 7.09 4.66 11.04
5/10/2021 2:45:00 PM 9.97 49.946 0.061 7.09 4.82 11.03
5/10/2021 3:00:00 PM 9.87 49.766 0.06 7.04 4.97 11.01
5/10/2021 3:15:00 PM 9.86 49.748 0.061 7.1 4.98 11
5/10/2021 3:30:00 PM 9.75 49.55 0.06 7.02 4.72 11
5/10/2021 3:45:00 PM 9.65 49.37 0.06 7.1 4.58 11.01
5/10/2021 4:00:00 PM 9.57 49.226 0.06 7.1 4.74 11.02
5/10/2021 4:15:00 PM 9.5 49.1 0.06 7.06 5 11.02
5/10/2021 4:30:00 PM 9.42 48.956 0.059 7.06 4.77 11.01
5/10/2021 4:45:00 PM 9.43 48.974 0.059 7.08 5.01 11.04
5/10/2021 5:00:00 PM 9.39 48.902 0.059 7.06 4.69 11.04
5/10/2021 5:15:00 PM 9.31 48.758 0.059 7.08 4.96 11.06
5/10/2021 5:30:00 PM 9.23 48.614 0.058 7.01 4.83 11.07
5/10/2021 5:45:00 PM 9.19 48.542 0.058 7.07 4.8 11.1
5/10/2021 6:00:00 PM 9.17 48.506 0.058 7.01 4.67 11.1
5/10/2021 6:15:00 PM 9.07 48.326 0.058 7.08 5.14 11.07
5/10/2021 6:30:00 PM 8.95 48.11 0.057 6.99 4.64 11.07
5/10/2021 6:45:00 PM 8.85 47.93 0.057 7.01 4.98 11.05
5/10/2021 7:00:00 PM 8.76 47.768 0.057 7.01 4.99 11.04
5/10/2021 7:15:00 PM 8.66 47.588 0.057 6.99 5 11.06
5/10/2021 7:30:00 PM 8.57 47.426 0.056 7.02 4.87 11.07
5/10/2021 7:45:00 PM 8.49 47.282 0.056 7.01 4.74 11.07
5/10/2021 8:00:00 PM 8.4 47.12 0.056 6.95 4.89 11.07
5/10/2021 8:15:00 PM 8.31 46.958 0.056 6.96 5.08 11.07
5/10/2021 8:30:00 PM 8.23 46.814 0.055 6.91 4.75 11.07
5/10/2021 8:45:00 PM 8.15 46.67 0.055 6.93 4.89 11.08
5/10/2021 9:00:00 PM 8.07 46.526 0.055 6.88 4.75 11.09
5/10/2021 9:15:00 PM 7.98 46.364 0.054 6.92 5.13 11.11
5/10/2021 9:30:00 PM 7.89 46.202 0.054 6.94 5.04 11.14
5/10/2021 9:45:00 PM 7.79 46.022 0.054 6.93 5.07 11.16
5/10/2021 10:00:00 PM 7.7 45.86 0.054 6.93 4.73 11.19
5/10/2021 10:15:00 PM 7.62 45.716 0.053 6.9 5.04 11.21
5/10/2021 10:30:00 PM 7.53 45.554 0.053 6.9 4.97 11.23
5/10/2021 10:45:00 PM 7.45 45.41 0.053 6.94 5.14 11.26
5/10/2021 11:00:00 PM 7.38 45.284 0.053 6.95 4.95 11.29
5/10/2021 11:15:00 PM 7.31 45.158 0.053 6.95 5.45 11.31
5/10/2021 11:30:00 PM 7.25 45.05 0.052 6.89 4.93 11.34
5/10/2021 11:45:00 PM 7.18 44.924 0.052 6.95 4.7 11.35
5/11/2021 12:00:00 AM 7.11 44.798 0.052 6.91 5.06 11.37
5/11/2021 12:15:00 AM 7.05 44.69 0.052 6.95 4.97 11.39
5/11/2021 12:30:00 AM 6.99 44.582 0.052 6.91 5.37 11.41
5/11/2021 12:45:00 AM 6.93 44.474 0.052 6.93 4.84 11.42
5/11/2021 1:00:00 AM 6.87 44.366 0.051 6.92 4.76 11.44
5/11/2021 1:15:00 AM 6.81 44.258 0.051 6.93 4.59 11.46
5/11/2021 1:30:00 AM 6.76 44.168 0.051 6.92 5.54 11.47
5/11/2021 1:45:00 AM 6.71 44.078 0.051 6.9 5.04 11.49
5/11/2021 2:00:00 AM 6.66 43.988 0.05 6.93 5.13 11.51
5/11/2021 2:15:00 AM 6.62 43.916 0.05 6.91 5.23 11.53
5/11/2021 2:30:00 AM 6.57 43.826 0.05 6.88 4.92 11.54
5/11/2021 2:45:00 AM 6.53 43.754 0.05 6.88 4.83 11.56
5/11/2021 3:00:00 AM 6.49 43.682 0.05 6.92 5.1 11.57
5/11/2021 3:15:00 AM 6.46 43.628 0.05 6.86 4.96 11.58
5/11/2021 3:30:00 AM 6.42 43.556 0.05 6.92 5.39 11.59
5/11/2021 3:45:00 AM 6.38 43.484 0.049 6.89 5.44 11.6
5/11/2021 4:00:00 AM 6.34 43.412 0.049 6.9 5.22 11.62
5/11/2021 4:15:00 AM 6.3 43.34 0.049 6.84 5.3 11.62
5/11/2021 4:30:00 AM 6.27 43.286 0.049 6.92 5.28 11.63
5/11/2021 4:45:00 AM 6.23 43.214 0.049 6.87 5.1 11.65
5/11/2021 5:00:00 AM 6.2 43.16 0.049 6.92 5.58 11.65
5/11/2021 5:15:00 AM 6.17 43.106 0.049 6.89 5.18 11.67
5/11/2021 5:30:00 AM 6.14 43.052 0.049 6.9 4.94 11.68
5/11/2021 5:45:00 AM 6.12 43.016 0.048 6.91 5.02 11.69
5/11/2021 6:00:00 AM 6.09 42.962 0.048 6.89 5.41 11.7
5/11/2021 6:15:00 AM 6.07 42.926 0.048 6.91 5.44 11.71
5/11/2021 6:30:00 AM 6.05 42.89 0.048 6.89 5.49 11.73
5/11/2021 6:45:00 AM 6.04 42.872 0.048 6.9 5.92 11.76
5/11/2021 7:00:00 AM 6.05 42.89 0.048 6.91 5.72 11.79
5/11/2021 7:15:00 AM 6.07 42.926 0.048 6.94 5.05 11.82
5/11/2021 7:30:00 AM 6.09 42.962 0.047 6.91 5.29 11.84
5/11/2021 7:45:00 AM 6.12 43.016 0.047 6.92 5.24 11.85
5/11/2021 8:00:00 AM 6.17 43.106 0.047 6.87 5.31 11.87
5/11/2021 8:15:00 AM 6.25 43.25 0.047 6.96 4.84 11.88
5/11/2021 8:30:00 AM 6.33 43.394 0.047 6.98 5.24 11.88
5/11/2021 8:45:00 AM 6.44 43.592 0.047 6.95 4.77 11.87
5/11/2021 9:00:00 AM 6.55 43.79 0.047 6.98 4.93 11.87
5/11/2021 9:15:00 AM 6.67 44.006 0.046 7 4.97 11.85
5/11/2021 9:30:00 AM 6.79 44.222 0.046 6.98 4.77 11.83
5/11/2021 9:45:00 AM 6.95 44.51 0.046 6.99 5.94 11.81
5/11/2021 10:00:00 AM 7.11 44.798 0.046 7 4.89 11.78
5/11/2021 10:15:00 AM 7.16 44.888 0.046 7.02 5.18 11.74
5/11/2021 10:30:00 AM 7.35 45.23 0.046 7.02 4.95 11.73
5/11/2021 10:45:00 AM 7.45 45.41 0.046 7.03 4.96 11.67
5/11/2021 11:00:00 AM 7.44 45.392 0.045 7.01 5.13 11.63
5/11/2021 11:15:00 AM 7.54 45.572 0.046 7.04 4.95 11.63
5/11/2021 11:30:00 AM 7.68 45.824 0.045 7.02 4.76 11.62
5/11/2021 11:45:00 AM 7.74 45.932 0.045 7 5.06 11.59
5/11/2021 12:00:00 PM 7.85 46.13 0.045 7.01 5.16 11.58
5/11/2021 12:15:00 PM 8.05 46.49 0.045 7.02 5.21 11.54
5/11/2021 12:30:00 PM 8.16 46.688 0.045 6.97 4.84 11.51
5/11/2021 12:45:00 PM 8.25 46.85 0.045 7.03 5.06 11.48
5/11/2021 1:00:00 PM 8.45 47.21 0.045 7.01 4.83 11.46
5/11/2021 1:15:00 PM 8.67 47.606 0.045 7.04 5.05 11.41
5/11/2021 1:30:00 PM 8.68 47.624 0.046 7.02 5.13 11.36
5/11/2021 1:45:00 PM 8.72 47.696 0.045 7.06 4.94 11.34
5/11/2021 2:00:00 PM 8.92 48.056 0.046 6.99 5.12 11.31
5/11/2021 2:15:00 PM 9 48.2 0.045 7.06 5.25 11.27
5/11/2021 2:30:00 PM 9.03 48.254 0.045 7.06 4.96 11.25
5/11/2021 2:45:00 PM 9.01 48.218 0.045 7.02 5.15 11.22
5/11/2021 3:00:00 PM 9.08 48.344 0.045 7.02 5.22 11.21
5/11/2021 3:15:00 PM 9.15 48.47 0.045 7.01 5.29 11.19
5/11/2021 3:30:00 PM 9.21 48.578 0.045 7.01 5.39 11.19
5/11/2021 3:45:00 PM 9.3 48.74 0.045 7.04 5.29 11.18
5/11/2021 4:00:00 PM 9.27 48.686 0.045 7.05 5.17 11.14
5/11/2021 4:15:00 PM 9.2 48.56 0.045 6.98 5.44 11.13
5/11/2021 4:30:00 PM 9.17 48.506 0.045 7.02 5.26 11.14
5/11/2021 4:45:00 PM 9.16 48.488 0.045 6.95 4.78 11.14
5/11/2021 5:00:00 PM 9.18 48.524 0.045 7.05 5.13 11.14
5/11/2021 5:15:00 PM 9.11 48.398 0.045 7 5.25 11.15
5/11/2021 5:30:00 PM 8.98 48.164 0.045 6.97 5.24 11.14
5/11/2021 5:45:00 PM 8.9 48.02 0.045 6.98 5.21 11.16
5/11/2021 6:00:00 PM 8.82 47.876 0.045 6.99 5.61 11.16
5/11/2021 6:15:00 PM 8.7 47.66 0.045 7.01 4.86 11.18
5/11/2021 6:30:00 PM 8.62 47.516 0.045 6.97 5.05 11.2
5/11/2021 6:45:00 PM 8.55 47.39 0.045 6.95 5.06 11.2
5/11/2021 7:00:00 PM 8.45 47.21 0.045 6.98 5 11.21
5/11/2021 7:15:00 PM 8.34 47.012 0.045 6.93 4.8 11.21
5/11/2021 7:30:00 PM 8.23 46.814 0.045 6.99 4.74 11.21
5/11/2021 7:45:00 PM 8.13 46.634 0.045 6.93 5 11.22
5/11/2021 8:00:00 PM 8.01 46.418 0.045 6.94 4.94 11.23
5/11/2021 8:15:00 PM 7.9 46.22 0.044 6.87 5.11 11.25
5/11/2021 8:30:00 PM 7.8 46.04 0.045 6.95 4.8 11.26
5/11/2021 8:45:00 PM 7.72 45.896 0.045 6.9 5.27 11.28
5/11/2021 9:00:00 PM 7.62 45.716 0.044 6.9 5.32 11.3
5/11/2021 9:15:00 PM 7.54 45.572 0.045 6.9 5.12 11.31
5/11/2021 9:30:00 PM 7.46 45.428 0.044 6.92 5.08 11.33
5/11/2021 9:45:00 PM 7.39 45.302 0.044 6.84 5.01 11.36
5/11/2021 10:00:00 PM 7.31 45.158 0.044 6.88 5.12 11.38
5/11/2021 10:15:00 PM 7.24 45.032 0.045 6.86 5.1 11.4
5/11/2021 10:30:00 PM 7.16 44.888 0.044 6.89 5.02 11.43
5/11/2021 10:45:00 PM 7.1 44.78 0.044 6.87 4.83 11.45
5/11/2021 11:00:00 PM 7.04 44.672 0.045 6.85 5.2 11.46
5/11/2021 11:15:00 PM 6.97 44.546 0.044 6.81 4.76 11.48
5/11/2021 11:30:00 PM 6.92 44.456 0.044 6.89 4.77 11.49
5/11/2021 11:45:00 PM 6.86 44.348 0.044 6.9 4.68 11.51
5/12/2021 12:00:00 AM 6.8 44.24 0.044 6.86 4.9 11.53
5/12/2021 12:15:00 AM 6.74 44.132 0.044 6.86 4.84 11.55
5/12/2021 12:30:00 AM 6.7 44.06 0.044 6.88 5.14 11.57
5/12/2021 12:45:00 AM 6.67 44.006 0.044 6.8 5.11 11.58
5/12/2021 1:00:00 AM 6.62 43.916 0.044 6.9 5.24 11.6
5/12/2021 1:15:00 AM 6.58 43.844 0.044 6.85 4.91 11.61
5/12/2021 1:30:00 AM 6.54 43.772 0.044 6.87 4.97 11.62
5/12/2021 1:45:00 AM 6.49 43.682 0.044 6.89 5.22 11.63
5/12/2021 2:00:00 AM 6.46 43.628 0.044 6.86 5.57 11.64
5/12/2021 2:15:00 AM 6.44 43.592 0.044 6.81 4.92 11.65
5/12/2021 2:30:00 AM 6.41 43.538 0.044 6.88 5.13 11.66
5/12/2021 2:45:00 AM 6.38 43.484 0.044 6.86 4.98 11.66
5/12/2021 3:00:00 AM 6.35 43.43 0.044 6.87 4.82 11.67
5/12/2021 3:15:00 AM 6.34 43.412 0.044 6.8 4.99 11.68
5/12/2021 3:30:00 AM 6.33 43.394 0.044 6.87 5.04 11.68
5/12/2021 3:45:00 AM 6.31 43.358 0.044 6.85 4.81 11.69
5/12/2021 4:00:00 AM 6.3 43.34 0.044 6.86 5.15 11.69
5/12/2021 4:15:00 AM 6.29 43.322 0.044 6.88 4.91 11.69
5/12/2021 4:30:00 AM 6.28 43.304 0.044 6.89 4.97 11.7
5/12/2021 4:45:00 AM 6.27 43.286 0.044 6.88 4.8 11.7
5/12/2021 5:00:00 AM 6.27 43.286 0.044 6.86 5.25 11.7
5/12/2021 5:15:00 AM 6.27 43.286 0.043 6.84 4.99 11.7
5/12/2021 5:30:00 AM 6.27 43.286 0.044 6.87 5.24 11.7
5/12/2021 5:45:00 AM 6.27 43.286 0.044 6.89 4.78 11.7
5/12/2021 6:00:00 AM 6.26 43.268 0.044 6.85 4.81 11.7
5/12/2021 6:15:00 AM 6.26 43.268 0.043 6.83 4.83 11.72
5/12/2021 6:30:00 AM 6.25 43.25 0.043 6.78 4.64 11.73
5/12/2021 6:45:00 AM 6.25 43.25 0.043 6.87 5.15 11.74
5/12/2021 7:00:00 AM 6.26 43.268 0.043 6.86 5 11.76
5/12/2021 7:15:00 AM 6.27 43.286 0.043 6.88 5.18 11.78
5/12/2021 7:30:00 AM 6.31 43.358 0.043 6.87 4.97 11.8
5/12/2021 7:45:00 AM 6.35 43.43 0.043 6.92 4.29 11.82
5/12/2021 8:00:00 AM 6.42 43.556 0.043 6.87 4.24 11.84
5/12/2021 8:15:00 AM 6.5 43.7 0.043 6.88 4.83 11.86
5/12/2021 8:30:00 AM 6.59 43.862 0.043 6.96 4.51 11.86
5/12/2021 8:45:00 AM 6.68 44.024 0.043 6.96 4.35 11.86
5/12/2021 9:00:00 AM 6.8 44.24 0.043 6.95 4.45 11.85
5/12/2021 9:15:00 AM 6.93 44.474 0.043 6.96 4.43 11.84
5/12/2021 9:30:00 AM 7.06 44.708 0.043 6.98 4.31 11.82
5/12/2021 9:45:00 AM 7.21 44.978 0.043 6.95 4.34 11.8
5/12/2021 10:00:00 AM 7.37 45.266 0.043 6.96 4.51 11.77
5/12/2021 10:15:00 AM 7.53 45.554 0.043 6.97 4.49 11.74
5/12/2021 10:30:00 AM 7.71 45.878 0.043 6.94 4.29 11.71
5/12/2021 10:45:00 AM 7.9 46.22 0.042 6.98 4.35 11.67
5/12/2021 11:00:00 AM 8.08 46.544 0.042 6.97 4.53 11.62
5/12/2021 11:15:00 AM 8.26 46.868 0.042 6.98 4.41 11.58
5/12/2021 11:30:00 AM 8.35 47.03 0.042 7.02 4.15 11.53
5/12/2021 11:45:00 AM 8.46 47.228 0.042 6.97 4.66 11.51
5/12/2021 12:00:00 PM 8.67 47.606 0.042 6.98 4.59 11.48
5/12/2021 12:15:00 PM 8.77 47.786 0.042 7.02 4.36 11.42
5/12/2021 12:30:00 PM 8.85 47.93 0.042 7.02 4.26 11.37
5/12/2021 12:45:00 PM 9 48.2 0.043 6.99 4.47 11.34
5/12/2021 1:00:00 PM 9.25 48.65 0.042 7.01 4.12 11.31
5/12/2021 1:15:00 PM 9.43 48.974 0.043 7 4.46 11.25
5/12/2021 1:30:00 PM 9.45 49.01 0.043 7.01 4.3 11.2
5/12/2021 1:45:00 PM 9.55 49.19 0.043 7.05 4.25 11.21
5/12/2021 2:00:00 PM 9.62 49.316 0.042 6.98 4.34 11.18
5/12/2021 2:15:00 PM 9.71 49.478 0.043 7.05 4.19 11.19
5/12/2021 2:30:00 PM 9.62 49.316 0.043 7.04 4.34 11.16
5/12/2021 2:45:00 PM 9.54 49.172 0.043 7 4.39 11.17
5/12/2021 3:00:00 PM 9.68 49.424 0.043 7 4.3 11.18
5/12/2021 3:15:00 PM 9.71 49.478 0.043 7.01 4.58 11.13
5/12/2021 3:30:00 PM 9.76 49.568 0.043 7.02 4.58 11.15
5/12/2021 3:45:00 PM 9.89 49.802 0.043 7.05 4.52 11.12
5/12/2021 4:00:00 PM 9.95 49.91 0.043 6.98 4.56 11.09
5/12/2021 4:15:00 PM 9.9 49.82 0.043 7 4.69 11.06
5/12/2021 4:30:00 PM 9.87 49.766 0.043 7.01 4.35 11.06
5/12/2021 4:45:00 PM 9.85 49.73 0.043 7.02 4.26 11.06
5/12/2021 5:00:00 PM 9.75 49.55 0.043 6.99 4.57 11.04
5/12/2021 5:15:00 PM 9.71 49.478 0.043 6.99 4.47 11.06
5/12/2021 5:30:00 PM 9.67 49.406 0.043 6.98 4.27 11.04
5/12/2021 5:45:00 PM 9.65 49.37 0.043 6.98 4.35 11.05
5/12/2021 6:00:00 PM 9.58 49.244 0.043 6.98 4.4 11.03
5/12/2021 6:15:00 PM 9.49 49.082 0.043 7 4.46 11.02
5/12/2021 6:30:00 PM 9.43 48.974 0.043 6.98 4.6 11.03
5/12/2021 6:45:00 PM 9.35 48.83 0.043 6.95 4.75 11.02
5/12/2021 7:00:00 PM 9.26 48.668 0.043 6.91 4.34 11.03
5/12/2021 7:15:00 PM 9.17 48.506 0.043 6.95 4.38 11.03
5/12/2021 7:30:00 PM 9.07 48.326 0.043 6.91 4.73 11.03
5/12/2021 7:45:00 PM 8.97 48.146 0.043 6.95 4.64 11.03
5/12/2021 8:00:00 PM 8.86 47.948 0.043 6.89 4.29 11.04
5/12/2021 8:15:00 PM 8.74 47.732 0.043 6.91 4.49 11.05
5/12/2021 8:30:00 PM 8.64 47.552 0.043 6.84 4.79 11.07
5/12/2021 8:45:00 PM 8.54 47.372 0.043 6.9 4.68 11.09
5/12/2021 9:00:00 PM 8.44 47.192 0.043 6.82 4.37 11.1
5/12/2021 9:15:00 PM 8.34 47.012 0.043 6.86 4.72 11.13
5/12/2021 9:30:00 PM 8.23 46.814 0.043 6.86 4.44 11.15
5/12/2021 9:45:00 PM 8.13 46.634 0.043 6.9 4.51 11.17
5/12/2021 10:00:00 PM 8.03 46.454 0.043 6.9 4.72 11.2
5/12/2021 10:15:00 PM 7.94 46.292 0.043 6.86 4.83 11.23
5/12/2021 10:30:00 PM 7.84 46.112 0.043 6.85 4.78 11.26
5/12/2021 10:45:00 PM 7.76 45.968 0.043 6.84 4.44 11.28
5/12/2021 11:00:00 PM 7.67 45.806 0.043 6.84 4.36 11.31
5/12/2021 11:15:00 PM 7.59 45.662 0.043 6.85 4.48 11.33
5/12/2021 11:30:00 PM 7.5 45.5 0.043 6.86 4.44 11.35
5/12/2021 11:45:00 PM 7.43 45.374 0.043 6.85 4.43 11.38
5/13/2021 12:00:00 AM 7.35 45.23 0.043 6.84 4.39 11.4
5/13/2021 12:15:00 AM 7.28 45.104 0.043 6.81 4.53 11.42
5/13/2021 12:30:00 AM 7.21 44.978 0.043 6.84 4.73 11.45
5/13/2021 12:45:00 AM 7.14 44.852 0.043 6.78 5.05 11.47
5/13/2021 1:00:00 AM 7.07 44.726 0.043 6.86 4.79 11.49
5/13/2021 1:15:00 AM 7 44.6 0.043 6.84 4.26 11.5
5/13/2021 1:30:00 AM 6.94 44.492 0.043 6.82 4.83 11.52
5/13/2021 1:45:00 AM 6.88 44.384 0.043 6.82 4.57 11.54
5/13/2021 2:00:00 AM 6.82 44.276 0.043 6.85 4.71 11.56
5/13/2021 2:15:00 AM 6.76 44.168 0.043 6.86 4.86 11.58
5/13/2021 2:30:00 AM 6.7 44.06 0.043 6.78 4.59 11.6
5/13/2021 2:45:00 AM 6.65 43.97 0.043 6.83 4.88 11.61
5/13/2021 3:00:00 AM 6.6 43.88 0.043 6.86 4.19 11.63
5/13/2021 3:15:00 AM 6.55 43.79 0.043 6.87 4.69 11.65
5/13/2021 3:30:00 AM 6.5 43.7 0.043 6.86 4.42 11.66
5/13/2021 3:45:00 AM 6.46 43.628 0.043 6.86 4.18 11.67
5/13/2021 4:00:00 AM 6.42 43.556 0.043 6.82 4.15 11.68
5/13/2021 4:15:00 AM 6.38 43.484 0.043 6.82 4.36 11.69
5/13/2021 4:30:00 AM 6.35 43.43 0.043 6.82 4.34 11.7
5/13/2021 4:45:00 AM 6.31 43.358 0.043 6.88 4.45 11.71
5/13/2021 5:00:00 AM 6.28 43.304 0.043 6.87 4.19 11.72
5/13/2021 5:15:00 AM 6.25 43.25 0.043 6.86 4.41 11.73
5/13/2021 5:30:00 AM 6.22 43.196 0.043 6.82 5.64 11.74
5/13/2021 5:45:00 AM 6.19 43.142 0.043 6.85 4.39 11.75
5/13/2021 6:00:00 AM 6.17 43.106 0.043 6.85 4.26 11.76
5/13/2021 6:15:00 AM 6.14 43.052 0.043 6.84 4.41 11.78
5/13/2021 6:30:00 AM 6.12 43.016 0.043 6.83 4.28 11.8
5/13/2021 6:45:00 AM 6.1 42.98 0.043 6.83 3.99 11.81
5/13/2021 7:00:00 AM 6.09 42.962 0.043 6.87 4.15 11.84
5/13/2021 7:15:00 AM 6.1 42.98 0.043 6.83 4.23 11.86
5/13/2021 7:30:00 AM 6.13 43.034 0.043 6.82 4.16 11.88
5/13/2021 7:45:00 AM 6.17 43.106 0.043 6.82 4.15 11.9
5/13/2021 8:00:00 AM 6.24 43.232 0.043 6.93 4.4 11.91
5/13/2021 8:15:00 AM 6.32 43.376 0.042 6.87 4.21 11.93
5/13/2021 8:30:00 AM 6.43 43.574 0.042 6.89 4.05 11.94
5/13/2021 8:45:00 AM 6.55 43.79 0.042 6.9 3.98 11.93
5/13/2021 9:00:00 AM 6.7 44.06 0.042 6.94 4.01 11.92
5/13/2021 9:15:00 AM 6.86 44.348 0.042 6.92 4.05 11.89
5/13/2021 9:30:00 AM 7.04 44.672 0.042 6.95 4.16 11.87
5/13/2021 9:45:00 AM 7.23 45.014 0.042 6.93 3.97 11.84
5/13/2021 10:00:00 AM 7.41 45.338 0.042 6.96 3.76 11.8
5/13/2021 10:15:00 AM 7.62 45.716 0.042 6.91 3.75 11.76
5/13/2021 10:30:00 AM 7.85 46.13 0.042 7 4.03 11.72
5/13/2021 10:45:00 AM 8.07 46.526 0.042 6.96 4.06 11.67
5/13/2021 11:00:00 AM 8.27 46.886 0.042 6.99 4.16 11.61
5/13/2021 11:15:00 AM 8.44 47.192 0.042 6.99 3.99 11.58
5/13/2021 11:30:00 AM 8.65 47.57 0.042 6.99 4.13 11.54
5/13/2021 11:45:00 AM 8.71 47.678 0.042 6.95 4.15 11.47
5/13/2021 12:00:00 PM 8.67 47.606 0.042 6.98 4.19 11.43
5/13/2021 12:15:00 PM 8.76 47.768 0.042 6.92 4.03 11.42
5/13/2021 12:30:00 PM 8.95 48.11 0.042 7.02 4.36 11.38
5/13/2021 12:45:00 PM 9.08 48.344 0.042 7 4.04 11.35
5/13/2021 1:00:00 PM 9.27 48.686 0.042 7.01 3.99 11.31
5/13/2021 1:15:00 PM 9.32 48.776 0.042 6.98 4.81 11.27
5/13/2021 1:30:00 PM 9.45 49.01 0.042 7.02 4.11 11.25
5/13/2021 1:45:00 PM 9.56 49.208 0.042 6.97 3.81 11.18
5/13/2021 2:00:00 PM 9.57 49.226 0.042 7.04 4.05 11.17
5/13/2021 2:15:00 PM 9.73 49.514 0.042 6.95 4.05 11.18
5/13/2021 2:30:00 PM 9.84 49.712 0.042 7.05 4.08 11.14
5/13/2021 2:45:00 PM 9.9 49.82 0.042 6.97 3.82 11.12
5/13/2021 3:00:00 PM 9.85 49.73 0.042 7 4.32 11.11
5/13/2021 3:15:00 PM 9.94 49.892 0.042 7.02 3.96 11.1
5/13/2021 3:30:00 PM 10.02 50.036 0.042 7.03 4.2 11.07
5/13/2021 3:45:00 PM 10 50 0.042 6.97 4.09 11.06
5/13/2021 4:00:00 PM 10.12 50.216 0.042 7.03 4.53 11.06
5/13/2021 4:15:00 PM 10.16 50.288 0.042 6.96 3.98 11.05
5/13/2021 4:30:00 PM 10.27 50.486 0.042 7.04 4.15 11.03
5/13/2021 4:45:00 PM 10.19 50.342 0.042 6.98 4.04 10.99
5/13/2021 5:00:00 PM 10.16 50.288 0.042 7.02 4.14 11
5/13/2021 5:15:00 PM 10.21 50.378 0.042 7.02 4.07 10.98
5/13/2021 5:30:00 PM 10.27 50.486 0.042 7.03 3.99 10.96
5/13/2021 5:45:00 PM 10.31 50.558 0.042 6.95 4.17 10.94
5/13/2021 6:00:00 PM 10.33 50.594 0.042 7.04 4.15 10.92
5/13/2021 6:15:00 PM 10.28 50.504 0.042 6.97 4.34 10.89
5/13/2021 6:30:00 PM 10.16 50.288 0.042 7.01 4.1 10.85
5/13/2021 6:45:00 PM 10.04 50.072 0.042 6.95 4.19 10.84
5/13/2021 7:00:00 PM 9.95 49.91 0.042 6.99 4.07 10.84
5/13/2021 7:15:00 PM 9.85 49.73 0.042 6.88 4.13 10.83
5/13/2021 7:30:00 PM 9.74 49.532 0.042 6.93 4.85 10.83
5/13/2021 7:45:00 PM 9.63 49.334 0.042 6.92 4.05 10.84
5/13/2021 8:00:00 PM 9.52 49.136 0.043 6.92 4.03 10.85
5/13/2021 8:15:00 PM 9.42 48.956 0.042 6.89 4.54 10.86
5/13/2021 8:30:00 PM 9.31 48.758 0.043 6.89 4.09 10.87
5/13/2021 8:45:00 PM 9.19 48.542 0.043 6.81 4.17 10.89
5/13/2021 9:00:00 PM 9.07 48.326 0.043 6.88 4.13 10.91
5/13/2021 9:15:00 PM 8.95 48.11 0.043 6.87 4.39 10.93
5/13/2021 9:30:00 PM 8.84 47.912 0.043 6.84 4.31 10.96
5/13/2021 9:45:00 PM 8.73 47.714 0.043 6.8 4.14 10.98
5/13/2021 10:00:00 PM 8.62 47.516 0.043 6.88 4.25 11.01
5/13/2021 10:15:00 PM 8.52 47.336 0.043 6.8 4.32 11.05
5/13/2021 10:30:00 PM 8.42 47.156 0.043 6.87 4.31 11.07
5/13/2021 10:45:00 PM 8.33 46.994 0.043 6.8 4.46 11.1
5/13/2021 11:00:00 PM 8.24 46.832 0.043 6.88 4.32 11.12
5/13/2021 11:15:00 PM 8.15 46.67 0.043 6.85 4.24 11.14
5/13/2021 11:30:00 PM 8.06 46.508 0.043 6.87 4.37 11.17
5/13/2021 11:45:00 PM 7.99 46.382 0.043 6.83 4.31 11.2
5/14/2021 12:00:00 AM 7.91 46.238 0.043 6.79 4.2 11.22
5/14/2021 12:15:00 AM 7.83 46.094 0.043 6.84 4.16 11.24
5/14/2021 12:30:00 AM 7.76 45.968 0.043 6.84 4.29 11.27
5/14/2021 12:45:00 AM 7.69 45.842 0.043 6.8 4.2 11.28
5/14/2021 1:00:00 AM 7.62 45.716 0.043 6.84 4.19 11.3
5/14/2021 1:15:00 AM 7.55 45.59 0.043 6.85 4.32 11.32
5/14/2021 1:30:00 AM 7.48 45.464 0.043 6.83 4.04 11.34
5/14/2021 1:45:00 AM 7.42 45.356 0.043 6.82 4.18 11.36
5/14/2021 2:00:00 AM 7.36 45.248 0.043 6.8 4.1 11.38
5/14/2021 2:15:00 AM 7.3 45.14 0.043 6.82 4.29 11.4
5/14/2021 2:30:00 AM 7.24 45.032 0.043 6.8 4.52 11.42
5/14/2021 2:45:00 AM 7.18 44.924 0.043 6.85 4.4 11.43
5/14/2021 3:00:00 AM 7.12 44.816 0.043 6.84 4.18 11.45
5/14/2021 3:15:00 AM 7.07 44.726 0.043 6.86 3.93 11.46
5/14/2021 3:30:00 AM 7.02 44.636 0.043 6.85 4.14 11.48
5/14/2021 3:45:00 AM 6.97 44.546 0.043 6.84 4.1 11.5
5/14/2021 4:00:00 AM 6.92 44.456 0.043 6.85 4.1 11.51
5/14/2021 4:15:00 AM 6.87 44.366 0.043 6.86 4.03 11.52
5/14/2021 4:30:00 AM 6.83 44.294 0.043 6.79 4.1 11.53
5/14/2021 4:45:00 AM 6.78 44.204 0.043 6.82 4.49 11.55
5/14/2021 5:00:00 AM 6.74 44.132 0.043 6.81 4.57 11.56
5/14/2021 5:15:00 AM 6.7 44.06 0.043 6.8 4.51 11.58
5/14/2021 5:30:00 AM 6.66 43.988 0.043 6.77 4.16 11.6
5/14/2021 5:45:00 AM 6.61 43.898 0.043 6.83 4.32 11.61
5/14/2021 6:00:00 AM 6.58 43.844 0.043 6.82 4.54 11.63
5/14/2021 6:15:00 AM 6.54 43.772 0.043 6.81 4.19 11.65
5/14/2021 6:30:00 AM 6.51 43.718 0.043 6.77 3.88 11.67
5/14/2021 6:45:00 AM 6.48 43.664 0.043 6.81 4.11 11.7
5/14/2021 7:00:00 AM 6.46 43.628 0.043 6.82 4.02 11.72
5/14/2021 7:15:00 AM 6.46 43.628 0.043 6.83 4.07 11.75
5/14/2021 7:30:00 AM 6.47 43.646 0.043 6.88 4.01 11.78
5/14/2021 7:45:00 AM 6.51 43.718 0.043 6.9 4.09 11.81
5/14/2021 8:00:00 AM 6.56 43.808 0.043 6.87 4.04 11.83
5/14/2021 8:15:00 AM 6.64 43.952 0.042 6.88 3.72 11.85
5/14/2021 8:30:00 AM 6.74 44.132 0.042 6.87 4.12 11.85
5/14/2021 8:45:00 AM 6.85 44.33 0.042 6.93 3.76 11.85
5/14/2021 9:00:00 AM 6.99 44.582 0.042 6.9 3.91 11.84
5/14/2021 9:15:00 AM 7.14 44.852 0.042 6.91 3.89 11.83
5/14/2021 9:30:00 AM 7.31 45.158 0.042 6.94 4.17 11.81
5/14/2021 9:45:00 AM 7.5 45.5 0.042 6.96 3.86 11.77
5/14/2021 10:00:00 AM 7.7 45.86 0.042 6.9 3.89 11.74
5/14/2021 10:15:00 AM 7.91 46.238 0.042 6.98 3.9 11.71
5/14/2021 10:30:00 AM 8.14 46.652 0.042 6.97 3.74 11.66
5/14/2021 10:45:00 AM 8.4 47.12 0.042 7.02 3.89 11.62
5/14/2021 11:00:00 AM 8.66 47.588 0.042 7.01 3.91 11.56
5/14/2021 11:15:00 AM 8.94 48.092 0.042 6.99 3.93 11.51
5/14/2021 11:30:00 AM 9.19 48.542 0.042 6.97 3.98 11.46
5/14/2021 11:45:00 AM 9.44 48.992 0.042 7.04 3.84 11.38
5/14/2021 12:00:00 PM 9.7 49.46 0.042 6.99 3.86 11.33
5/14/2021 12:15:00 PM 9.66 49.388 0.042 7.03 3.79 11.24
5/14/2021 12:30:00 PM 9.53 49.154 0.042 7 3.96 11.19
5/14/2021 12:45:00 PM 9.47 49.046 0.042 7 3.77 11.18
5/14/2021 1:00:00 PM 9.54 49.172 0.042 6.96 4.13 11.16
5/14/2021 1:15:00 PM 9.69 49.442 0.042 7.02 3.99 11.13
5/14/2021 1:30:00 PM 9.74 49.532 0.042 7.03 4.02 11.14
5/14/2021 1:45:00 PM 9.82 49.676 0.042 7.02 4.12 11.16
5/14/2021 2:00:00 PM 9.92 49.856 0.042 7.01 3.94 11.15
5/14/2021 2:15:00 PM 9.89 49.802 0.042 7.02 4.21 11.12
5/14/2021 2:30:00 PM 9.9 49.82 0.042 6.98 3.97 11.12
5/14/2021 2:45:00 PM 9.97 49.946 0.042 7.02 4.03 11.12
5/14/2021 3:00:00 PM 10.08 50.144 0.042 6.98 4.3 11.1
5/14/2021 3:15:00 PM 10.25 50.45 0.042 7.08 3.85 11.09
5/14/2021 3:30:00 PM 10.63 51.134 0.042 7.01 3.99 11.05
5/14/2021 3:45:00 PM 10.64 51.152 0.042 7.07 3.86 10.96
5/14/2021 4:00:00 PM 10.57 51.026 0.042 7.04 3.81 10.92
5/14/2021 4:15:00 PM 10.44 50.792 0.042 7.01 3.97 10.91
5/14/2021 4:30:00 PM 10.34 50.612 0.042 7.04 4.1 10.92
5/14/2021 4:45:00 PM 10.27 50.486 0.042 7.05 4.15 10.94
5/14/2021 5:00:00 PM 10.23 50.414 0.042 6.98 4.2 10.95
5/14/2021 5:15:00 PM 10.19 50.342 0.042 7.02 4.07 10.95
5/14/2021 5:30:00 PM 10.16 50.288 0.042 6.95 3.94 10.94
5/14/2021 5:45:00 PM 10.14 50.252 0.042 7.03 4.11 10.94
5/14/2021 6:00:00 PM 10.12 50.216 0.042 6.96 4.25 10.93
5/14/2021 6:15:00 PM 10.09 50.162 0.042 7.02 4.28 10.93
5/14/2021 6:30:00 PM 10.06 50.108 0.042 6.96 4.53 10.92
5/14/2021 6:45:00 PM 10.02 50.036 0.042 7.02 3.94 10.91
5/14/2021 7:00:00 PM 9.98 49.964 0.042 6.95 4.42 10.89
5/14/2021 7:15:00 PM 9.92 49.856 0.042 6.96 3.89 10.88
5/14/2021 7:30:00 PM 9.87 49.766 0.042 6.92 4.18 10.87
5/14/2021 7:45:00 PM 9.8 49.64 0.043 6.97 4.38 10.86
5/14/2021 8:00:00 PM 9.73 49.514 0.043 6.92 4.11 10.84
5/14/2021 8:15:00 PM 9.65 49.37 0.043 6.93 4.27 10.83
5/14/2021 8:30:00 PM 9.56 49.208 0.043 6.9 4.29 10.82
5/14/2021 8:45:00 PM 9.48 49.064 0.043 6.87 4.24 10.81
5/14/2021 9:00:00 PM 9.39 48.902 0.043 6.89 4.43 10.82
5/14/2021 9:15:00 PM 9.3 48.74 0.043 6.87 4.32 10.83
5/14/2021 9:30:00 PM 9.22 48.596 0.043 6.83 4.36 10.85
5/14/2021 9:45:00 PM 9.15 48.47 0.043 6.87 4.29 10.86
5/14/2021 10:00:00 PM 9.09 48.362 0.043 6.82 4.41 10.88
5/14/2021 10:15:00 PM 9.01 48.218 0.043 6.85 4.49 10.9
5/14/2021 10:30:00 PM 8.93 48.074 0.043 6.84 4.64 10.92
5/14/2021 10:45:00 PM 8.85 47.93 0.043 6.86 4.12 10.94
5/14/2021 11:00:00 PM 8.77 47.786 0.043 6.83 4.08 10.95
5/14/2021 11:15:00 PM 8.7 47.66 0.043 6.88 4.04 10.98
5/14/2021 11:30:00 PM 8.64 47.552 0.043 6.81 4.08 11
5/14/2021 11:45:00 PM 8.56 47.408 0.043 6.85 4.13 11.02
5/15/2021 12:00:00 AM 8.5 47.3 0.043 6.79 4.47 11.04
5/15/2021 12:15:00 AM 8.43 47.174 0.043 6.82 4.31 11.06
5/15/2021 12:30:00 AM 8.36 47.048 0.043 6.84 4.06 11.08
5/15/2021 12:45:00 AM 8.28 46.904 0.043 6.88 4.28 11.09
5/15/2021 1:00:00 AM 8.22 46.796 0.043 6.81 4.41 11.12
5/15/2021 1:15:00 AM 8.16 46.688 0.043 6.85 4.31 11.13
5/15/2021 1:30:00 AM 8.11 46.598 0.043 6.81 4.02 11.14
5/15/2021 1:45:00 AM 8.06 46.508 0.043 6.85 4.15 11.16
5/15/2021 2:00:00 AM 8.02 46.436 0.043 6.85 4.22 11.18
5/15/2021 2:15:00 AM 7.98 46.364 0.043 6.85 4.51 11.19
5/15/2021 2:30:00 AM 7.94 46.292 0.043 6.85 4.26 11.21
5/15/2021 2:45:00 AM 7.91 46.238 0.043 6.87 4.06 11.22
5/15/2021 3:00:00 AM 7.87 46.166 0.043 6.85 4.1 11.23
5/15/2021 3:15:00 AM 7.84 46.112 0.043 6.84 4 11.24
5/15/2021 3:30:00 AM 7.79 46.022 0.043 6.84 4.06 11.25
5/15/2021 3:45:00 AM 7.74 45.932 0.043 6.85 4.24 11.26
5/15/2021 4:00:00 AM 7.68 45.824 0.043 6.8 4.07 11.28
5/15/2021 4:15:00 AM 7.63 45.734 0.043 6.86 4.27 11.29
5/15/2021 4:30:00 AM 7.57 45.626 0.043 6.85 4.16 11.3
5/15/2021 4:45:00 AM 7.51 45.518 0.043 6.84 4.22 11.32
5/15/2021 5:00:00 AM 7.45 45.41 0.043 6.8 4.27 11.33
5/15/2021 5:15:00 AM 7.39 45.302 0.043 6.82 3.96 11.36
5/15/2021 5:30:00 AM 7.34 45.212 0.043 6.83 3.94 11.37
5/15/2021 5:45:00 AM 7.28 45.104 0.043 6.88 4.35 11.39
5/15/2021 6:00:00 AM 7.23 45.014 0.043 6.85 4.18 11.42
5/15/2021 6:15:00 AM 7.17 44.906 0.043 6.87 4.18 11.45
5/15/2021 6:30:00 AM 7.12 44.816 0.043 6.81 4.27 11.48
5/15/2021 6:45:00 AM 7.08 44.744 0.043 6.89 3.96 11.5
5/15/2021 7:00:00 AM 7.05 44.69 0.043 6.86 4.42 11.54
5/15/2021 7:15:00 AM 7.03 44.654 0.043 6.82 4.19 11.57
5/15/2021 7:30:00 AM 7.03 44.654 0.043 6.88 4.49 11.61
5/15/2021 7:45:00 AM 7.05 44.69 0.043 6.89 4.25 11.64
5/15/2021 8:00:00 AM 7.1 44.78 0.043 6.91 4.05 11.67
5/15/2021 8:15:00 AM 7.16 44.888 0.043 6.94 3.98 11.69
5/15/2021 8:30:00 AM 7.25 45.05 0.043 6.96 3.94 11.71
5/15/2021 8:45:00 AM 7.35 45.23 0.043 6.9 3.87 11.71
5/15/2021 9:00:00 AM 7.47 45.446 0.043 6.96 4.02 11.71
5/15/2021 9:15:00 AM 7.62 45.716 0.043 6.96 4 11.7
5/15/2021 9:30:00 AM 7.77 45.986 0.043 6.98 3.77 11.69
5/15/2021 9:45:00 AM 7.94 46.292 0.043 6.96 3.9 11.66
5/15/2021 10:00:00 AM 8.13 46.634 0.043 6.98 3.85 11.63
5/15/2021 10:15:00 AM 8.32 46.976 0.042 6.96 4.06 11.6
5/15/2021 10:30:00 AM 8.5 47.3 0.042 7.04 4.11 11.56
5/15/2021 10:45:00 AM 8.65 47.57 0.042 6.96 4.1 11.52
5/15/2021 11:00:00 AM 8.64 47.552 0.042 7.01 4 11.44
5/15/2021 11:15:00 AM 8.8 47.84 0.042 6.98 3.88 11.43
5/15/2021 11:30:00 AM 9.14 48.452 0.042 7.04 3.8 11.41
5/15/2021 11:45:00 AM 9.39 48.902 0.042 7.01 3.77 11.34
5/15/2021 12:00:00 PM 9.6 49.28 0.042 7 3.99 11.29
5/15/2021 12:15:00 PM 9.9 49.82 0.042 7.01 4.04 11.26
5/15/2021 12:30:00 PM 9.99 49.982 0.042 7.04 3.95 11.18
5/15/2021 12:45:00 PM 10.06 50.108 0.042 6.96 4.08 11.14
5/15/2021 1:00:00 PM 10.21 50.378 0.042 7.04 4.12 11.13
5/15/2021 1:15:00 PM 10.37 50.666 0.042 7.04 3.7 11.08
5/15/2021 1:30:00 PM 10.43 50.774 0.042 7.05 3.83 11.03
5/15/2021 1:45:00 PM 10.65 51.17 0.042 7.03 4.14 11.03
5/15/2021 2:00:00 PM 10.63 51.134 0.042 7.03 4.41 10.95
5/15/2021 2:15:00 PM 10.65 51.17 0.042 7 3.78 10.93
5/15/2021 2:30:00 PM 10.68 51.224 0.042 7.06 4.17 10.92
5/15/2021 2:45:00 PM 10.66 51.188 0.042 7.03 3.95 10.88
5/15/2021 3:00:00 PM 10.67 51.206 0.042 7.04 4.02 10.88
5/15/2021 3:15:00 PM 10.62 51.116 0.042 7.05 3.85 10.87
5/15/2021 3:30:00 PM 10.62 51.116 0.042 7.06 3.79 10.88
5/15/2021 3:45:00 PM 10.63 51.134 0.042 7 4.12 10.89
5/15/2021 4:00:00 PM 10.67 51.206 0.042 7.03 3.98 10.89
5/15/2021 4:15:00 PM 10.84 51.512 0.042 7 3.9 10.89
5/15/2021 4:30:00 PM 10.81 51.458 0.042 7.07 3.81 10.84
5/15/2021 4:45:00 PM 10.76 51.368 0.042 6.97 4.03 10.82
5/15/2021 5:00:00 PM 10.72 51.296 0.042 7.07 3.79 10.82
5/15/2021 5:15:00 PM 10.74 51.332 0.042 7 3.8 10.83
5/15/2021 5:30:00 PM 10.79 51.422 0.042 7.05 4.08 10.83
5/15/2021 5:45:00 PM 10.77 51.386 0.042 7.02 4.11 10.81
5/15/2021 6:00:00 PM 10.77 51.386 0.043 7.03 4.01 10.81
5/15/2021 6:15:00 PM 10.72 51.296 0.043 7.02 4.29 10.79
5/15/2021 6:30:00 PM 10.66 51.188 0.043 7.02 3.97 10.77
5/15/2021 6:45:00 PM 10.6 51.08 0.043 6.99 4.56 10.75
5/15/2021 7:00:00 PM 10.55 50.99 0.043 7 4.24 10.74
5/15/2021 7:15:00 PM 10.5 50.9 0.043 6.99 3.81 10.74
5/15/2021 7:30:00 PM 10.43 50.774 0.043 6.97 3.91 10.73
5/15/2021 7:45:00 PM 10.36 50.648 0.043 6.96 3.92 10.7
5/15/2021 8:00:00 PM 10.27 50.486 0.043 6.94 4.08 10.68
5/15/2021 8:15:00 PM 10.18 50.324 0.043 6.9 3.94 10.67
5/15/2021 8:30:00 PM 10.1 50.18 0.043 6.94 3.84 10.66
5/15/2021 8:45:00 PM 10.01 50.018 0.043 6.84 4.07 10.65
5/15/2021 9:00:00 PM 9.93 49.874 0.043 6.93 4.35 10.66
5/15/2021 9:15:00 PM 9.84 49.712 0.043 6.88 4.24 10.68
5/15/2021 9:30:00 PM 9.74 49.532 0.043 6.89 4.22 10.69
5/15/2021 9:45:00 PM 9.66 49.388 0.043 6.82 4.19 10.71
5/15/2021 10:00:00 PM 9.57 49.226 0.043 6.89 4.15 10.73
5/15/2021 10:15:00 PM 9.48 49.064 0.044 6.84 4.32 10.75
5/15/2021 10:30:00 PM 9.41 48.938 0.044 6.9 4.58 10.77
5/15/2021 10:45:00 PM 9.33 48.794 0.044 6.85 4.69 10.79
5/15/2021 11:00:00 PM 9.26 48.668 0.044 6.88 4.63 10.81
5/15/2021 11:15:00 PM 9.18 48.524 0.044 6.88 4.64 10.83
5/15/2021 11:30:00 PM 9.1 48.38 0.044 6.88 4.42 10.86
5/15/2021 11:45:00 PM 9.04 48.272 0.044 6.87 4.41 10.87
5/16/2021 12:00:00 AM 8.97 48.146 0.044 6.86 4.28 10.89
5/16/2021 12:15:00 AM 8.9 48.02 0.044 6.85 4.56 10.91
5/16/2021 12:30:00 AM 8.84 47.912 0.044 6.84 4.6 10.93
5/16/2021 12:45:00 AM 8.78 47.804 0.044 6.84 4.67 10.95
5/16/2021 1:00:00 AM 8.73 47.714 0.044 6.86 4.59 10.96
5/16/2021 1:15:00 AM 8.68 47.624 0.044 6.79 4.73 10.97
5/16/2021 1:30:00 AM 8.63 47.534 0.044 6.83 4.34 10.99
5/16/2021 1:45:00 AM 8.58 47.444 0.044 6.82 4.56 11.01
5/16/2021 2:00:00 AM 8.51 47.318 0.044 6.86 4.64 11.02
5/16/2021 2:15:00 AM 8.45 47.21 0.044 6.86 4.6 11.04
5/16/2021 2:30:00 AM 8.39 47.102 0.044 6.88 5.08 11.05
5/16/2021 2:45:00 AM 8.33 46.994 0.044 6.86 4.93 11.07
5/16/2021 3:00:00 AM 8.27 46.886 0.044 6.8 4.67 11.08
5/16/2021 3:15:00 AM 8.21 46.778 0.044 6.84 4.35 11.1
5/16/2021 3:30:00 AM 8.15 46.67 0.044 6.87 5.63 11.11
5/16/2021 3:45:00 AM 8.09 46.562 0.044 6.87 4.54 11.13
5/16/2021 4:00:00 AM 8.04 46.472 0.044 6.83 4.65 11.14
5/16/2021 4:15:00 AM 7.99 46.382 0.044 6.77 4.58 11.16
5/16/2021 4:30:00 AM 7.94 46.292 0.044 6.89 4.76 11.18
5/16/2021 4:45:00 AM 7.89 46.202 0.044 6.82 4.7 11.2
5/16/2021 5:00:00 AM 7.84 46.112 0.044 6.87 4.58 11.21
5/16/2021 5:15:00 AM 7.8 46.04 0.044 6.85 4.83 11.22
5/16/2021 5:30:00 AM 7.77 45.986 0.044 6.89 4.51 11.24
5/16/2021 5:45:00 AM 7.74 45.932 0.044 6.83 4.87 11.25
5/16/2021 6:00:00 AM 7.71 45.878 0.044 6.86 4.81 11.26
5/16/2021 6:15:00 AM 7.68 45.824 0.044 6.83 4.7 11.28
5/16/2021 6:30:00 AM 7.66 45.788 0.044 6.88 4.81 11.3
5/16/2021 6:45:00 AM 7.65 45.77 0.043 6.89 4.3 11.33
5/16/2021 7:00:00 AM 7.65 45.77 0.044 6.88 4.7 11.37
5/16/2021 7:15:00 AM 7.66 45.788 0.043 6.88 4.24 11.4
5/16/2021 7:30:00 AM 7.67 45.806 0.044 6.92 4.6 11.45
5/16/2021 7:45:00 AM 7.69 45.842 0.043 6.9 4.53 11.46
5/16/2021 8:00:00 AM 7.7 45.86 0.043 6.96 4.54 11.45
5/16/2021 8:15:00 AM 7.71 45.878 0.043 6.87 4.41 11.46
5/16/2021 8:30:00 AM 7.73 45.914 0.043 6.94 4.42 11.47
5/16/2021 8:45:00 AM 7.76 45.968 0.043 6.89 4.37 11.5
5/16/2021 9:00:00 AM 7.84 46.112 0.043 6.95 4.23 11.53
5/16/2021 9:15:00 AM 7.91 46.238 0.043 6.98 4.51 11.54
5/16/2021 9:30:00 AM 8 46.4 0.043 7 4.62 11.56
5/16/2021 9:45:00 AM 8.08 46.544 0.043 7 4.13 11.55
5/16/2021 10:00:00 AM 8.16 46.688 0.043 7.02 4.43 11.55
5/16/2021 10:15:00 AM 8.26 46.868 0.043 7.02 4.11 11.54
5/16/2021 10:30:00 AM 8.37 47.066 0.043 7.01 4.1 11.54
5/16/2021 10:45:00 AM 8.49 47.282 0.043 6.98 4.19 11.52
5/16/2021 11:00:00 AM 8.61 47.498 0.043 7.05 4.24 11.5
5/16/2021 11:15:00 AM 8.74 47.732 0.043 7.06 4.22 11.47
5/16/2021 11:30:00 AM 8.86 47.948 0.043 7.04 4.02 11.44
5/16/2021 11:45:00 AM 8.96 48.128 0.043 7.06 4.21 11.42
5/16/2021 12:00:00 PM 9.02 48.236 0.043 7.03 4.11 11.37
5/16/2021 12:15:00 PM 9.06 48.308 0.043 7.07 4.28 11.31
5/16/2021 12:30:00 PM 9.09 48.362 0.043 7.04 4.13 11.26
5/16/2021 12:45:00 PM 9.12 48.416 0.043 6.98 4.17 11.23
5/16/2021 1:00:00 PM 9.19 48.542 0.043 7.05 4.26 11.25
5/16/2021 1:15:00 PM 9.29 48.722 0.043 6.99 4.5 11.24
5/16/2021 1:30:00 PM 9.4 48.92 0.043 7.06 4.31 11.24
5/16/2021 1:45:00 PM 9.54 49.172 0.043 7.07 4.3 11.24
5/16/2021 2:00:00 PM 9.67 49.406 0.043 7.1 4.32 11.22
5/16/2021 2:15:00 PM 9.73 49.514 0.043 7.03 4.04 11.19
5/16/2021 2:30:00 PM 9.78 49.604 0.043 7.1 4.31 11.17
5/16/2021 2:45:00 PM 9.86 49.748 0.042 7.04 3.97 11.17
5/16/2021 3:00:00 PM 9.97 49.946 0.042 7.07 4.33 11.14
5/16/2021 3:15:00 PM 10.11 50.198 0.042 7.05 4.37 11.12
5/16/2021 3:30:00 PM 10.28 50.504 0.042 7.12 4.27 11.1
5/16/2021 3:45:00 PM 10.39 50.702 0.043 7.05 4.22 11.08
5/16/2021 4:00:00 PM 10.47 50.846 0.043 7.11 4.35 11.05
5/16/2021 4:15:00 PM 10.46 50.828 0.043 7.03 3.97 11.01
5/16/2021 4:30:00 PM 10.43 50.774 0.043 7.1 4.23 10.95
5/16/2021 4:45:00 PM 10.42 50.756 0.043 7 4.3 10.94
5/16/2021 5:00:00 PM 10.39 50.702 0.043 7.09 4.36 10.9
5/16/2021 5:15:00 PM 10.36 50.648 0.043 7.05 3.98 10.88
5/16/2021 5:30:00 PM 10.31 50.558 0.043 7.05 4.49 10.88
5/16/2021 5:45:00 PM 10.27 50.486 0.043 6.99 4.41 10.88
5/16/2021 6:00:00 PM 10.23 50.414 0.043 7.06 4.07 10.86
5/16/2021 6:15:00 PM 10.19 50.342 0.043 7.06 4.39 10.83
5/16/2021 6:30:00 PM 10.14 50.252 0.043 7.03 4.28 10.81
5/16/2021 6:45:00 PM 10.08 50.144 0.043 6.99 4.21 10.8
5/16/2021 7:00:00 PM 10.05 50.09 0.043 7.02 4.59 10.81
5/16/2021 7:15:00 PM 10.02 50.036 0.043 6.95 4.39 10.8
5/16/2021 7:30:00 PM 9.97 49.946 0.043 6.99 4.63 10.79
5/16/2021 7:45:00 PM 9.91 49.838 0.043 6.93 4.47 10.78
5/16/2021 8:00:00 PM 9.85 49.73 0.043 6.94 4.39 10.78
5/16/2021 8:15:00 PM 9.8 49.64 0.043 6.89 4.33 10.77
5/16/2021 8:30:00 PM 9.73 49.514 0.044 6.93 4.31 10.76
5/16/2021 8:45:00 PM 9.66 49.388 0.044 6.89 4.63 10.75
5/16/2021 9:00:00 PM 9.59 49.262 0.044 6.94 4.56 10.75
5/16/2021 9:15:00 PM 9.51 49.118 0.044 6.88 4.36 10.75
5/16/2021 9:30:00 PM 9.43 48.974 0.044 6.93 4.75 10.77
5/16/2021 9:45:00 PM 9.35 48.83 0.044 6.9 4.53 10.79
5/16/2021 10:00:00 PM 9.27 48.686 0.044 6.9 4.35 10.81
5/16/2021 10:15:00 PM 9.19 48.542 0.044 6.9 4.93 10.83
5/16/2021 10:30:00 PM 9.11 48.398 0.044 6.89 4.43 10.85
5/16/2021 10:45:00 PM 9.04 48.272 0.044 6.89 4.56 10.87
5/16/2021 11:00:00 PM 8.96 48.128 0.044 6.84 4.75 10.89
5/16/2021 11:15:00 PM 8.87 47.966 0.044 6.92 4.74 10.91
5/16/2021 11:30:00 PM 8.8 47.84 0.044 6.86 4.66 10.93
5/16/2021 11:45:00 PM 8.71 47.678 0.044 6.92 4.48 10.95
5/17/2021 12:00:00 AM 8.64 47.552 0.044 6.83 4.5 10.98
5/17/2021 12:15:00 AM 8.56 47.408 0.044 6.88 4.04 11
5/17/2021 12:30:00 AM 8.48 47.264 0.044 6.88 4.55 11.02
5/17/2021 12:45:00 AM 8.4 47.12 0.044 6.85 4.16 11.05
5/17/2021 1:00:00 AM 8.33 46.994 0.044 6.89 4.44 11.07
5/17/2021 1:15:00 AM 8.26 46.868 0.044 6.89 4.62 11.09
5/17/2021 1:30:00 AM 8.19 46.742 0.044 6.9 4.42 11.11
5/17/2021 1:45:00 AM 8.12 46.616 0.044 6.9 4.43 11.13
5/17/2021 2:00:00 AM 8.05 46.49 0.044 6.86 4.14 11.15
5/17/2021 2:15:00 AM 7.98 46.364 0.044 6.85 4.55 11.18
5/17/2021 2:30:00 AM 7.91 46.238 0.044 6.91 4.52 11.2
5/17/2021 2:45:00 AM 7.84 46.112 0.044 6.86 4.81 11.21
5/17/2021 3:00:00 AM 7.78 46.004 0.044 6.91 4.92 11.23
5/17/2021 3:15:00 AM 7.71 45.878 0.044 6.86 4.84 11.25
5/17/2021 3:30:00 AM 7.65 45.77 0.044 6.85 4.81 11.27
5/17/2021 3:45:00 AM 7.59 45.662 0.044 6.9 4.54 11.28
5/17/2021 4:00:00 AM 7.53 45.554 0.044 6.9 4.37 11.3
5/17/2021 4:15:00 AM 7.48 45.464 0.044 6.85 4.39 11.31
5/17/2021 4:30:00 AM 7.42 45.356 0.044 6.9 4.51 11.33
5/17/2021 4:45:00 AM 7.36 45.248 0.044 6.87 4.85 11.35
5/17/2021 5:00:00 AM 7.31 45.158 0.044 6.91 4.81 11.37
5/17/2021 5:15:00 AM 7.25 45.05 0.044 6.9 4.9 11.39
5/17/2021 5:30:00 AM 7.2 44.96 0.044 6.89 4.31 11.4
5/17/2021 5:45:00 AM 7.15 44.87 0.044 6.87 4.48 11.42
5/17/2021 6:00:00 AM 7.1 44.78 0.044 6.88 4.64 11.44
5/17/2021 6:15:00 AM 7.05 44.69 0.044 6.9 4.28 11.46
5/17/2021 6:30:00 AM 7.01 44.618 0.044 6.91 4.51 11.5
5/17/2021 6:45:00 AM 6.97 44.546 0.044 6.87 4.02 11.53
5/17/2021 7:00:00 AM 6.95 44.51 0.044 6.9 4.17 11.56
5/17/2021 7:15:00 AM 6.94 44.492 0.044 6.92 4.43 11.59
5/17/2021 7:30:00 AM 6.95 44.51 0.044 6.93 4.51 11.62
5/17/2021 7:45:00 AM 6.99 44.582 0.044 6.92 4.17 11.66
5/17/2021 8:00:00 AM 7.06 44.708 0.044 6.85 3.94 11.69
5/17/2021 8:15:00 AM 7.15 44.87 0.044 6.95 3.92 11.71
5/17/2021 8:30:00 AM 7.27 45.086 0.044 6.97 4.15 11.72
5/17/2021 8:45:00 AM 7.4 45.32 0.044 7.01 4.1 11.71
5/17/2021 9:00:00 AM 7.55 45.59 0.044 7.01 4.15 11.7
5/17/2021 9:15:00 AM 7.73 45.914 0.043 6.99 4.35 11.69
5/17/2021 9:30:00 AM 7.92 46.256 0.043 7.02 4.27 11.67
5/17/2021 9:45:00 AM 8.12 46.616 0.043 6.96 4.59 11.63
5/17/2021 10:00:00 AM 8.33 46.994 0.043 7.04 4.52 11.61
5/17/2021 10:15:00 AM 8.55 47.39 0.043 7.06 4.59 11.56
5/17/2021 10:30:00 AM 8.79 47.822 0.043 7.02 4.28 11.51
5/17/2021 10:45:00 AM 9.03 48.254 0.043 7.06 4.21 11.47
5/17/2021 11:00:00 AM 9.29 48.722 0.043 7.06 4.49 11.41
5/17/2021 11:15:00 AM 9.54 49.172 0.043 7.05 4.03 11.36
5/17/2021 11:30:00 AM 9.81 49.658 0.043 7.02 4.01 11.31
5/17/2021 11:45:00 AM 10.07 50.126 0.043 7.1 4.66 11.24
5/17/2021 12:00:00 PM 10.33 50.594 0.043 7.08 4.33 11.19
5/17/2021 12:15:00 PM 10.62 51.116 0.043 7.1 4.39 11.12
5/17/2021 12:30:00 PM 10.92 51.656 0.043 7.07 4.45 11.05
5/17/2021 12:45:00 PM 10.97 51.746 0.043 7.08 4.91 10.97
5/17/2021 1:00:00 PM 11.24 52.232 0.043 7.07 4.43 10.92
5/17/2021 1:15:00 PM 11.38 52.484 0.043 7.05 4.3 10.88
5/17/2021 1:30:00 PM 11.34 52.412 0.043 7.06 4.4 10.81
5/17/2021 1:45:00 PM 11.28 52.304 0.043 7.04 4.66 10.8
5/17/2021 2:00:00 PM 11.28 52.304 0.043 7.08 4.49 10.82
5/17/2021 2:15:00 PM 11.27 52.286 0.043 7.08 4.37 10.79
5/17/2021 2:30:00 PM 11.45 52.61 0.043 7.08 4.34 10.74
5/17/2021 2:45:00 PM 11.66 52.988 0.043 7.08 4.36 10.72
5/17/2021 3:00:00 PM 11.75 53.15 0.043 7.1 4.45 10.68
5/17/2021 3:15:00 PM 11.83 53.294 0.043 7.08 4.86 10.64
5/17/2021 3:30:00 PM 11.99 53.582 0.043 7.06 4.15 10.63
5/17/2021 3:45:00 PM 12.09 53.762 0.043 7.1 4.35 10.61
5/17/2021 4:00:00 PM 12 53.6 0.043 7.08 4.2 10.58
5/17/2021 4:15:00 PM 12.23 54.014 0.043 7.1 4.46 10.61
5/17/2021 4:30:00 PM 12.21 53.978 0.043 7.1 4.13 10.56
5/17/2021 4:45:00 PM 12.13 53.834 0.043 7.1 3.96 10.53
5/17/2021 5:00:00 PM 12.1 53.78 0.043 7.04 4.47 10.53
5/17/2021 5:15:00 PM 12.14 53.852 0.043 7.1 4.64 10.53
5/17/2021 5:30:00 PM 12.16 53.888 0.043 7.1 4.6 10.49
5/17/2021 5:45:00 PM 12.24 54.032 0.043 7.08 4.25 10.48
5/17/2021 6:00:00 PM 12.16 53.888 0.043 7.1 4.46 10.44
5/17/2021 6:15:00 PM 12.13 53.834 0.044 7.07 4.61 10.43
5/17/2021 6:30:00 PM 12.09 53.762 0.043 7.06 4.6 10.42
5/17/2021 6:45:00 PM 12.04 53.672 0.043 7.05 4.32 10.38
5/17/2021 7:00:00 PM 12.03 53.654 0.043 7.03 4.48 10.35
5/17/2021 7:15:00 PM 12 53.6 0.044 7.02 4.48 10.34
5/17/2021 7:30:00 PM 11.94 53.492 0.044 7.03 4.88 10.32
5/17/2021 7:45:00 PM 11.88 53.384 0.044 6.99 4.52 10.31
5/17/2021 8:00:00 PM 11.81 53.258 0.044 7.01 4.53 10.3
5/17/2021 8:15:00 PM 11.72 53.096 0.044 6.98 4.9 10.28
5/17/2021 8:30:00 PM 11.61 52.898 0.044 6.98 4.99 10.28
5/17/2021 8:45:00 PM 11.5 52.7 0.044 6.95 4.57 10.28
5/17/2021 9:00:00 PM 11.37 52.466 0.044 6.94 4.74 10.28
5/17/2021 9:15:00 PM 11.24 52.232 0.044 6.9 4.76 10.3
5/17/2021 9:30:00 PM 11.11 51.998 0.044 6.92 5.07 10.33
5/17/2021 9:45:00 PM 11 51.8 0.045 6.91 4.9 10.35
5/17/2021 10:00:00 PM 10.89 51.602 0.045 6.92 4.62 10.37
5/17/2021 10:15:00 PM 10.78 51.404 0.045 6.92 4.95 10.4
5/17/2021 10:30:00 PM 10.68 51.224 0.045 6.9 5.04 10.43
5/17/2021 10:45:00 PM 10.58 51.044 0.045 6.9 5.12 10.46
5/17/2021 11:00:00 PM 10.47 50.846 0.045 6.92 4.54 10.49
5/17/2021 11:15:00 PM 10.36 50.648 0.045 6.89 4.64 10.52
5/17/2021 11:30:00 PM 10.26 50.468 0.045 6.9 4.94 10.55
5/17/2021 11:45:00 PM 10.16 50.288 0.045 6.89 4.95 10.57
5/18/2021 12:00:00 AM 10.06 50.108 0.045 6.9 4.89 10.6
5/18/2021 12:15:00 AM 9.96 49.928 0.045 6.9 4.78 10.62
5/18/2021 12:30:00 AM 9.85 49.73 0.045 6.85 5.14 10.65
5/18/2021 12:45:00 AM 9.75 49.55 0.045 6.89 4.9 10.68
5/18/2021 1:00:00 AM 9.66 49.388 0.045 6.9 5.37 10.7
5/18/2021 1:15:00 AM 9.57 49.226 0.045 6.88 4.75 10.72
5/18/2021 1:30:00 AM 9.48 49.064 0.045 6.87 4.57 10.74
5/18/2021 1:45:00 AM 9.4 48.92 0.045 6.85 4.81 10.77
5/18/2021 2:00:00 AM 9.32 48.776 0.045 6.9 4.97 10.79
5/18/2021 2:15:00 AM 9.24 48.632 0.045 6.86 5.17 10.82
5/18/2021 2:30:00 AM 9.17 48.506 0.045 6.88 4.5 10.84
5/18/2021 2:45:00 AM 9.09 48.362 0.045 6.9 4.66 10.86
5/18/2021 3:00:00 AM 9.01 48.218 0.045 6.89 4.61 10.88
5/18/2021 3:15:00 AM 8.94 48.092 0.045 6.86 4.58 10.9
5/18/2021 3:30:00 AM 8.86 47.948 0.045 6.89 4.64 10.92
5/18/2021 3:45:00 AM 8.79 47.822 0.045 6.89 4.73 10.94
5/18/2021 4:00:00 AM 8.72 47.696 0.045 6.89 4.67 10.95
5/18/2021 4:15:00 AM 8.66 47.588 0.045 6.89 4.34 10.98
5/18/2021 4:30:00 AM 8.59 47.462 0.045 6.9 4.59 11
5/18/2021 4:45:00 AM 8.52 47.336 0.045 6.86 4.22 11.02
5/18/2021 5:00:00 AM 8.46 47.228 0.045 6.89 4.43 11.04
5/18/2021 5:15:00 AM 8.4 47.12 0.045 6.89 4.77 11.05
5/18/2021 5:30:00 AM 8.34 47.012 0.045 6.88 4.47 11.07
5/18/2021 5:45:00 AM 8.28 46.904 0.045 6.88 4.34 11.09
5/18/2021 6:00:00 AM 8.23 46.814 0.045 6.84 4.67 11.11
5/18/2021 6:15:00 AM 8.18 46.724 0.045 6.92 4.77 11.14
5/18/2021 6:30:00 AM 8.13 46.634 0.045 6.83 4.97 11.17
5/18/2021 6:45:00 AM 8.09 46.562 0.045 6.91 4.76 11.2
5/18/2021 7:00:00 AM 8.07 46.526 0.045 6.89 4.64 11.23
5/18/2021 7:15:00 AM 8.05 46.49 0.045 6.93 4.32 11.28
5/18/2021 7:30:00 AM 8.07 46.526 0.045 6.94 4.78 11.31
5/18/2021 7:45:00 AM 8.1 46.58 0.045 6.93 4.62 11.34
5/18/2021 8:00:00 AM 8.17 46.706 0.045 6.95 4.27 11.37
5/18/2021 8:15:00 AM 8.26 46.868 0.044 6.98 4.03 11.4
5/18/2021 8:30:00 AM 8.37 47.066 0.044 6.97 5.07 11.41
5/18/2021 8:45:00 AM 8.5 47.3 0.044 7 4.63 11.42
5/18/2021 9:00:00 AM 8.65 47.57 0.044 6.93 4.13 11.41
5/18/2021 9:15:00 AM 8.83 47.894 0.044 7.02 4.49 11.4
5/18/2021 9:30:00 AM 9.02 48.236 0.044 7.04 4.57 11.39
5/18/2021 9:45:00 AM 9.22 48.596 0.044 7.05 4.5 11.37
5/18/2021 10:00:00 AM 9.43 48.974 0.044 7.06 4.69 11.32
5/18/2021 10:15:00 AM 9.64 49.352 0.044 7.05 4.29 11.3
5/18/2021 10:30:00 AM 9.87 49.766 0.044 7.07 4.2 11.25
5/18/2021 10:45:00 AM 10.12 50.216 0.044 7.08 3.87 11.2
5/18/2021 11:00:00 AM 10.37 50.666 0.044 7.09 4.43 11.16
5/18/2021 11:15:00 AM 10.56 51.008 0.044 7.06 4.3 11.11
5/18/2021 11:30:00 AM 10.85 51.53 0.044 7.05 4.41 11.06
5/18/2021 11:45:00 AM 11.14 52.052 0.044 7.1 4.35 11.01
5/18/2021 12:00:00 PM 11.38 52.484 0.044 7.07 4.54 10.94
5/18/2021 12:15:00 PM 11.65 52.97 0.044 7.13 4.13 10.89
5/18/2021 12:30:00 PM 11.83 53.294 0.044 7.06 4.18 10.82
5/18/2021 12:45:00 PM 12.14 53.852 0.044 7.13 4.35 10.76
5/18/2021 1:00:00 PM 12.44 54.392 0.044 7.08 4.44 10.7
5/18/2021 1:15:00 PM 12.72 54.896 0.044 7.11 4.48 10.63
5/18/2021 1:30:00 PM 12.96 55.328 0.044 7.07 4.94 10.57
5/18/2021 1:45:00 PM 13.21 55.778 0.044 7.13 4.77 10.5
5/18/2021 2:00:00 PM 13.42 56.156 0.044 7.09 4.44 10.44
5/18/2021 2:15:00 PM 13.65 56.57 0.044 7.13 4.38 10.39
5/18/2021 2:30:00 PM 13.88 56.984 0.044 7.08 4.78 10.32
5/18/2021 2:45:00 PM 14.11 57.398 0.044 7.14 4.67 10.27
5/18/2021 3:00:00 PM 14.29 57.722 0.044 7.13 4.74 10.23
5/18/2021 3:15:00 PM 14.43 57.974 0.044 7.13 4.67 10.17
5/18/2021 3:30:00 PM 14.59 58.262 0.044 7.14 4.7 10.13
5/18/2021 3:45:00 PM 14.7 58.46 0.044 7.13 4.64 10.09
5/18/2021 4:00:00 PM 14.81 58.658 0.044 7.1 4.65 10.05
5/18/2021 4:15:00 PM 14.87 58.766 0.044 7.13 4.75 10.03
5/18/2021 4:30:00 PM 14.89 58.802 0.044 7.14 4.68 10
5/18/2021 4:45:00 PM 14.95 58.91 0.044 7.12 4.67 9.98
5/18/2021 5:00:00 PM 14.92 58.856 0.044 7.13 5.03 9.94
5/18/2021 5:15:00 PM 14.88 58.784 0.044 7.12 4.91 9.92
5/18/2021 5:30:00 PM 14.82 58.676 0.044 7.1 4.67 9.91
5/18/2021 5:45:00 PM 14.73 58.514 0.044 7.06 4.57 9.89
5/18/2021 6:00:00 PM 14.61 58.298 0.044 7.09 4.63 9.88
5/18/2021 6:15:00 PM 14.47 58.046 0.044 7.09 5.04 9.86
5/18/2021 6:30:00 PM 14.32 57.776 0.044 7.06 5.07 9.86
5/18/2021 6:45:00 PM 14.16 57.488 0.044 7.05 4.92 9.85
5/18/2021 7:00:00 PM 13.98 57.164 0.045 7.04 4.96 9.84
5/18/2021 7:15:00 PM 13.81 56.858 0.045 7.01 5.13 9.84
5/18/2021 7:30:00 PM 13.64 56.552 0.045 7.02 4.78 9.86
5/18/2021 7:45:00 PM 13.48 56.264 0.045 6.95 5 9.87
5/18/2021 8:00:00 PM 13.32 55.976 0.045 7 5.26 9.87
5/18/2021 8:15:00 PM 13.17 55.706 0.045 6.98 4.46 9.89
5/18/2021 8:30:00 PM 13 55.4 0.045 6.95 5.06 9.9
5/18/2021 8:45:00 PM 12.83 55.094 0.045 6.94 5.2 9.92
5/18/2021 9:00:00 PM 12.66 54.788 0.046 6.94 4.82 9.94
5/18/2021 9:15:00 PM 12.5 54.5 0.045 6.93 4.91 9.97
5/18/2021 9:30:00 PM 12.34 54.212 0.046 6.93 5.15 10.01
5/18/2021 9:45:00 PM 12.19 53.942 0.046 6.91 5.03 10.04
5/18/2021 10:00:00 PM 12.04 53.672 0.046 6.91 4.64 10.08
5/18/2021 10:15:00 PM 11.88 53.384 0.046 6.93 4.94 10.11
5/18/2021 10:30:00 PM 11.74 53.132 0.046 6.92 4.97 10.15
5/18/2021 10:45:00 PM 11.59 52.862 0.046 6.87 5.62 10.19
5/18/2021 11:00:00 PM 11.46 52.628 0.046 6.9 5.17 10.22
5/18/2021 11:15:00 PM 11.31 52.358 0.046 6.88 5.26 10.25
5/18/2021 11:30:00 PM 11.17 52.106 0.046 6.91 4.71 10.3
5/18/2021 11:45:00 PM 11.04 51.872 0.046 6.93 4.9 10.33
5/19/2021 12:00:00 AM 10.91 51.638 0.045 6.83 5.06 10.36
5/19/2021 12:15:00 AM 10.78 51.404 0.046 6.93 4.74 10.39
5/19/2021 12:30:00 AM 10.66 51.188 0.046 6.9 5.21 10.42
5/19/2021 12:45:00 AM 10.55 50.99 0.046 6.92 4.75 10.46
5/19/2021 1:00:00 AM 10.45 50.81 0.046 6.92 4.53 10.48
5/19/2021 1:15:00 AM 10.34 50.612 0.046 6.91 4.43 10.51
5/19/2021 1:30:00 AM 10.24 50.432 0.046 6.92 4.66 10.54
5/19/2021 1:45:00 AM 10.14 50.252 0.046 6.88 4.83 10.56
5/19/2021 2:00:00 AM 10.05 50.09 0.046 6.91 4.68 10.58
5/19/2021 2:15:00 AM 9.96 49.928 0.046 6.88 4.77 10.61
5/19/2021 2:30:00 AM 9.87 49.766 0.046 6.88 4.44 10.64
5/19/2021 2:45:00 AM 9.79 49.622 0.046 6.91 4.32 10.66
5/19/2021 3:00:00 AM 9.71 49.478 0.046 6.88 4.73 10.68
5/19/2021 3:15:00 AM 9.63 49.334 0.046 6.9 4.21 10.7
5/19/2021 3:30:00 AM 9.55 49.19 0.046 6.9 4.97 10.72
5/19/2021 3:45:00 AM 9.48 49.064 0.046 6.9 4.82 10.74
5/19/2021 4:00:00 AM 9.41 48.938 0.046 6.91 4.54 10.76
5/19/2021 4:15:00 AM 9.34 48.812 0.046 6.87 4.4 10.78
5/19/2021 4:30:00 AM 9.27 48.686 0.046 6.9 4.21 10.81
5/19/2021 4:45:00 AM 9.21 48.578 0.046 6.91 4.31 10.83
5/19/2021 5:00:00 AM 9.14 48.452 0.046 6.89 4.89 10.85
5/19/2021 5:15:00 AM 9.08 48.344 0.046 6.87 4.43 10.87
5/19/2021 5:30:00 AM 9.02 48.236 0.046 6.92 4.17 10.88
5/19/2021 5:45:00 AM 8.96 48.128 0.045 6.9 4.19 10.9
5/19/2021 6:00:00 AM 8.91 48.038 0.046 6.91 4.84 10.92
5/19/2021 6:15:00 AM 8.86 47.948 0.046 6.91 4.27 10.95
5/19/2021 6:30:00 AM 8.82 47.876 0.045 6.9 4.58 10.98
5/19/2021 6:45:00 AM 8.78 47.804 0.045 6.84 4.22 11.02
5/19/2021 7:00:00 AM 8.75 47.75 0.045 6.93 4.24 11.05
5/19/2021 7:15:00 AM 8.73 47.714 0.045 6.96 4.37 11.08
5/19/2021 7:30:00 AM 8.74 47.732 0.045 6.9 4.28 11.12
5/19/2021 7:45:00 AM 8.78 47.804 0.045 6.95 3.96 11.16
5/19/2021 8:00:00 AM 8.84 47.912 0.045 6.96 3.98 11.19
5/19/2021 8:15:00 AM 8.93 48.074 0.045 6.91 4.1 11.22
5/19/2021 8:30:00 AM 9.03 48.254 0.045 7 4.05 11.24
5/19/2021 8:45:00 AM 9.16 48.488 0.045 6.98 3.87 11.24
5/19/2021 9:00:00 AM 9.31 48.758 0.045 7.03 4.23 11.24
5/19/2021 9:15:00 AM 9.49 49.082 0.045 7.02 4.07 11.23
5/19/2021 9:30:00 AM 9.67 49.406 0.045 7.04 4.14 11.22
5/19/2021 9:45:00 AM 9.87 49.766 0.045 7.06 4.11 11.2
5/19/2021 10:00:00 AM 10.08 50.144 0.045 7.03 4.29 11.16
5/19/2021 10:15:00 AM 10.31 50.558 0.045 7.05 4.04 11.14
5/19/2021 10:30:00 AM 10.54 50.972 0.045 7.09 4.01 11.1
5/19/2021 10:45:00 AM 10.78 51.404 0.045 7.08 4.03 11.05
5/19/2021 11:00:00 AM 11.03 51.854 0.045 7.07 4.22 11.01
5/19/2021 11:15:00 AM 11.3 52.34 0.045 7.1 3.93 10.95
5/19/2021 11:30:00 AM 11.56 52.808 0.044 7.1 4.06 10.9
5/19/2021 11:45:00 AM 11.83 53.294 0.044 7.08 4.28 10.85
5/19/2021 12:00:00 PM 12.1 53.78 0.044 7.06 4.13 10.79
5/19/2021 12:15:00 PM 12.36 54.248 0.044 7.11 4.27 10.74
5/19/2021 12:30:00 PM 12.63 54.734 0.044 7.08 4.38 10.68
5/19/2021 12:45:00 PM 12.89 55.202 0.044 7.09 4.15 10.62
5/19/2021 1:00:00 PM 13.14 55.652 0.044 7.13 3.89 10.55
5/19/2021 1:15:00 PM 13.43 56.174 0.044 7.13 3.89 10.48
5/19/2021 1:30:00 PM 13.7 56.66 0.044 7.13 3.87 10.42
5/19/2021 1:45:00 PM 13.97 57.146 0.044 7.12 4.46 10.35
5/19/2021 2:00:00 PM 14.2 57.56 0.044 7.09 4.13 10.3
5/19/2021 2:15:00 PM 14.38 57.884 0.044 7.16 4.25 10.25
5/19/2021 2:30:00 PM 14.5 58.1 0.044 7.11 4.2 10.2
5/19/2021 2:45:00 PM 14.68 58.424 0.044 7.14 4.26 10.16
5/19/2021 3:00:00 PM 14.8 58.64 0.044 7.1 3.83 10.11
5/19/2021 3:15:00 PM 14.81 58.658 0.044 7.16 4.12 10.08
5/19/2021 3:30:00 PM 14.85 58.73 0.044 7.16 4.56 10.06
5/19/2021 3:45:00 PM 15.03 59.054 0.044 7.15 4.1 10.04
5/19/2021 4:00:00 PM 15.16 59.288 0.044 7.11 4.15 9.99
5/19/2021 4:15:00 PM 15.18 59.324 0.044 7.16 4.18 9.97
5/19/2021 4:30:00 PM 15.25 59.45 0.044 7.15 4.03 9.93
5/19/2021 4:45:00 PM 15.26 59.468 0.044 7.14 4.11 9.9
5/19/2021 5:00:00 PM 15.22 59.396 0.044 7.14 4.37 9.89
5/19/2021 5:15:00 PM 15.15 59.27 0.044 7.12 4.51 9.88
5/19/2021 5:30:00 PM 15.05 59.09 0.044 7.08 4.33 9.86
5/19/2021 5:45:00 PM 14.98 58.964 0.045 7.14 4.61 9.86
5/19/2021 6:00:00 PM 14.91 58.838 0.045 7.1 4.95 9.85
5/19/2021 6:15:00 PM 14.79 58.622 0.045 7.11 4.83 9.83
5/19/2021 6:30:00 PM 14.68 58.424 0.045 7.05 4.7 9.8
5/19/2021 6:45:00 PM 14.57 58.226 0.045 7.04 4.32 9.79
5/19/2021 7:00:00 PM 14.47 58.046 0.045 7.05 4.53 9.79
5/19/2021 7:15:00 PM 14.36 57.848 0.045 7.05 4.13 9.79
5/19/2021 7:30:00 PM 14.25 57.65 0.045 7.04 4.61 9.79
5/19/2021 7:45:00 PM 14.13 57.434 0.045 7.01 4.3 9.77
5/19/2021 8:00:00 PM 14 57.2 0.045 6.98 4.11 9.76
5/19/2021 8:15:00 PM 13.86 56.948 0.045 6.98 4.43 9.75
5/19/2021 8:30:00 PM 13.72 56.696 0.046 6.96 4.33 9.76
5/19/2021 8:45:00 PM 13.58 56.444 0.046 6.91 4.83 9.76
5/19/2021 9:00:00 PM 13.45 56.21 0.046 6.93 4.57 9.77
5/19/2021 9:15:00 PM 13.32 55.976 0.046 6.93 4.31 9.79
5/19/2021 9:30:00 PM 13.18 55.724 0.046 6.92 4.55 9.81
5/19/2021 9:45:00 PM 13.05 55.49 0.046 6.9 4.56 9.84
5/19/2021 10:00:00 PM 12.91 55.238 0.046 6.87 4.38 9.87
5/19/2021 10:15:00 PM 12.78 55.004 0.046 6.9 4.67 9.89
5/19/2021 10:30:00 PM 12.65 54.77 0.046 6.91 4.85 9.92
5/19/2021 10:45:00 PM 12.51 54.518 0.046 6.89 4.53 9.95
5/19/2021 11:00:00 PM 12.39 54.302 0.046 6.91 4.59 9.99
5/19/2021 11:15:00 PM 12.26 54.068 0.046 6.91 4.47 10.02
5/19/2021 11:30:00 PM 12.13 53.834 0.046 6.92 4.29 10.05
5/19/2021 11:45:00 PM 12.01 53.618 0.046 6.89 4.53 10.08
5/20/2021 12:00:00 AM 11.89 53.402 0.046 6.84 4.71 10.11
5/20/2021 12:15:00 AM 11.77 53.186 0.046 6.91 4.03 10.14
5/20/2021 12:30:00 AM 11.66 52.988 0.046 6.88 4.61 10.17
5/20/2021 12:45:00 AM 11.54 52.772 0.046 6.86 4.78 10.21
5/20/2021 1:00:00 AM 11.43 52.574 0.046 6.92 4.51 10.23
5/20/2021 1:15:00 AM 11.33 52.394 0.046 6.93 4.74 10.26
5/20/2021 1:30:00 AM 11.23 52.214 0.046 6.89 4.47 10.28
5/20/2021 1:45:00 AM 11.13 52.034 0.046 6.89 4.47 10.31
5/20/2021 2:00:00 AM 11.03 51.854 0.046 6.92 4.92 10.34
5/20/2021 2:15:00 AM 10.94 51.692 0.046 6.91 4.4 10.36
5/20/2021 2:30:00 AM 10.85 51.53 0.046 6.91 4.92 10.39
5/20/2021 2:45:00 AM 10.76 51.368 0.046 6.86 4.68 10.41
5/20/2021 3:00:00 AM 10.68 51.224 0.046 6.92 4.69 10.43
5/20/2021 3:15:00 AM 10.6 51.08 0.046 6.91 4.5 10.45
5/20/2021 3:30:00 AM 10.51 50.918 0.046 6.92 4.51 10.48
5/20/2021 3:45:00 AM 10.44 50.792 0.046 6.9 4.67 10.5
5/20/2021 4:00:00 AM 10.37 50.666 0.046 6.89 4.58 10.52
5/20/2021 4:15:00 AM 10.3 50.54 0.046 6.91 4.59 10.54
5/20/2021 4:30:00 AM 10.23 50.414 0.046 6.93 4.75 10.56
5/20/2021 4:45:00 AM 10.16 50.288 0.046 6.92 4.63 10.57
5/20/2021 5:00:00 AM 10.1 50.18 0.046 6.89 4.5 10.59
5/20/2021 5:15:00 AM 10.04 50.072 0.046 6.93 5.08 10.61
5/20/2021 5:30:00 AM 9.99 49.982 0.046 6.83 4.79 10.62
5/20/2021 5:45:00 AM 9.94 49.892 0.046 6.93 4.61 10.64
5/20/2021 6:00:00 AM 9.88 49.784 0.046 6.91 4.73 10.67
5/20/2021 6:15:00 AM 9.83 49.694 0.046 6.87 4.41 10.7
5/20/2021 6:30:00 AM 9.79 49.622 0.046 6.94 4.46 10.74
5/20/2021 6:45:00 AM 9.76 49.568 0.046 6.92 4.42 10.78
5/20/2021 7:00:00 AM 9.75 49.55 0.046 6.86 4.94 10.82
5/20/2021 7:15:00 AM 9.75 49.55 0.046 6.95 4.37 10.85
5/20/2021 7:30:00 AM 9.75 49.55 0.046 6.95 4.31 10.89
5/20/2021 7:45:00 AM 9.75 49.55 0.046 6.96 4.1 10.91
5/20/2021 8:00:00 AM 9.76 49.568 0.046 6.98 4.4 10.94
5/20/2021 8:15:00 AM 9.82 49.676 0.046 7.01 5.06 10.99
5/20/2021 8:30:00 AM 9.91 49.838 0.046 6.95 4.39 11.02
5/20/2021 8:45:00 AM 10.01 50.018 0.046 7 4.66 11.01
5/20/2021 9:00:00 AM 10.15 50.27 0.046 7.04 4.48 11.02
5/20/2021 9:15:00 AM 10.34 50.612 0.045 7.06 4.27 11.05
5/20/2021 9:30:00 AM 10.44 50.792 0.045 7.06 4.19 11.04
5/20/2021 9:45:00 AM 10.54 50.972 0.045 7.07 4.34 11.03
5/20/2021 10:00:00 AM 10.66 51.188 0.045 7.09 4.05 11.01
5/20/2021 10:15:00 AM 10.91 51.638 0.045 7.1 4.75 10.99
5/20/2021 10:30:00 AM 11.21 52.178 0.045 7.12 4.35 10.96
5/20/2021 10:45:00 AM 11.46 52.628 0.045 7.09 4.44 10.92
5/20/2021 11:00:00 AM 11.62 52.916 0.045 7.06 4.32 10.87
5/20/2021 11:15:00 AM 11.74 53.132 0.045 7.13 4.5 10.83
5/20/2021 11:30:00 AM 12.03 53.654 0.045 7.11 4.44 10.79
5/20/2021 11:45:00 AM 12.35 54.23 0.045 7.1 4.25 10.74
5/20/2021 12:00:00 PM 12.61 54.698 0.045 7.14 4.26 10.68
5/20/2021 12:15:00 PM 12.9 55.22 0.045 7.11 4.33 10.62
5/20/2021 12:30:00 PM 13.19 55.742 0.045 7.08 4.12 10.55
5/20/2021 12:45:00 PM 13.48 56.264 0.045 7.14 4.12 10.49
5/20/2021 1:00:00 PM 13.74 56.732 0.045 7.1 4.42 10.43
5/20/2021 1:15:00 PM 14.02 57.236 0.045 7.16 4.39 10.36
5/20/2021 1:30:00 PM 14.3 57.74 0.045 7.11 4.36 10.3
5/20/2021 1:45:00 PM 14.55 58.19 0.045 7.14 4.11 10.23
5/20/2021 2:00:00 PM 14.8 58.64 0.045 7.17 3.97 10.17
5/20/2021 2:15:00 PM 15.07 59.126 0.045 7.16 4.21 10.11
5/20/2021 2:30:00 PM 15.29 59.522 0.045 7.16 4.08 10.04
5/20/2021 2:45:00 PM 15.47 59.846 0.045 7.15 4.58 10
5/20/2021 3:00:00 PM 15.67 60.206 0.045 7.12 5.13 9.96
5/20/2021 3:15:00 PM 15.82 60.476 0.045 7.14 4.78 9.9
5/20/2021 3:30:00 PM 15.97 60.746 0.045 7.14 4.29 9.86
5/20/2021 3:45:00 PM 15.98 60.764 0.045 7.14 4.49 9.8
5/20/2021 4:00:00 PM 15.94 60.692 0.045 7.14 4.47 9.79
5/20/2021 4:15:00 PM 15.97 60.746 0.045 7.15 4.56 9.76
5/20/2021 4:30:00 PM 15.98 60.764 0.045 7.13 4.15 9.74
5/20/2021 4:45:00 PM 16 60.8 0.045 7.14 4.23 9.73
5/20/2021 5:00:00 PM 15.97 60.746 0.045 7.12 4.87 9.71
5/20/2021 5:15:00 PM 16 60.8 0.045 7.12 4.42 9.69
5/20/2021 5:30:00 PM 15.96 60.728 0.045 7.12 4.22 9.67
5/20/2021 5:45:00 PM 15.89 60.602 0.045 7.12 4.41 9.66
5/20/2021 6:00:00 PM 15.78 60.404 0.045 7.09 4.27 9.62
5/20/2021 6:15:00 PM 15.65 60.17 0.045 7.09 4.57 9.63
5/20/2021 6:30:00 PM 15.53 59.954 0.045 7.08 4.5 9.61
5/20/2021 6:45:00 PM 15.42 59.756 0.045 7.06 4.64 9.6
5/20/2021 7:00:00 PM 15.32 59.576 0.046 7.05 4.89 9.58
5/20/2021 7:15:00 PM 15.22 59.396 0.046 7.04 4.52 9.57
5/20/2021 7:30:00 PM 15.08 59.144 0.046 6.99 4.32 9.55
5/20/2021 7:45:00 PM 14.97 58.946 0.046 7.01 4.82 9.55
5/20/2021 8:00:00 PM 14.85 58.73 0.046 7 4.08 9.55
5/20/2021 8:15:00 PM 14.73 58.514 0.046 6.98 4.25 9.55
5/20/2021 8:30:00 PM 14.59 58.262 0.046 6.96 4.38 9.53
5/20/2021 8:45:00 PM 14.44 57.992 0.046 6.96 4.62 9.54
5/20/2021 9:00:00 PM 14.3 57.74 0.046 6.95 4.54 9.57
5/20/2021 9:15:00 PM 14.15 57.47 0.046 6.9 4.64 9.58
5/20/2021 9:30:00 PM 14 57.2 0.047 6.94 4.89 9.61
5/20/2021 9:45:00 PM 13.87 56.966 0.047 6.92 4.52 9.63
5/20/2021 10:00:00 PM 13.73 56.714 0.047 6.94 4.96 9.67
5/20/2021 10:15:00 PM 13.59 56.462 0.047 6.93 4.56 9.7
5/20/2021 10:30:00 PM 13.46 56.228 0.047 6.91 4.81 9.73
5/20/2021 10:45:00 PM 13.33 55.994 0.047 6.91 4.62 9.76
5/20/2021 11:00:00 PM 13.19 55.742 0.047 6.93 4.61 9.79
5/20/2021 11:15:00 PM 13.06 55.508 0.047 6.94 4.75 9.83
5/20/2021 11:30:00 PM 12.93 55.274 0.047 6.92 4.64 9.86
5/20/2021 11:45:00 PM 12.8 55.04 0.047 6.92 4.4 9.89
5/21/2021 12:00:00 AM 12.67 54.806 0.047 6.88 4.36 9.92
5/21/2021 12:15:00 AM 12.54 54.572 0.047 6.91 4.24 9.96
5/21/2021 12:30:00 AM 12.42 54.356 0.047 6.92 4.74 9.99
5/21/2021 12:45:00 AM 12.29 54.122 0.047 6.92 4.55 10.02
5/21/2021 1:00:00 AM 12.18 53.924 0.047 6.9 4.4 10.05
5/21/2021 1:15:00 AM 12.06 53.708 0.047 6.89 4.7 10.08
5/21/2021 1:30:00 AM 11.95 53.51 0.047 6.9 4.54 10.11
5/21/2021 1:45:00 AM 11.85 53.33 0.047 6.92 4.53 10.14
5/21/2021 2:00:00 AM 11.74 53.132 0.047 6.92 5.27 10.17
5/21/2021 2:15:00 AM 11.64 52.952 0.047 6.94 4.39 10.19
5/21/2021 2:30:00 AM 11.55 52.79 0.047 6.9 4.32 10.22
5/21/2021 2:45:00 AM 11.46 52.628 0.047 6.94 4.73 10.24
5/21/2021 3:00:00 AM 11.37 52.466 0.047 6.94 4.6 10.26
5/21/2021 3:15:00 AM 11.29 52.322 0.047 6.92 4.32 10.28
5/21/2021 3:30:00 AM 11.2 52.16 0.047 6.89 4.45 10.31
5/21/2021 3:45:00 AM 11.12 52.016 0.047 6.91 4.51 10.33
5/21/2021 4:00:00 AM 11.04 51.872 0.047 6.94 4.41 10.36
5/21/2021 4:15:00 AM 10.97 51.746 0.047 6.86 4.85 10.37
5/21/2021 4:30:00 AM 10.9 51.62 0.047 6.92 4.47 10.39
5/21/2021 4:45:00 AM 10.82 51.476 0.047 6.92 4.45 10.4
5/21/2021 5:00:00 AM 10.75 51.35 0.047 6.93 4.7 10.43
5/21/2021 5:15:00 AM 10.68 51.224 0.047 6.91 4.6 10.45
5/21/2021 5:30:00 AM 10.62 51.116 0.047 6.91 4.56 10.47
5/21/2021 5:45:00 AM 10.55 50.99 0.047 6.93 4.53 10.49
5/21/2021 6:00:00 AM 10.49 50.882 0.047 6.88 4.62 10.51
5/21/2021 6:15:00 AM 10.44 50.792 0.047 6.93 4.68 10.55
5/21/2021 6:30:00 AM 10.39 50.702 0.047 6.92 5.19 10.58
5/21/2021 6:45:00 AM 10.35 50.63 0.047 6.89 4.37 10.61
5/21/2021 7:00:00 AM 10.32 50.576 0.047 6.93 4.89 10.65
5/21/2021 7:15:00 AM 10.3 50.54 0.047 6.96 4.46 10.68
5/21/2021 7:30:00 AM 10.31 50.558 0.047 6.94 4.37 10.72
5/21/2021 7:45:00 AM 10.34 50.612 0.046 6.96 4.35 10.76
5/21/2021 8:00:00 AM 10.41 50.738 0.046 6.98 4.58 10.79
5/21/2021 8:15:00 AM 10.5 50.9 0.046 7 4.38 10.82
5/21/2021 8:30:00 AM 10.61 51.098 0.046 7 4.16 10.83
5/21/2021 8:45:00 AM 10.74 51.332 0.046 7.03 4.49 10.84
5/21/2021 9:00:00 AM 10.9 51.62 0.046 7.03 4.34 10.84
5/21/2021 9:15:00 AM 11.08 51.944 0.046 7.04 5.69 10.84
5/21/2021 9:30:00 AM 11.28 52.304 0.046 7.07 4.27 10.82
5/21/2021 9:45:00 AM 11.49 52.682 0.046 7.09 4.18 10.8
5/21/2021 10:00:00 AM 11.73 53.114 0.046 7.09 4.13 10.78
5/21/2021 10:15:00 AM 11.97 53.546 0.046 7.06 4.2 10.74
5/21/2021 10:30:00 AM 12.22 53.996 0.046 7.11 4.89 10.7
5/21/2021 10:45:00 AM 12.48 54.464 0.046 7.13 4.51 10.66
5/21/2021 11:00:00 AM 12.76 54.968 0.046 7.13 4.28 10.6
5/21/2021 11:15:00 AM 13.03 55.454 0.046 7.12 4.39 10.56
5/21/2021 11:30:00 AM 13.3 55.94 0.046 7.14 4.08 10.5
5/21/2021 11:45:00 AM 13.58 56.444 0.046 7.12 4.44 10.46
5/21/2021 12:00:00 PM 13.86 56.948 0.046 7.15 4.39 10.39
5/21/2021 12:15:00 PM 14.13 57.434 0.046 7.15 4.17 10.34
5/21/2021 12:30:00 PM 14.37 57.866 0.045 7.17 4.37 10.29
5/21/2021 12:45:00 PM 14.61 58.298 0.045 7.14 4.3 10.23
5/21/2021 1:00:00 PM 14.87 58.766 0.045 7.16 4.26 10.19
5/21/2021 1:15:00 PM 15.12 59.216 0.045 7.12 4.09 10.12
5/21/2021 1:30:00 PM 15.38 59.684 0.045 7.15 4.53 10.07
5/21/2021 1:45:00 PM 15.62 60.116 0.045 7.15 4.43 10.02
5/21/2021 2:00:00 PM 15.81 60.458 0.045 7.16 4.35 9.96
5/21/2021 2:15:00 PM 16.08 60.944 0.045 7.17 4.49 9.91
5/21/2021 2:30:00 PM 16.32 61.376 0.045 7.18 4.5 9.85
5/21/2021 2:45:00 PM 16.54 61.772 0.045 7.17 4.49 9.8
5/21/2021 3:00:00 PM 16.73 62.114 0.045 7.19 4.41 9.75
5/21/2021 3:15:00 PM 16.81 62.258 0.045 7.17 4.29 9.69
5/21/2021 3:30:00 PM 16.97 62.546 0.045 7.18 4.6 9.66
5/21/2021 3:45:00 PM 17.07 62.726 0.045 7.14 4.37 9.62
5/21/2021 4:00:00 PM 17.07 62.726 0.045 7.16 4.71 9.56
5/21/2021 4:15:00 PM 17.06 62.708 0.045 7.13 4.66 9.56
5/21/2021 4:30:00 PM 17.15 62.87 0.045 7.16 4.6 9.54
5/21/2021 4:45:00 PM 17.17 62.906 0.045 7.12 4.62 9.51
5/21/2021 5:00:00 PM 17.06 62.708 0.046 7.14 4.27 9.47
5/21/2021 5:15:00 PM 17.02 62.636 0.046 7.13 4.24 9.48
5/21/2021 5:30:00 PM 16.99 62.582 0.046 7.12 4.28 9.46
5/21/2021 5:45:00 PM 16.89 62.402 0.046 7.13 4.52 9.44
5/21/2021 6:00:00 PM 16.72 62.096 0.046 7.08 4.42 9.37
5/21/2021 6:15:00 PM 16.53 61.754 0.046 7.07 4.34 9.34
5/21/2021 6:30:00 PM 16.4 61.52 0.046 7.06 4.74 9.38
5/21/2021 6:45:00 PM 16.28 61.304 0.046 7.07 4.85 9.41
5/21/2021 7:00:00 PM 16.12 61.016 0.046 7.06 4.59 9.38
5/21/2021 7:15:00 PM 15.93 60.674 0.047 7 5.08 9.36
5/21/2021 7:30:00 PM 15.76 60.368 0.047 7.02 4.46 9.37
5/21/2021 7:45:00 PM 15.62 60.116 0.047 7.01 4.67 9.37
5/21/2021 8:00:00 PM 15.48 59.864 0.047 6.98 4.45 9.37
5/21/2021 8:15:00 PM 15.33 59.594 0.047 6.95 4.82 9.38
5/21/2021 8:30:00 PM 15.18 59.324 0.047 6.97 4.35 9.38
5/21/2021 8:45:00 PM 15.03 59.054 0.047 6.97 4.63 9.4
5/21/2021 9:00:00 PM 14.89 58.802 0.047 6.95 4.68 9.41
5/21/2021 9:15:00 PM 14.75 58.55 0.047 6.94 4.57 9.43
5/21/2021 9:30:00 PM 14.62 58.316 0.047 6.93 4.55 9.46
5/21/2021 9:45:00 PM 14.48 58.064 0.048 6.92 4.85 9.48
5/21/2021 10:00:00 PM 14.35 57.83 0.048 6.93 4.69 9.52
5/21/2021 10:15:00 PM 14.23 57.614 0.048 6.93 4.7 9.54
5/21/2021 10:30:00 PM 14.1 57.38 0.048 6.93 4.84 9.57
5/21/2021 10:45:00 PM 13.98 57.164 0.048 6.93 5.37 9.59
5/21/2021 11:00:00 PM 13.86 56.948 0.048 6.93 5.47 9.62
5/21/2021 11:15:00 PM 13.73 56.714 0.048 6.91 5.23 9.65
5/21/2021 11:30:00 PM 13.61 56.498 0.048 6.94 5.48 9.68
5/21/2021 11:45:00 PM 13.49 56.282 0.048 6.95 5.35 9.71
5/22/2021 12:00:00 AM 13.37 56.066 0.048 6.93 5.49 9.74
5/22/2021 12:15:00 AM 13.26 55.868 0.048 6.94 4.78 9.77
5/22/2021 12:30:00 AM 13.14 55.652 0.048 6.91 5.52 9.8
5/22/2021 12:45:00 AM 13.02 55.436 0.048 6.92 4.93 9.83
5/22/2021 1:00:00 AM 12.91 55.238 0.048 6.94 4.76 9.85
5/22/2021 1:15:00 AM 12.81 55.058 0.048 6.94 4.94 9.88
5/22/2021 1:30:00 AM 12.71 54.878 0.048 6.94 5.24 9.89
5/22/2021 1:45:00 AM 12.6 54.68 0.048 6.93 4.87 9.92
5/22/2021 2:00:00 AM 12.5 54.5 0.048 6.94 4.29 9.95
5/22/2021 2:15:00 AM 12.41 54.338 0.048 6.92 4.82 9.98
5/22/2021 2:30:00 AM 12.31 54.158 0.048 6.93 5.1 10
5/22/2021 2:45:00 AM 12.22 53.996 0.048 6.93 4.92 10.02
5/22/2021 3:00:00 AM 12.13 53.834 0.048 6.93 4.94 10.04
5/22/2021 3:15:00 AM 12.05 53.69 0.048 6.94 4.94 10.06
5/22/2021 3:30:00 AM 11.96 53.528 0.048 6.93 4.99 10.07
5/22/2021 3:45:00 AM 11.88 53.384 0.048 6.93 5.06 10.1
5/22/2021 4:00:00 AM 11.81 53.258 0.047 6.93 4.95 10.12
5/22/2021 4:15:00 AM 11.72 53.096 0.048 6.93 4.66 10.14
5/22/2021 4:30:00 AM 11.65 52.97 0.048 6.9 4.55 10.16
5/22/2021 4:45:00 AM 11.57 52.826 0.048 6.9 4.9 10.18
5/22/2021 5:00:00 AM 11.5 52.7 0.048 6.92 4.82 10.19
5/22/2021 5:15:00 AM 11.43 52.574 0.048 6.93 5.01 10.21
5/22/2021 5:30:00 AM 11.36 52.448 0.048 6.94 4.92 10.23
5/22/2021 5:45:00 AM 11.3 52.34 0.047 6.91 4.58 10.25
5/22/2021 6:00:00 AM 11.25 52.25 0.047 6.94 4.88 10.27
5/22/2021 6:15:00 AM 11.2 52.16 0.047 6.9 4.53 10.3
5/22/2021 6:30:00 AM 11.15 52.07 0.047 6.94 4.75 10.34
5/22/2021 6:45:00 AM 11.12 52.016 0.047 6.95 4.51 10.38
5/22/2021 7:00:00 AM 11.11 51.998 0.047 6.94 4.82 10.43
5/22/2021 7:15:00 AM 11.11 51.998 0.047 6.94 4.98 10.48
5/22/2021 7:30:00 AM 11.11 51.998 0.047 7 4.32 10.5
5/22/2021 7:45:00 AM 11.11 51.998 0.047 7.01 4.5 10.52
5/22/2021 8:00:00 AM 11.13 52.034 0.047 6.98 4.44 10.57
5/22/2021 8:15:00 AM 11.21 52.178 0.047 6.99 4.43 10.61
5/22/2021 8:30:00 AM 11.3 52.34 0.047 7.05 4.29 10.63
5/22/2021 8:45:00 AM 11.43 52.574 0.047 7.03 4.62 10.66
5/22/2021 9:00:00 AM 11.55 52.79 0.047 7.03 4.49 10.66
5/22/2021 9:15:00 AM 11.59 52.862 0.047 7.09 4.71 10.63
5/22/2021 9:30:00 AM 11.66 52.988 0.046 7.09 4.3 10.63
5/22/2021 9:45:00 AM 11.84 53.312 0.046 7.11 4.51 10.66
5/22/2021 10:00:00 AM 11.96 53.528 0.046 7.13 4.19 10.63
5/22/2021 10:15:00 AM 12.08 53.744 0.046 7.09 4.27 10.63
5/22/2021 10:30:00 AM 12.21 53.978 0.046 7.13 4.55 10.6
5/22/2021 10:45:00 AM 12.31 54.158 0.046 7.14 4.92 10.58
5/22/2021 11:00:00 AM 12.48 54.464 0.046 7.17 4.49 10.57
5/22/2021 11:15:00 AM 12.7 54.86 0.046 7.15 4.51 10.55
5/22/2021 11:30:00 AM 12.83 55.094 0.046 7.16 4.48 10.52
5/22/2021 11:45:00 AM 12.99 55.382 0.046 7.17 4.6 10.49
5/22/2021 12:00:00 PM 13.25 55.85 0.046 7.19 4.26 10.45
5/22/2021 12:15:00 PM 13.63 56.534 0.046 7.17 4.56 10.42
5/22/2021 12:30:00 PM 13.82 56.876 0.046 7.19 4.39 10.35
5/22/2021 12:45:00 PM 13.91 57.038 0.045 7.17 4.33 10.3
5/22/2021 1:00:00 PM 14.06 57.308 0.045 7.2 4.31 10.27
5/22/2021 1:15:00 PM 14.19 57.542 0.045 7.16 4.52 10.24
5/22/2021 1:30:00 PM 14.32 57.776 0.045 7.18 4.42 10.2
5/22/2021 1:45:00 PM 14.43 57.974 0.045 7.21 4.35 10.17
5/22/2021 2:00:00 PM 14.51 58.118 0.045 7.2 4.57 10.11
5/22/2021 2:15:00 PM 14.56 58.208 0.045 7.2 4.2 10.08
5/22/2021 2:30:00 PM 14.68 58.424 0.045 7.2 4.48 10.06
5/22/2021 2:45:00 PM 14.83 58.694 0.045 7.16 4.29 10.04
5/22/2021 3:00:00 PM 14.92 58.856 0.045 7.19 4.34 10
5/22/2021 3:15:00 PM 14.91 58.838 0.045 7.17 4.5 9.95
5/22/2021 3:30:00 PM 14.98 58.964 0.045 7.19 4.51 9.96
5/22/2021 3:45:00 PM 15.03 59.054 0.045 7.18 4.51 9.92
5/22/2021 4:00:00 PM 14.96 58.928 0.045 7.19 5 9.85
5/22/2021 4:15:00 PM 14.96 58.928 0.045 7.17 4.6 9.86
5/22/2021 4:30:00 PM 15.02 59.036 0.045 7.18 4.33 9.87
5/22/2021 4:45:00 PM 15.01 59.018 0.045 7.18 4.44 9.82
5/22/2021 5:00:00 PM 14.98 58.964 0.046 7.12 4.48 9.8
5/22/2021 5:15:00 PM 14.98 58.964 0.046 7.18 4.55 9.82
5/22/2021 5:30:00 PM 15.02 59.036 0.046 7.15 4.78 9.81
5/22/2021 5:45:00 PM 15.02 59.036 0.046 7.17 5.03 9.79
5/22/2021 6:00:00 PM 14.95 58.91 0.046 7.16 5.24 9.74
5/22/2021 6:15:00 PM 14.9 58.82 0.046 7.12 5.44 9.74
5/22/2021 6:30:00 PM 14.85 58.73 0.046 7.12 5.56 9.71
5/22/2021 6:45:00 PM 14.81 58.658 0.046 7.12 4.98 9.71
5/22/2021 7:00:00 PM 14.75 58.55 0.046 7.12 5.25 9.67
5/22/2021 7:15:00 PM 14.71 58.478 0.046 7.12 5.41 9.67
5/22/2021 7:30:00 PM 14.63 58.334 0.046 7.08 4.7 9.64
5/22/2021 7:45:00 PM 14.55 58.19 0.047 7.04 4.42 9.59
5/22/2021 8:00:00 PM 14.47 58.046 0.047 7.06 4.89 9.57
5/22/2021 8:15:00 PM 14.4 57.92 0.047 7.04 4.83 9.56
5/22/2021 8:30:00 PM 14.31 57.758 0.047 7 5.32 9.55
5/22/2021 8:45:00 PM 14.22 57.596 0.047 7.02 5.13 9.55
5/22/2021 9:00:00 PM 14.13 57.434 0.047 7.01 4.54 9.54
5/22/2021 9:15:00 PM 14.05 57.29 0.047 7.01 4.93 9.54
5/22/2021 9:30:00 PM 13.97 57.146 0.047 6.98 4.56 9.55
5/22/2021 9:45:00 PM 13.89 57.002 0.047 6.94 5.36 9.56
5/22/2021 10:00:00 PM 13.81 56.858 0.047 6.95 4.95 9.57
5/22/2021 10:15:00 PM 13.75 56.75 0.048 6.96 5.07 9.59
5/22/2021 10:30:00 PM 13.68 56.624 0.048 6.93 4.91 9.6
5/22/2021 10:45:00 PM 13.62 56.516 0.048 6.95 4.84 9.62
5/22/2021 11:00:00 PM 13.55 56.39 0.048 6.95 5 9.63
5/22/2021 11:15:00 PM 13.49 56.282 0.048 6.93 5.16 9.64
5/22/2021 11:30:00 PM 13.43 56.174 0.048 6.9 5.3 9.65
5/22/2021 11:45:00 PM 13.36 56.048 0.048 6.94 5.7 9.66
5/23/2021 12:00:00 AM 13.28 55.904 0.048 6.89 5.28 9.68
5/23/2021 12:15:00 AM 13.21 55.778 0.048 6.92 5.08 9.7
5/23/2021 12:30:00 AM 13.15 55.67 0.048 6.88 5.86 9.71
5/23/2021 12:45:00 AM 13.07 55.526 0.048 6.91 5.18 9.73
5/23/2021 1:00:00 AM 12.99 55.382 0.048 6.86 5.27 9.75
5/23/2021 1:15:00 AM 12.91 55.238 0.048 6.91 4.82 9.76
5/23/2021 1:30:00 AM 12.83 55.094 0.048 6.91 4.78 9.77
5/23/2021 1:45:00 AM 12.75 54.95 0.048 6.87 4.91 9.79
5/23/2021 2:00:00 AM 12.68 54.824 0.048 6.91 6.31 9.8
5/23/2021 2:15:00 AM 12.61 54.698 0.048 6.91 5.3 9.82
5/23/2021 2:30:00 AM 12.54 54.572 0.048 6.9 4.85 9.84
5/23/2021 2:45:00 AM 12.47 54.446 0.048 6.91 5.17 9.86
5/23/2021 3:00:00 AM 12.4 54.32 0.048 6.86 4.57 9.88
5/23/2021 3:15:00 AM 12.33 54.194 0.048 6.92 4.92 9.9
5/23/2021 3:30:00 AM 12.27 54.086 0.048 6.89 4.75 9.91
5/23/2021 3:45:00 AM 12.21 53.978 0.048 6.89 5.37 9.92
5/23/2021 4:00:00 AM 12.14 53.852 0.048 6.86 5.95 9.93
5/23/2021 4:15:00 AM 12.09 53.762 0.048 6.9 4.75 9.95
5/23/2021 4:30:00 AM 12.04 53.672 0.048 6.92 4.87 9.95
5/23/2021 4:45:00 AM 11.99 53.582 0.048 6.91 4.88 9.97
5/23/2021 5:00:00 AM 11.93 53.474 0.048 6.89 4.72 9.98
5/23/2021 5:15:00 AM 11.88 53.384 0.048 6.88 4.67 10
5/23/2021 5:30:00 AM 11.82 53.276 0.048 6.87 4.86 10.01
5/23/2021 5:45:00 AM 11.76 53.168 0.048 6.9 5.1 10.03
5/23/2021 6:00:00 AM 11.71 53.078 0.048 6.91 5.62 10.05
5/23/2021 6:15:00 AM 11.66 52.988 0.048 6.91 4.98 10.08
5/23/2021 6:30:00 AM 11.62 52.916 0.048 6.93 4.94 10.11
5/23/2021 6:45:00 AM 11.58 52.844 0.048 6.93 5.12 10.14
5/23/2021 7:00:00 AM 11.55 52.79 0.048 6.95 4.72 10.16
5/23/2021 7:15:00 AM 11.54 52.772 0.048 6.92 5.45 10.19
5/23/2021 7:30:00 AM 11.55 52.79 0.048 6.96 5.23 10.23
5/23/2021 7:45:00 AM 11.58 52.844 0.048 6.97 5.32 10.27
5/23/2021 8:00:00 AM 11.64 52.952 0.048 7 4.96 10.3
5/23/2021 8:15:00 AM 11.75 53.15 0.048 7.02 5.35 10.33
5/23/2021 8:30:00 AM 11.89 53.402 0.048 7.02 4.87 10.35
5/23/2021 8:45:00 AM 12.03 53.654 0.047 7.01 4.71 10.35
5/23/2021 9:00:00 AM 12.22 53.996 0.047 7.07 4.67 10.36
5/23/2021 9:15:00 AM 12.46 54.428 0.047 7.01 4.84 10.37
5/23/2021 9:30:00 AM 12.56 54.608 0.047 7.1 4.36 10.34
5/23/2021 9:45:00 AM 12.66 54.788 0.047 7.1 4.67 10.33
5/23/2021 10:00:00 AM 12.8 55.04 0.047 7.1 4.62 10.31
5/23/2021 10:15:00 AM 13.08 55.544 0.047 7.12 4.54 10.31
5/23/2021 10:30:00 AM 13.3 55.94 0.047 7.13 4.67 10.27
5/23/2021 10:45:00 AM 13.53 56.354 0.047 7.13 4.2 10.24
5/23/2021 11:00:00 AM 13.85 56.93 0.047 7.13 4.43 10.2
5/23/2021 11:15:00 AM 14.09 57.362 0.047 7.14 4.35 10.15
5/23/2021 11:30:00 AM 14.22 57.596 0.047 7.14 4.91 10.11
5/23/2021 11:45:00 AM 14.45 58.01 0.047 7.14 4.67 10.06
5/23/2021 12:00:00 PM 14.85 58.73 0.046 7.15 4.59 10.04
5/23/2021 12:15:00 PM 15.01 59.018 0.046 7.17 4.59 9.98
5/23/2021 12:30:00 PM 15.01 59.018 0.046 7.15 4.48 9.92
5/23/2021 12:45:00 PM 15.23 59.414 0.046 7.17 4.82 9.9
5/23/2021 1:00:00 PM 15.45 59.81 0.046 7.18 4.45 9.86
5/23/2021 1:15:00 PM 15.65 60.17 0.047 7.14 4.42 9.84
5/23/2021 1:30:00 PM 15.77 60.386 0.046 7.16 5.1 9.8
5/23/2021 1:45:00 PM 15.79 60.422 0.046 7.19 4.6 9.75
5/23/2021 2:00:00 PM 15.93 60.674 0.046 7.19 4.53 9.73
5/23/2021 2:15:00 PM 16.23 61.214 0.046 7.19 4.38 9.71
5/23/2021 2:30:00 PM 16.22 61.196 0.046 7.18 4.47 9.59
5/23/2021 2:45:00 PM 16.36 61.448 0.046 7.15 4.26 9.6
5/23/2021 3:00:00 PM 16.72 62.096 0.046 7.17 4.65 9.59
5/23/2021 3:15:00 PM 16.81 62.258 0.046 7.16 4.99 9.54
5/23/2021 3:30:00 PM 16.71 62.078 0.046 7.17 4.4 9.49
5/23/2021 3:45:00 PM 16.74 62.132 0.047 7.13 4.97 9.47
5/23/2021 4:00:00 PM 16.7 62.06 0.047 7.17 4.52 9.43
5/23/2021 4:15:00 PM 16.59 61.862 0.046 7.11 4.63 9.43
5/23/2021 4:30:00 PM 16.59 61.862 0.046 7.16 4.54 9.46
5/23/2021 4:45:00 PM 16.56 61.808 0.047 7.15 4.76 9.43
5/23/2021 5:00:00 PM 16.48 61.664 0.046 7.17 4.99 9.43
5/23/2021 5:15:00 PM 16.46 61.628 0.047 7.1 4.41 9.41
5/23/2021 5:30:00 PM 16.42 61.556 0.047 7.15 4.58 9.39
5/23/2021 5:45:00 PM 16.31 61.358 0.047 7.14 4.45 9.36
5/23/2021 6:00:00 PM 16.23 61.214 0.047 7.13 4.44 9.37
5/23/2021 6:15:00 PM 16.14 61.052 0.047 7.11 4.53 9.36
5/23/2021 6:30:00 PM 16.06 60.908 0.047 7.11 4.8 9.35
5/23/2021 6:45:00 PM 16 60.8 0.047 7.11 4.68 9.34
5/23/2021 7:00:00 PM 15.93 60.674 0.047 7.1 4.75 9.32
5/23/2021 7:15:00 PM 15.84 60.512 0.047 7.08 4.71 9.28
5/23/2021 7:30:00 PM 15.73 60.314 0.048 7.08 4.97 9.26
5/23/2021 7:45:00 PM 15.64 60.152 0.048 7.05 5.89 9.26
5/23/2021 8:00:00 PM 15.53 59.954 0.048 7.05 5.27 9.27
5/23/2021 8:15:00 PM 15.44 59.792 0.048 7.03 5.9 9.27
5/23/2021 8:30:00 PM 15.33 59.594 0.048 7.03 4.89 9.26
5/23/2021 8:45:00 PM 15.23 59.414 0.048 7.01 4.84 9.26
5/23/2021 9:00:00 PM 15.14 59.252 0.048 6.98 4.86 9.26
5/23/2021 9:15:00 PM 15.05 59.09 0.048 7.01 5.4 9.28
5/23/2021 9:30:00 PM 14.94 58.892 0.048 7.01 4.95 9.3
5/23/2021 9:45:00 PM 14.84 58.712 0.048 7.01 5.02 9.32
5/23/2021 10:00:00 PM 14.73 58.514 0.049 7.01 5.4 9.34
5/23/2021 10:15:00 PM 14.63 58.334 0.049 7.03 5.22 9.36
5/23/2021 10:30:00 PM 14.52 58.136 0.049 6.99 5.33 9.39
5/23/2021 10:45:00 PM 14.43 57.974 0.049 7 5.52 9.41
5/23/2021 11:00:00 PM 14.33 57.794 0.049 7 5.53 9.44
5/23/2021 11:15:00 PM 14.23 57.614 0.049 7 5.03 9.45
5/23/2021 11:30:00 PM 14.14 57.452 0.049 7 6.4 9.47
5/23/2021 11:45:00 PM 14.05 57.29 0.049 6.99 6.07 9.49
5/24/2021 12:00:00 AM 13.95 57.11 0.049 7 6.1 9.52
5/24/2021 12:15:00 AM 13.84 56.912 0.049 7.01 5.54 9.54
5/24/2021 12:30:00 AM 13.74 56.732 0.049 6.93 5.26 9.57
5/24/2021 12:45:00 AM 13.64 56.552 0.049 6.98 4.76 9.6
5/24/2021 1:00:00 AM 13.54 56.372 0.049 7.02 4.93 9.62
5/24/2021 1:15:00 AM 13.45 56.21 0.049 6.99 4.97 9.64
5/24/2021 1:30:00 AM 13.34 56.012 0.049 7 5.49 9.67
5/24/2021 1:45:00 AM 13.23 55.814 0.049 6.97 5.61 9.7
5/24/2021 2:00:00 AM 13.11 55.598 0.049 7.01 5.41 9.72
5/24/2021 2:15:00 AM 13 55.4 0.049 7 5.61 9.75
5/24/2021 2:30:00 AM 12.88 55.184 0.049 6.97 5.31 9.77
5/24/2021 2:45:00 AM 12.76 54.968 0.049 6.98 5.34 9.8
5/24/2021 3:00:00 AM 12.65 54.77 0.049 6.98 4.99 9.82
5/24/2021 3:15:00 AM 12.54 54.572 0.049 7.02 5.31 9.85
5/24/2021 3:30:00 AM 12.43 54.374 0.049 6.92 4.98 9.88
5/24/2021 3:45:00 AM 12.33 54.194 0.049 7 5.86 9.9
5/24/2021 4:00:00 AM 12.22 53.996 0.048 6.99 5.61 9.93
5/24/2021 4:15:00 AM 12.12 53.816 0.048 6.94 4.88 9.95
5/24/2021 4:30:00 AM 12.02 53.636 0.048 7 5.19 9.97
5/24/2021 4:45:00 AM 11.92 53.456 0.049 6.96 5.38 10
5/24/2021 5:00:00 AM 11.82 53.276 0.048 7 5.53 10.03
5/24/2021 5:15:00 AM 11.72 53.096 0.048 6.94 4.82 10.06
5/24/2021 5:30:00 AM 11.63 52.934 0.049 6.98 5.36 10.08
5/24/2021 5:45:00 AM 11.55 52.79 0.048 6.99 4.96 10.1
5/24/2021 6:00:00 AM 11.48 52.664 0.048 6.97 5.52 10.14
5/24/2021 6:15:00 AM 11.42 52.556 0.048 6.93 5.36 10.17
5/24/2021 6:30:00 AM 11.37 52.466 0.048 7 5.47 10.21
5/24/2021 6:45:00 AM 11.32 52.376 0.048 6.95 5.23 10.25
5/24/2021 7:00:00 AM 11.28 52.304 0.048 7.03 6.69 10.3
5/24/2021 7:15:00 AM 11.25 52.25 0.048 7.05 5.02 10.35
5/24/2021 7:30:00 AM 11.23 52.214 0.048 7.01 5.13 10.39
5/24/2021 7:45:00 AM 11.21 52.178 0.048 7 5.15 10.43
5/24/2021 8:00:00 AM 11.21 52.178 0.048 7.06 4.96 10.47
5/24/2021 8:15:00 AM 11.26 52.268 0.048 7.04 4.69 10.51
5/24/2021 8:30:00 AM 11.35 52.43 0.048 7.07 4.64 10.53
5/24/2021 8:45:00 AM 11.45 52.61 0.048 7.05 4.61 10.56
5/24/2021 9:00:00 AM 11.59 52.862 0.048 7.13 4.51 10.57
5/24/2021 9:15:00 AM 11.69 53.042 0.047 7.12 4.63 10.57
5/24/2021 9:30:00 AM 11.83 53.294 0.047 7.12 4.51 10.57
5/24/2021 9:45:00 AM 11.97 53.546 0.047 7.14 4.74 10.56
5/24/2021 10:00:00 AM 12.08 53.744 0.047 7.15 4.54 10.54
5/24/2021 10:15:00 AM 12.23 54.014 0.047 7.14 4.26 10.52
5/24/2021 10:30:00 AM 12.5 54.5 0.047 7.15 5.33 10.52
5/24/2021 10:45:00 AM 12.68 54.824 0.047 7.15 4.52 10.49
5/24/2021 11:00:00 AM 12.87 55.166 0.047 7.18 4.61 10.45
5/24/2021 11:15:00 AM 13.06 55.508 0.047 7.16 4.92 10.4
5/24/2021 11:30:00 AM 13.3 55.94 0.047 7.14 5.01 10.37
5/24/2021 11:45:00 AM 13.56 56.408 0.047 7.19 4.85 10.34
5/24/2021 12:00:00 PM 13.84 56.912 0.047 7.18 4.86 10.28
5/24/2021 12:15:00 PM 14.06 57.308 0.047 7.21 4.46 10.23
5/24/2021 12:30:00 PM 14.36 57.848 0.047 7.19 4.53 10.19
5/24/2021 12:45:00 PM 14.31 57.758 0.047 7.21 4.64 10.16
5/24/2021 1:00:00 PM 14.29 57.722 0.047 7.2 4.66 10.14
5/24/2021 1:15:00 PM 14.43 57.974 0.047 7.22 4.67 10.12
5/24/2021 1:30:00 PM 14.69 58.442 0.047 7.2 4.88 10.08
5/24/2021 1:45:00 PM 14.72 58.496 0.047 7.21 4.96 10.04
5/24/2021 2:00:00 PM 14.85 58.73 0.047 7.22 4.42 10.04
5/24/2021 2:15:00 PM 15 59 0.047 7.23 4.74 10.01
5/24/2021 2:30:00 PM 14.97 58.946 0.046 7.23 4.62 9.95
5/24/2021 2:45:00 PM 14.87 58.766 0.047 7.22 4.6 9.95
5/24/2021 3:00:00 PM 14.93 58.874 0.047 7.18 4.92 9.95
5/24/2021 3:15:00 PM 14.91 58.838 0.047 7.22 4.35 9.9
5/24/2021 3:30:00 PM 15.03 59.054 0.047 7.22 4.98 9.89
5/24/2021 3:45:00 PM 15.06 59.108 0.047 7.21 4.97 9.84
5/24/2021 4:00:00 PM 15.09 59.162 0.047 7.18 4.77 9.84
5/24/2021 4:15:00 PM 15.37 59.666 0.047 7.22 4.69 9.81
5/24/2021 4:30:00 PM 15.51 59.918 0.047 7.15 5.72 9.76
5/24/2021 4:45:00 PM 15.49 59.882 0.047 7.2 5.13 9.73
5/24/2021 5:00:00 PM 15.44 59.792 0.047 7.15 5.06 9.7
5/24/2021 5:15:00 PM 15.34 59.612 0.047 7.18 4.86 9.68
5/24/2021 5:30:00 PM 15.17 59.306 0.047 7.16 5.4 9.66
5/24/2021 5:45:00 PM 15.01 59.018 0.047 7.16 4.91 9.68
5/24/2021 6:00:00 PM 14.88 58.784 0.047 7.17 4.92 9.71
5/24/2021 6:15:00 PM 14.74 58.532 0.047 7.15 5 9.7
5/24/2021 6:30:00 PM 14.6 58.28 0.047 7.12 5.19 9.72
5/24/2021 6:45:00 PM 14.45 58.01 0.047 7.13 4.68 9.72
5/24/2021 7:00:00 PM 14.36 57.848 0.047 7.11 5.36 9.72
5/24/2021 7:15:00 PM 14.26 57.668 0.048 7.12 4.61 9.73
5/24/2021 7:30:00 PM 14.18 57.524 0.048 7.09 4.66 9.71
5/24/2021 7:45:00 PM 14.09 57.362 0.048 7.04 4.65 9.68
5/24/2021 8:00:00 PM 14.01 57.218 0.048 7.09 4.97 9.65
5/24/2021 8:15:00 PM 13.92 57.056 0.048 7.08 4.78 9.64
5/24/2021 8:30:00 PM 13.84 56.912 0.048 7.03 4.9 9.63
5/24/2021 8:45:00 PM 13.76 56.768 0.048 7.04 4.6 9.63
5/24/2021 9:00:00 PM 13.69 56.642 0.048 7.01 4.98 9.64
5/24/2021 9:15:00 PM 13.62 56.516 0.048 7.06 5 9.64
5/24/2021 9:30:00 PM 13.54 56.372 0.049 7.03 5.04 9.65
5/24/2021 9:45:00 PM 13.47 56.246 0.049 7.04 4.97 9.66
5/24/2021 10:00:00 PM 13.4 56.12 0.049 6.99 5.07 9.67
5/24/2021 10:15:00 PM 13.32 55.976 0.049 7.04 5.22 9.69
5/24/2021 10:30:00 PM 13.25 55.85 0.049 7.02 5.19 9.7
5/24/2021 10:45:00 PM 13.17 55.706 0.049 7.04 4.83 9.72
5/24/2021 11:00:00 PM 13.1 55.58 0.049 7.03 4.92 9.74
5/24/2021 11:15:00 PM 13.03 55.454 0.049 7.02 4.77 9.76
5/24/2021 11:30:00 PM 12.98 55.364 0.049 7.02 4.96 9.77
5/24/2021 11:45:00 PM 12.92 55.256 0.049 7 4.72 9.78
5/25/2021 12:00:00 AM 12.87 55.166 0.049 7.02 4.93 9.79
5/25/2021 12:15:00 AM 12.81 55.058 0.049 7.03 5.25 9.81
5/25/2021 12:30:00 AM 12.76 54.968 0.049 6.98 4.77 9.82
5/25/2021 12:45:00 AM 12.71 54.878 0.049 7.01 5.5 9.83
5/25/2021 1:00:00 AM 12.66 54.788 0.049 7.02 5.28 9.84
5/25/2021 1:15:00 AM 12.61 54.698 0.049 7 4.73 9.86
5/25/2021 1:30:00 AM 12.56 54.608 0.049 7.02 4.62 9.87
5/25/2021 1:45:00 AM 12.51 54.518 0.049 7.03 4.75 9.88
5/25/2021 2:00:00 AM 12.48 54.464 0.049 7.01 5.36 9.89
5/25/2021 2:15:00 AM 12.43 54.374 0.049 7.02 4.74 9.9
5/25/2021 2:30:00 AM 12.39 54.302 0.049 6.99 5.36 9.92
5/25/2021 2:45:00 AM 12.35 54.23 0.049 7 5.17 9.92
5/25/2021 3:00:00 AM 12.31 54.158 0.049 7.01 5.07 9.93
5/25/2021 3:15:00 AM 12.27 54.086 0.049 7 5.31 9.94
5/25/2021 3:30:00 AM 12.23 54.014 0.049 7 5.54 9.95
5/25/2021 3:45:00 AM 12.19 53.942 0.049 6.99 4.67 9.96
5/25/2021 4:00:00 AM 12.16 53.888 0.049 6.95 5.01 9.96
5/25/2021 4:15:00 AM 12.12 53.816 0.049 6.99 5 9.97
5/25/2021 4:30:00 AM 12.09 53.762 0.049 6.95 4.97 9.98
5/25/2021 4:45:00 AM 12.06 53.708 0.049 7 4.79 9.98
5/25/2021 5:00:00 AM 12.03 53.654 0.049 6.96 5.05 9.99
5/25/2021 5:15:00 AM 12 53.6 0.049 7.02 4.96 10
5/25/2021 5:30:00 AM 11.98 53.564 0.049 7.01 5.08 10.01
5/25/2021 5:45:00 AM 11.95 53.51 0.049 7.02 5.4 10.02
5/25/2021 6:00:00 AM 11.92 53.456 0.049 7.01 5.26 10.03
5/25/2021 6:15:00 AM 11.91 53.438 0.049 7 6.38 10.05
5/25/2021 6:30:00 AM 11.89 53.402 0.049 6.98 5.35 10.07
5/25/2021 6:45:00 AM 11.88 53.384 0.049 7.02 5.2 10.1
5/25/2021 7:00:00 AM 11.87 53.366 0.049 7.02 5.6 10.11
5/25/2021 7:15:00 AM 11.86 53.348 0.049 7.03 5.34 10.14
5/25/2021 7:30:00 AM 11.85 53.33 0.049 7 5.74 10.15
5/25/2021 7:45:00 AM 11.85 53.33 0.049 7.04 5.32 10.18
5/25/2021 8:00:00 AM 11.86 53.348 0.049 7.06 4.92 10.21
5/25/2021 8:15:00 AM 11.88 53.384 0.049 7.05 7.38 10.25
5/25/2021 8:30:00 AM 11.91 53.438 0.048 7.02 5.31 10.27
5/25/2021 8:45:00 AM 11.93 53.474 0.049 7.08 5 10.3
5/25/2021 9:00:00 AM 11.97 53.546 0.048 7.04 4.99 10.32
5/25/2021 9:15:00 AM 12.03 53.654 0.048 7.1 4.84 10.36
5/25/2021 9:30:00 AM 12.09 53.762 0.048 7.11 5.18 10.38
5/25/2021 9:45:00 AM 12.16 53.888 0.048 7.09 4.81 10.39
5/25/2021 10:00:00 AM 12.25 54.05 0.048 7.14 4.68 10.41
5/25/2021 10:15:00 AM 12.35 54.23 0.048 7.1 4.62 10.41
5/25/2021 10:30:00 AM 12.44 54.392 0.048 7.16 4.48 10.4
5/25/2021 10:45:00 AM 12.52 54.536 0.048 7.15 4.68 10.39
5/25/2021 11:00:00 AM 12.65 54.77 0.048 7.18 4.98 10.4
5/25/2021 11:15:00 AM 12.81 55.058 0.048 7.18 4.35 10.4
5/25/2021 11:30:00 AM 12.98 55.364 0.048 7.19 4.28 10.38
5/25/2021 11:45:00 AM 13.26 55.868 0.048 7.2 4.44 10.36
5/25/2021 12:00:00 PM 13.49 56.282 0.048 7.16 4.71 10.31
5/25/2021 12:15:00 PM 13.74 56.732 0.048 7.21 4.57 10.27
5/25/2021 12:30:00 PM 14.18 57.524 0.047 7.19 5.02 10.21
5/25/2021 12:45:00 PM 14.62 58.316 0.047 7.21 4.71 10.14
5/25/2021 1:00:00 PM 14.89 58.802 0.047 7.2 4.67 10.09
5/25/2021 1:15:00 PM 15.24 59.432 0.047 7.22 4.35 10.03
5/25/2021 1:30:00 PM 15.59 60.062 0.047 7.17 4.41 9.97
5/25/2021 1:45:00 PM 15.95 60.71 0.047 7.23 4.46 9.9
5/25/2021 2:00:00 PM 16.21 61.178 0.047 7.19 4.45 9.83
5/25/2021 2:15:00 PM 16.45 61.61 0.047 7.22 5.21 9.75
5/25/2021 2:30:00 PM 16.7 62.06 0.047 7.23 4.99 9.69
5/25/2021 2:45:00 PM 16.88 62.384 0.047 7.22 4.84 9.63
5/25/2021 3:00:00 PM 17.04 62.672 0.047 7.22 4.56 9.57
5/25/2021 3:15:00 PM 17.22 62.996 0.047 7.21 5.39 9.54
5/25/2021 3:30:00 PM 17.35 63.23 0.047 7.19 4.89 9.48
5/25/2021 3:45:00 PM 17.34 63.212 0.047 7.21 5.82 9.43
5/25/2021 4:00:00 PM 17.13 62.834 0.047 7.19 4.65 9.36
5/25/2021 4:15:00 PM 17.22 62.996 0.047 7.2 5.35 9.39
5/25/2021 4:30:00 PM 17.34 63.212 0.047 7.18 5.49 9.38
5/25/2021 4:45:00 PM 17.42 63.356 0.047 7.2 4.5 9.35
5/25/2021 5:00:00 PM 17.36 63.248 0.047 7.18 5.31 9.31
5/25/2021 5:15:00 PM 17.23 63.014 0.047 7.19 4.68 9.3
5/25/2021 5:30:00 PM 17.18 62.924 0.047 7.16 5.13 9.3
5/25/2021 5:45:00 PM 17.12 62.816 0.047 7.19 5.24 9.27
5/25/2021 6:00:00 PM 17.05 62.69 0.047 7.18 4.66 9.27
5/25/2021 6:15:00 PM 16.92 62.456 0.048 7.16 4.76 9.26
5/25/2021 6:30:00 PM 16.82 62.276 0.048 7.1 4.65 9.23
5/25/2021 6:45:00 PM 16.67 62.006 0.048 7.13 4.98 9.22
5/25/2021 7:00:00 PM 16.55 61.79 0.048 7.1 4.79 9.22
5/25/2021 7:15:00 PM 16.47 61.646 0.048 7.11 5.13 9.21
5/25/2021 7:30:00 PM 16.38 61.484 0.048 7.08 4.98 9.21
5/25/2021 7:45:00 PM 16.25 61.25 0.048 7.07 5.07 9.21
5/25/2021 8:00:00 PM 16.11 60.998 0.048 7.05 4.86 9.17
5/25/2021 8:15:00 PM 15.99 60.782 0.048 7.05 5.21 9.14
5/25/2021 8:30:00 PM 15.87 60.566 0.049 6.98 5.05 9.13
5/25/2021 8:45:00 PM 15.74 60.332 0.049 7.01 4.88 9.14
5/25/2021 9:00:00 PM 15.62 60.116 0.049 6.96 4.81 9.14
5/25/2021 9:15:00 PM 15.5 59.9 0.049 7 4.78 9.16
5/25/2021 9:30:00 PM 15.38 59.684 0.049 6.99 4.81 9.17
5/25/2021 9:45:00 PM 15.27 59.486 0.049 6.97 5.24 9.18
5/25/2021 10:00:00 PM 15.16 59.288 0.049 6.9 5.23 9.2
5/25/2021 10:15:00 PM 15.06 59.108 0.049 6.96 5.3 9.22
5/25/2021 10:30:00 PM 14.96 58.928 0.049 6.97 5.14 9.23
5/25/2021 10:45:00 PM 14.86 58.748 0.05 6.95 5.56 9.25
5/25/2021 11:00:00 PM 14.74 58.532 0.05 6.9 4.95 9.28
5/25/2021 11:15:00 PM 14.64 58.352 0.05 6.96 5.35 9.3
5/25/2021 11:30:00 PM 14.54 58.172 0.05 6.91 5.15 9.32
5/25/2021 11:45:00 PM 14.44 57.992 0.05 6.95 5.31 9.34
5/26/2021 12:00:00 AM 14.34 57.812 0.05 6.96 4.78 9.37
5/26/2021 12:15:00 AM 14.24 57.632 0.05 6.96 5.05 9.39
5/26/2021 12:30:00 AM 14.15 57.47 0.05 6.91 5.06 9.41
5/26/2021 12:45:00 AM 14.05 57.29 0.05 6.95 5.08 9.44
5/26/2021 1:00:00 AM 13.96 57.128 0.05 6.91 5.28 9.45
5/26/2021 1:15:00 AM 13.88 56.984 0.05 6.94 5.31 9.47
5/26/2021 1:30:00 AM 13.78 56.804 0.05 6.93 4.95 9.49
5/26/2021 1:45:00 AM 13.69 56.642 0.05 6.95 4.77 9.52
5/26/2021 2:00:00 AM 13.61 56.498 0.05 6.93 8.42 9.54
5/26/2021 2:15:00 AM 13.53 56.354 0.05 6.95 5.11 9.56
5/26/2021 2:30:00 AM 13.45 56.21 0.05 6.94 4.93 9.58
5/26/2021 2:45:00 AM 13.38 56.084 0.05 6.95 5.03 9.6
5/26/2021 3:00:00 AM 13.31 55.958 0.05 6.94 5.04 9.61
5/26/2021 3:15:00 AM 13.23 55.814 0.05 6.95 5.25 9.62
5/26/2021 3:30:00 AM 13.16 55.688 0.05 6.95 5.2 9.64
5/26/2021 3:45:00 AM 13.09 55.562 0.05 6.95 5.11 9.66
5/26/2021 4:00:00 AM 13.03 55.454 0.05 6.95 5.65 9.69
5/26/2021 4:15:00 AM 12.97 55.346 0.05 6.95 7.62 9.7
5/26/2021 4:30:00 AM 12.92 55.256 0.05 6.94 5.08 9.71
5/26/2021 4:45:00 AM 12.85 55.13 0.05 6.92 5.43 9.72
5/26/2021 5:00:00 AM 12.79 55.022 0.05 6.91 5.06 9.73
5/26/2021 5:15:00 AM 12.72 54.896 0.05 6.93 5.07 9.75
5/26/2021 5:30:00 AM 12.67 54.806 0.05 6.9 5.56 9.77
5/26/2021 5:45:00 AM 12.63 54.734 0.05 6.88 5.04 9.78
5/26/2021 6:00:00 AM 12.59 54.662 0.05 6.89 5.5 9.79
5/26/2021 6:15:00 AM 12.56 54.608 0.05 6.93 5 9.81
5/26/2021 6:30:00 AM 12.54 54.572 0.05 6.94 5.49 9.84
5/26/2021 6:45:00 AM 12.52 54.536 0.05 6.97 6.41 9.87
5/26/2021 7:00:00 AM 12.51 54.518 0.05 6.95 5.46 9.9
5/26/2021 7:15:00 AM 12.51 54.518 0.05 6.98 5.23 9.95
5/26/2021 7:30:00 AM 12.5 54.5 0.05 6.96 4.85 9.98
5/26/2021 7:45:00 AM 12.52 54.536 0.05 7 4.65 10.03
5/26/2021 8:00:00 AM 12.55 54.59 0.05 6.99 4.82 10.07
5/26/2021 8:15:00 AM 12.64 54.752 0.049 7.03 4.55 10.12
5/26/2021 8:30:00 AM 12.72 54.896 0.049 7.02 4.63 10.14
5/26/2021 8:45:00 AM 12.82 55.076 0.049 7.06 4.85 10.15
5/26/2021 9:00:00 AM 12.93 55.274 0.049 7.08 4.97 10.17
5/26/2021 9:15:00 AM 13.01 55.418 0.049 7.1 4.58 10.15
5/26/2021 9:30:00 AM 13.21 55.778 0.049 7.11 4.49 10.15
5/26/2021 9:45:00 AM 13.43 56.174 0.049 7.1 4.77 10.15
5/26/2021 10:00:00 AM 13.67 56.606 0.049 7.11 5.14 10.13
5/26/2021 10:15:00 AM 13.91 57.038 0.049 7.15 4.9 10.09
5/26/2021 10:30:00 AM 14.16 57.488 0.049 7.16 4.84 10.07
5/26/2021 10:45:00 AM 14.44 57.992 0.049 7.16 4.87 10.02
5/26/2021 11:00:00 AM 14.73 58.514 0.048 7.14 4.67 9.97
5/26/2021 11:15:00 AM 15.02 59.036 0.048 7.16 4.58 9.93
5/26/2021 11:30:00 AM 15.29 59.522 0.048 7.18 4.7 9.89
5/26/2021 11:45:00 AM 15.45 59.81 0.048 7.19 4.45 9.84
5/26/2021 12:00:00 PM 15.64 60.152 0.048 7.15 5.04 9.79
5/26/2021 12:15:00 PM 15.89 60.602 0.048 7.2 4.66 9.76
5/26/2021 12:30:00 PM 16.15 61.07 0.048 7.21 4.66 9.72
5/26/2021 12:45:00 PM 16.42 61.556 0.048 7.22 4.72 9.66
5/26/2021 1:00:00 PM 16.32 61.376 0.048 7.19 4.64 9.54
5/26/2021 1:15:00 PM 16.29 61.322 0.048 7.16 5.11 9.51
5/26/2021 1:30:00 PM 16.56 61.808 0.048 7.18 4.71 9.54
5/26/2021 1:45:00 PM 16.77 62.186 0.048 7.2 4.76 9.49
5/26/2021 2:00:00 PM 16.92 62.456 0.048 7.2 5.16 9.44
5/26/2021 2:15:00 PM 17.19 62.942 0.048 7.19 4.9 9.42
5/26/2021 2:30:00 PM 17.39 63.302 0.048 7.2 5.14 9.38
5/26/2021 2:45:00 PM 17.6 63.68 0.048 7.2 4.63 9.34
5/26/2021 3:00:00 PM 17.81 64.058 0.048 7.22 4.82 9.31
5/26/2021 3:15:00 PM 17.96 64.328 0.048 7.21 4.94 9.27
5/26/2021 3:30:00 PM 18.11 64.598 0.048 7.2 5 9.23
5/26/2021 3:45:00 PM 18.14 64.652 0.048 7.2 4.84 9.16
5/26/2021 4:00:00 PM 18.04 64.472 0.048 7.16 5.26 9.11
5/26/2021 4:15:00 PM 17.9 64.22 0.048 7.15 5.46 8.99
5/26/2021 4:30:00 PM 17.82 64.076 0.048 7.13 4.84 9.02
5/26/2021 4:45:00 PM 17.72 63.896 0.048 7.12 5.02 8.94
5/26/2021 5:00:00 PM 17.6 63.68 0.048 7.11 5.04 8.91
5/26/2021 5:15:00 PM 17.46 63.428 0.049 7.1 5.19 8.91
5/26/2021 5:30:00 PM 17.43 63.374 0.048 7.09 4.93 9.01
5/26/2021 5:45:00 PM 17.37 63.266 0.049 7.14 5.01 9.07
5/26/2021 6:00:00 PM 17.32 63.176 0.049 7.12 5.07 9.06
5/26/2021 6:15:00 PM 17.21 62.978 0.049 7.12 4.81 9
5/26/2021 6:30:00 PM 17.12 62.816 0.049 7.12 5.02 8.99
5/26/2021 6:45:00 PM 16.99 62.582 0.049 7.09 4.93 8.96
5/26/2021 7:00:00 PM 16.87 62.366 0.049 7.05 5.13 8.96
5/26/2021 7:15:00 PM 16.72 62.096 0.049 7.07 4.75 8.94
5/26/2021 7:30:00 PM 16.59 61.862 0.049 7.02 5.09 8.93
5/26/2021 7:45:00 PM 16.47 61.646 0.05 7.04 5.18 8.93
5/26/2021 8:00:00 PM 16.34 61.412 0.05 7.03 5.55 8.94
5/26/2021 8:15:00 PM 16.23 61.214 0.05 7.02 5.66 8.96
5/26/2021 8:30:00 PM 16.12 61.016 0.05 7.03 5.01 8.96
5/26/2021 8:45:00 PM 16.02 60.836 0.05 7 5.29 8.96
5/26/2021 9:00:00 PM 15.91 60.638 0.05 7.01 4.95 8.98
5/26/2021 9:15:00 PM 15.8 60.44 0.05 6.99 5.76 8.98
5/26/2021 9:30:00 PM 15.67 60.206 0.05 7 4.7 9.01
5/26/2021 9:45:00 PM 15.55 59.99 0.05 6.98 5.67 9.04
5/26/2021 10:00:00 PM 15.43 59.774 0.05 6.97 5.45 9.06
5/26/2021 10:15:00 PM 15.31 59.558 0.05 6.98 5.41 9.08
5/26/2021 10:30:00 PM 15.18 59.324 0.05 6.93 5.37 9.1
5/26/2021 10:45:00 PM 15.05 59.09 0.05 6.96 5.33 9.13
5/26/2021 11:00:00 PM 14.93 58.874 0.05 6.98 5.21 9.17
5/26/2021 11:15:00 PM 14.81 58.658 0.05 6.98 5.18 9.19
5/26/2021 11:30:00 PM 14.69 58.442 0.051 6.97 5.6 9.22
5/26/2021 11:45:00 PM 14.57 58.226 0.051 6.99 5.44 9.25
5/27/2021 12:00:00 AM 14.46 58.028 0.051 6.97 5.59 9.28
5/27/2021 12:15:00 AM 14.35 57.83 0.051 6.98 5.26 9.31
5/27/2021 12:30:00 AM 14.26 57.668 0.051 6.99 5.1 9.34
5/27/2021 12:45:00 AM 14.18 57.524 0.051 6.95 4.89 9.36
5/27/2021 1:00:00 AM 14.11 57.398 0.051 6.98 5.24 9.38
5/27/2021 1:15:00 AM 14.01 57.218 0.051 7 5.4 9.4
5/27/2021 1:30:00 AM 13.91 57.038 0.051 6.97 5.32 9.42
5/27/2021 1:45:00 AM 13.79 56.822 0.051 6.95 5 9.45
5/27/2021 2:00:00 AM 13.69 56.642 0.051 6.97 4.83 9.48
5/27/2021 2:15:00 AM 13.59 56.462 0.051 6.99 5.01 9.5
5/27/2021 2:30:00 AM 13.5 56.3 0.051 6.98 5.31 9.53
5/27/2021 2:45:00 AM 13.41 56.138 0.051 6.99 5.5 9.55
5/27/2021 3:00:00 AM 13.33 55.994 0.051 6.97 5.03 9.56
5/27/2021 3:15:00 AM 13.24 55.832 0.051 6.99 5.06 9.58
5/27/2021 3:30:00 AM 13.16 55.688 0.051 6.94 5.07 9.6
5/27/2021 3:45:00 AM 13.08 55.544 0.051 6.99 4.98 9.63
5/27/2021 4:00:00 AM 12.99 55.382 0.051 6.95 4.82 9.65
5/27/2021 4:15:00 AM 12.91 55.238 0.05 6.98 5.13 9.67
5/27/2021 4:30:00 AM 12.82 55.076 0.051 6.94 5.24 9.69
5/27/2021 4:45:00 AM 12.73 54.914 0.05 6.97 4.95 9.71
5/27/2021 5:00:00 AM 12.64 54.752 0.05 6.98 5.01 9.73
5/27/2021 5:15:00 AM 12.56 54.608 0.05 6.95 5.26 9.75
5/27/2021 5:30:00 AM 12.48 54.464 0.05 6.99 5.2 9.77
5/27/2021 5:45:00 AM 12.41 54.338 0.05 6.98 4.92 9.8
5/27/2021 6:00:00 AM 12.33 54.194 0.05 6.96 4.76 9.83
5/27/2021 6:15:00 AM 12.27 54.086 0.05 6.98 5.44 9.85
5/27/2021 6:30:00 AM 12.2 53.96 0.05 6.99 6.11 9.88
5/27/2021 6:45:00 AM 12.13 53.834 0.05 7 6.16 9.91
5/27/2021 7:00:00 AM 12.08 53.744 0.05 7 5.56 9.95
5/27/2021 7:15:00 AM 12.04 53.672 0.05 6.99 5.54 9.97
5/27/2021 7:30:00 AM 12.02 53.636 0.05 7.02 4.99 10.02
5/27/2021 7:45:00 AM 12.03 53.654 0.05 7.05 4.91 10.05
5/27/2021 8:00:00 AM 12.06 53.708 0.05 7.06 5.86 10.08
5/27/2021 8:15:00 AM 12.13 53.834 0.05 7.03 5.04 10.12
5/27/2021 8:30:00 AM 12.23 54.014 0.05 7.06 5.22 10.15
5/27/2021 8:45:00 AM 12.34 54.212 0.05 7.06 4.64 10.17
5/27/2021 9:00:00 AM 12.47 54.446 0.05 7.09 4.94 10.18
5/27/2021 9:15:00 AM 12.65 54.77 0.05 7.11 4.82 10.18
5/27/2021 9:30:00 AM 12.83 55.094 0.05 7.11 4.71 10.18
5/27/2021 9:45:00 AM 13.02 55.436 0.049 7.13 4.66 10.17
5/27/2021 10:00:00 AM 13.22 55.796 0.049 7.14 4.43 10.16
5/27/2021 10:15:00 AM 13.4 56.12 0.049 7.1 4.3 10.14
5/27/2021 10:30:00 AM 13.61 56.498 0.049 7.14 4.48 10.12
5/27/2021 10:45:00 AM 13.82 56.876 0.049 7.16 5.02 10.1
5/27/2021 11:00:00 AM 14.02 57.236 0.049 7.16 4.67 10.07
5/27/2021 11:15:00 AM 14.22 57.596 0.049 7.13 4.32 10.05
5/27/2021 11:30:00 AM 14.45 58.01 0.049 7.17 4.8 10
5/27/2021 11:45:00 AM 14.68 58.424 0.049 7.17 4.96 9.96
5/27/2021 12:00:00 PM 14.92 58.856 0.049 7.2 4.7 9.93
5/27/2021 12:15:00 PM 15.16 59.288 0.049 7.19 4.52 9.87
5/27/2021 12:30:00 PM 15.37 59.666 0.049 7.16 4.76 9.84
5/27/2021 12:45:00 PM 15.59 60.062 0.049 7.19 4.49 9.8
5/27/2021 1:00:00 PM 15.79 60.422 0.049 7.18 5.16 9.76
5/27/2021 1:15:00 PM 15.99 60.782 0.049 7.2 4.92 9.73
5/27/2021 1:30:00 PM 16.18 61.124 0.049 7.21 4.69 9.69
5/27/2021 1:45:00 PM 16.36 61.448 0.049 7.21 4.52 9.64
5/27/2021 2:00:00 PM 16.46 61.628 0.049 7.2 4.95 9.61
5/27/2021 2:15:00 PM 16.52 61.736 0.049 7.17 4.64 9.59
5/27/2021 2:30:00 PM 16.55 61.79 0.049 7.22 4.73 9.59
5/27/2021 2:45:00 PM 16.61 61.898 0.049 7.22 4.74 9.57
5/27/2021 3:00:00 PM 16.68 62.024 0.049 7.23 4.81 9.55
5/27/2021 3:15:00 PM 16.64 61.952 0.049 7.18 4.64 9.52
5/27/2021 3:30:00 PM 16.7 62.06 0.049 7.21 4.83 9.51
5/27/2021 3:45:00 PM 16.84 62.312 0.049 7.21 4.65 9.47
5/27/2021 4:00:00 PM 16.94 62.492 0.049 7.21 4.88 9.43
5/27/2021 4:15:00 PM 17 62.6 0.049 7.17 4.51 9.4
5/27/2021 4:30:00 PM 17.01 62.618 0.049 7.19 5.46 9.38
5/27/2021 4:45:00 PM 16.94 62.492 0.049 7.19 4.57 9.36
5/27/2021 5:00:00 PM 16.82 62.276 0.049 7.18 4.47 9.37
5/27/2021 5:15:00 PM 16.72 62.096 0.049 7.15 4.78 9.37
5/27/2021 5:30:00 PM 16.63 61.934 0.049 7.19 4.45 9.35
5/27/2021 5:45:00 PM 16.51 61.718 0.049 7.15 4.59 9.34
5/27/2021 6:00:00 PM 16.39 61.502 0.049 7.17 4.53 9.34
5/27/2021 6:15:00 PM 16.25 61.25 0.049 7.17 4.81 9.33
5/27/2021 6:30:00 PM 16.1 60.98 0.049 7.16 4.88 9.31
5/27/2021 6:45:00 PM 15.9 60.62 0.049 7.15 5.38 9.29
5/27/2021 7:00:00 PM 15.73 60.314 0.049 7.15 4.55 9.32
5/27/2021 7:15:00 PM 15.58 60.044 0.049 7.14 4.73 9.34
5/27/2021 7:30:00 PM 15.37 59.666 0.049 7.1 4.65 9.33
5/27/2021 7:45:00 PM 15.16 59.288 0.049 7.07 5.58 9.32
5/27/2021 8:00:00 PM 14.97 58.946 0.05 7.1 5.07 9.34
5/27/2021 8:15:00 PM 14.8 58.64 0.05 7.06 5.5 9.35
5/27/2021 8:30:00 PM 14.64 58.352 0.05 7.06 4.66 9.35
5/27/2021 8:45:00 PM 14.47 58.046 0.05 7.02 4.81 9.36
5/27/2021 9:00:00 PM 14.31 57.758 0.05 7.06 4.82 9.39
5/27/2021 9:15:00 PM 14.15 57.47 0.05 7.02 4.83 9.41
5/27/2021 9:30:00 PM 14 57.2 0.05 7.04 5.15 9.43
5/27/2021 9:45:00 PM 13.85 56.93 0.05 7.04 4.75 9.46
5/27/2021 10:00:00 PM 13.7 56.66 0.05 7.02 5.03 9.5
5/27/2021 10:15:00 PM 13.56 56.408 0.05 7.05 5.24 9.53
5/27/2021 10:30:00 PM 13.42 56.156 0.05 7.02 5 9.55
5/27/2021 10:45:00 PM 13.3 55.94 0.05 7 5.35 9.58
5/27/2021 11:00:00 PM 13.18 55.724 0.05 7.02 5.88 9.61
5/27/2021 11:15:00 PM 13.06 55.508 0.05 7.04 5.3 9.64
5/27/2021 11:30:00 PM 12.95 55.31 0.051 7.03 4.85 9.67
5/27/2021 11:45:00 PM 12.84 55.112 0.051 7.02 4.72 9.69
5/28/2021 12:00:00 AM 12.75 54.95 0.051 7.04 5.46 9.72
5/28/2021 12:15:00 AM 12.66 54.788 0.051 7.04 5.35 9.74
5/28/2021 12:30:00 AM 12.56 54.608 0.051 7.03 4.96 9.76
5/28/2021 12:45:00 AM 12.47 54.446 0.051 7.03 4.5 9.79
5/28/2021 1:00:00 AM 12.38 54.284 0.051 7.02 4.55 9.82
5/28/2021 1:15:00 AM 12.29 54.122 0.051 7.03 4.61 9.83
5/28/2021 1:30:00 AM 12.2 53.96 0.051 7.01 4.58 9.86
5/28/2021 1:45:00 AM 12.11 53.798 0.051 7.03 4.88 9.88
5/28/2021 2:00:00 AM 12.02 53.636 0.051 7.02 4.82 9.89
5/28/2021 2:15:00 AM 11.94 53.492 0.051 7.02 4.54 9.92
5/28/2021 2:30:00 AM 11.84 53.312 0.051 7.04 4.82 9.94
5/28/2021 2:45:00 AM 11.75 53.15 0.051 7.02 4.74 9.97
5/28/2021 3:00:00 AM 11.66 52.988 0.051 7.02 5.08 9.99
5/28/2021 3:15:00 AM 11.57 52.826 0.051 7.02 5.2 10
5/28/2021 3:30:00 AM 11.47 52.646 0.051 7.02 5.07 10.03
5/28/2021 3:45:00 AM 11.37 52.466 0.051 7.01 4.97 10.05
5/28/2021 4:00:00 AM 11.27 52.286 0.051 7.04 4.76 10.07
5/28/2021 4:15:00 AM 11.18 52.124 0.051 7.01 4.82 10.11
5/28/2021 4:30:00 AM 11.08 51.944 0.051 7.02 4.57 10.13
5/28/2021 4:45:00 AM 11 51.8 0.05 6.99 4.68 10.15
5/28/2021 5:00:00 AM 10.92 51.656 0.051 7.02 4.38 10.17
5/28/2021 5:15:00 AM 10.84 51.512 0.051 7.02 4.64 10.19
5/28/2021 5:30:00 AM 10.77 51.386 0.051 6.98 5.05 10.21
5/28/2021 5:45:00 AM 10.72 51.296 0.051 7.02 5 10.22
5/28/2021 6:00:00 AM 10.66 51.188 0.051 7.01 4.75 10.25
5/28/2021 6:15:00 AM 10.61 51.098 0.051 7.03 4.67 10.28
5/28/2021 6:30:00 AM 10.56 51.008 0.05 7.01 4.47 10.31
5/28/2021 6:45:00 AM 10.51 50.918 0.05 7.04 4.87 10.34
5/28/2021 7:00:00 AM 10.48 50.864 0.05 7.03 5.43 10.37
5/28/2021 7:15:00 AM 10.45 50.81 0.05 7.06 5.54 10.41
5/28/2021 7:30:00 AM 10.42 50.756 0.05 7.06 5.15 10.44
5/28/2021 7:45:00 AM 10.39 50.702 0.05 7.03 5.22 10.44
5/28/2021 8:00:00 AM 10.36 50.648 0.05 7.06 4.6 10.47
5/28/2021 8:15:00 AM 10.34 50.612 0.05 7.06 4.69 10.49
5/28/2021 8:30:00 AM 10.32 50.576 0.05 7.08 4.52 10.5
5/28/2021 8:45:00 AM 10.3 50.54 0.05 7.08 4.58 10.52
5/28/2021 9:00:00 AM 10.29 50.522 0.05 7.08 4.8 10.54
5/28/2021 9:15:00 AM 10.3 50.54 0.05 7.07 5.77 10.59
5/28/2021 9:30:00 AM 10.33 50.594 0.05 7.11 5.19 10.63
5/28/2021 9:45:00 AM 10.33 50.594 0.05 7.11 4.22 10.62
5/28/2021 10:00:00 AM 10.34 50.612 0.05 7.11 4.58 10.62
5/28/2021 10:15:00 AM 10.35 50.63 0.05 7.1 4.74 10.64
5/28/2021 10:30:00 AM 10.37 50.666